<?xml version='1.0' encoding='UTF-8'?><gpx version="1.1" creator="JPX - https://github.com/jenetics/jpx" xmlns="http://www.topografix.com/GPX/1/1"><trk><trkseg><trkpt lat="44.0981665" lon="10.9216932"><ele>696.0</ele><time>2026-04-24T14:09:08.888Z</time></trkpt><trkpt lat="44.0982439" lon="10.9216883"><ele>696.0</ele><time>2026-04-24T14:09:09.889Z</time></trkpt><trkpt lat="44.0983278" lon="10.9216794"><ele>696.0</ele><time>2026-04-24T14:09:10.889Z</time></trkpt><trkpt lat="44.0984142" lon="10.9216721"><ele>696.0</ele><time>2026-04-24T14:09:11.889Z</time></trkpt><trkpt lat="44.0985029" lon="10.9216483"><ele>696.0</ele><time>2026-04-24T14:09:12.89Z</time></trkpt><trkpt lat="44.0986011" lon="10.9216181"><ele>696.0</ele><time>2026-04-24T14:09:13.888Z</time></trkpt><trkpt lat="44.0987068" lon="10.9215808"><ele>701.0</ele><time>2026-04-24T14:09:14.89Z</time></trkpt><trkpt lat="44.0988087" lon="10.9215322"><ele>706.0</ele><time>2026-04-24T14:09:15.889Z</time></trkpt><trkpt lat="44.0989185" lon="10.9214768"><ele>711.0</ele><time>2026-04-24T14:09:16.888Z</time></trkpt><trkpt lat="44.0990303" lon="10.9214049"><ele>716.0</ele><time>2026-04-24T14:09:17.89Z</time></trkpt><trkpt lat="44.0991452" lon="10.9213225"><ele>720.75</ele><time>2026-04-24T14:09:18.889Z</time></trkpt><trkpt lat="44.0992637" lon="10.921233"><ele>725.5</ele><time>2026-04-24T14:09:19.889Z</time></trkpt><trkpt lat="44.0993711" lon="10.9211439"><ele>730.25</ele><time>2026-04-24T14:09:20.888Z</time></trkpt><trkpt lat="44.0994726" lon="10.9210689"><ele>735.0</ele><time>2026-04-24T14:09:21.89Z</time></trkpt><trkpt lat="44.0995621" lon="10.9210025"><ele>735.0</ele><time>2026-04-24T14:09:22.889Z</time></trkpt><trkpt lat="44.0996461" lon="10.9209454"><ele>735.0</ele><time>2026-04-24T14:09:23.89Z</time></trkpt><trkpt lat="44.0997401" lon="10.92092"><ele>735.0</ele><time>2026-04-24T14:09:24.89Z</time></trkpt><trkpt lat="44.0998381" lon="10.920923"><ele>735.0</ele><time>2026-04-24T14:09:25.89Z</time></trkpt><trkpt lat="44.0999379" lon="10.9209558"><ele>735.0</ele><time>2026-04-24T14:09:26.889Z</time></trkpt><trkpt lat="44.1000387" lon="10.9209899"><ele>738.4</ele><time>2026-04-24T14:09:27.89Z</time></trkpt><trkpt lat="44.1001425" lon="10.9210309"><ele>741.8</ele><time>2026-04-24T14:09:28.888Z</time></trkpt><trkpt lat="44.1002467" lon="10.9210549"><ele>745.2</ele><time>2026-04-24T14:09:29.89Z</time></trkpt><trkpt lat="44.1003542" lon="10.9210472"><ele>748.6</ele><time>2026-04-24T14:09:30.889Z</time></trkpt><trkpt lat="44.1004568" lon="10.9210207"><ele>752.0</ele><time>2026-04-24T14:09:31.889Z</time></trkpt><trkpt lat="44.1005545" lon="10.9209757"><ele>752.0</ele><time>2026-04-24T14:09:32.89Z</time></trkpt><trkpt lat="44.1006499" lon="10.9209337"><ele>752.0</ele><time>2026-04-24T14:09:33.89Z</time></trkpt><trkpt lat="44.1007399" lon="10.9208971"><ele>752.0</ele><time>2026-04-24T14:09:34.889Z</time></trkpt><trkpt lat="44.1008174" lon="10.920857"><ele>752.0</ele><time>2026-04-24T14:09:35.889Z</time></trkpt><trkpt lat="44.1008895" lon="10.9208305"><ele>752.0</ele><time>2026-04-24T14:09:36.889Z</time></trkpt><trkpt lat="44.100966" lon="10.9208271"><ele>752.0</ele><time>2026-04-24T14:09:37.888Z</time></trkpt><trkpt lat="44.1010418" lon="10.9208419"><ele>753.1666666666666</ele><time>2026-04-24T14:09:38.89Z</time></trkpt><trkpt lat="44.1011134" lon="10.9208811"><ele>754.3333333333333</ele><time>2026-04-24T14:09:39.888Z</time></trkpt><trkpt lat="44.1011781" lon="10.9209289"><ele>755.5</ele><time>2026-04-24T14:09:40.888Z</time></trkpt><trkpt lat="44.1012331" lon="10.9210113"><ele>756.6666666666666</ele><time>2026-04-24T14:09:41.889Z</time></trkpt><trkpt lat="44.1012905" lon="10.9210829"><ele>757.8333333333334</ele><time>2026-04-24T14:09:42.889Z</time></trkpt><trkpt lat="44.1013472" lon="10.9211577"><ele>759.0</ele><time>2026-04-24T14:09:43.89Z</time></trkpt><trkpt lat="44.1014027" lon="10.9212331"><ele>759.0</ele><time>2026-04-24T14:09:44.889Z</time></trkpt><trkpt lat="44.101444" lon="10.9213015"><ele>759.0</ele><time>2026-04-24T14:09:45.888Z</time></trkpt><trkpt lat="44.1014661" lon="10.9214548"><ele>759.0</ele><time>2026-04-24T14:09:47.888Z</time></trkpt><trkpt lat="44.1013823" lon="10.9215458"><ele>759.0</ele><time>2026-04-24T14:09:49.888Z</time></trkpt><trkpt lat="44.1012668" lon="10.9214851"><ele>759.0</ele><time>2026-04-24T14:09:51.889Z</time></trkpt><trkpt lat="44.1012045" lon="10.9214263"><ele>759.0</ele><time>2026-04-24T14:09:52.89Z</time></trkpt><trkpt lat="44.1011379" lon="10.9213786"><ele>759.0</ele><time>2026-04-24T14:09:53.888Z</time></trkpt><trkpt lat="44.1010627" lon="10.9213502"><ele>759.0</ele><time>2026-04-24T14:09:54.89Z</time></trkpt><trkpt lat="44.1009847" lon="10.9213442"><ele>759.0</ele><time>2026-04-24T14:09:55.89Z</time></trkpt><trkpt lat="44.1009061" lon="10.9213563"><ele>759.0</ele><time>2026-04-24T14:09:56.889Z</time></trkpt><trkpt lat="44.1008291" lon="10.9213845"><ele>759.0</ele><time>2026-04-24T14:09:57.888Z</time></trkpt><trkpt lat="44.100753" lon="10.9214266"><ele>757.6</ele><time>2026-04-24T14:09:58.89Z</time></trkpt><trkpt lat="44.1006703" lon="10.9214975"><ele>756.2</ele><time>2026-04-24T14:09:59.89Z</time></trkpt><trkpt lat="44.1005856" lon="10.9215696"><ele>754.8000000000001</ele><time>2026-04-24T14:10:00.889Z</time></trkpt><trkpt lat="44.1005083" lon="10.92164"><ele>753.4000000000001</ele><time>2026-04-24T14:10:01.89Z</time></trkpt><trkpt lat="44.1004307" lon="10.9217134"><ele>752.0</ele><time>2026-04-24T14:10:02.889Z</time></trkpt><trkpt lat="44.100347" lon="10.9217749"><ele>756.4000000000001</ele><time>2026-04-24T14:10:03.889Z</time></trkpt><trkpt lat="44.1002564" lon="10.9218133"><ele>760.8000000000001</ele><time>2026-04-24T14:10:04.889Z</time></trkpt><trkpt lat="44.1001646" lon="10.9218397"><ele>765.2</ele><time>2026-04-24T14:10:05.889Z</time></trkpt><trkpt lat="44.1000743" lon="10.9218625"><ele>769.6</ele><time>2026-04-24T14:10:06.889Z</time></trkpt><trkpt lat="44.0999845" lon="10.9218849"><ele>774.0</ele><time>2026-04-24T14:10:07.89Z</time></trkpt><trkpt lat="44.0998955" lon="10.9219087"><ele>774.0</ele><time>2026-04-24T14:10:08.889Z</time></trkpt><trkpt lat="44.0998095" lon="10.9219535"><ele>774.0</ele><time>2026-04-24T14:10:09.89Z</time></trkpt><trkpt lat="44.0997234" lon="10.9220107"><ele>774.0</ele><time>2026-04-24T14:10:10.889Z</time></trkpt><trkpt lat="44.0996362" lon="10.9220706"><ele>774.0</ele><time>2026-04-24T14:10:11.888Z</time></trkpt><trkpt lat="44.099543" lon="10.9221268"><ele>774.0</ele><time>2026-04-24T14:10:12.889Z</time></trkpt><trkpt lat="44.0994466" lon="10.9221821"><ele>774.0</ele><time>2026-04-24T14:10:13.888Z</time></trkpt><trkpt lat="44.0993499" lon="10.9222362"><ele>774.0</ele><time>2026-04-24T14:10:14.888Z</time></trkpt><trkpt lat="44.0992524" lon="10.9222904"><ele>774.0</ele><time>2026-04-24T14:10:15.889Z</time></trkpt><trkpt lat="44.0991555" lon="10.922346"><ele>774.0</ele><time>2026-04-24T14:10:16.888Z</time></trkpt><trkpt lat="44.0990578" lon="10.9224064"><ele>774.0</ele><time>2026-04-24T14:10:17.888Z</time></trkpt><trkpt lat="44.0989643" lon="10.9224763"><ele>775.8000000000001</ele><time>2026-04-24T14:10:18.89Z</time></trkpt><trkpt lat="44.0988687" lon="10.9225503"><ele>777.6</ele><time>2026-04-24T14:10:19.889Z</time></trkpt><trkpt lat="44.0987721" lon="10.9226265"><ele>779.4</ele><time>2026-04-24T14:10:20.889Z</time></trkpt><trkpt lat="44.0986727" lon="10.9226983"><ele>781.2</ele><time>2026-04-24T14:10:21.889Z</time></trkpt><trkpt lat="44.0985735" lon="10.9227719"><ele>783.0</ele><time>2026-04-24T14:10:22.889Z</time></trkpt><trkpt lat="44.0984726" lon="10.9228403"><ele>783.0</ele><time>2026-04-24T14:10:23.889Z</time></trkpt><trkpt lat="44.0983741" lon="10.9228981"><ele>783.0</ele><time>2026-04-24T14:10:24.889Z</time></trkpt><trkpt lat="44.0982816" lon="10.9229366"><ele>783.0</ele><time>2026-04-24T14:10:25.89Z</time></trkpt><trkpt lat="44.0982112" lon="10.9229738"><ele>783.0</ele><time>2026-04-24T14:10:26.888Z</time></trkpt><trkpt lat="44.0981596" lon="10.9231084"><ele>783.0</ele><time>2026-04-24T14:10:28.889Z</time></trkpt><trkpt lat="44.0982624" lon="10.9231535"><ele>783.0</ele><time>2026-04-24T14:10:30.889Z</time></trkpt><trkpt lat="44.0983234" lon="10.9231169"><ele>783.0</ele><time>2026-04-24T14:10:31.889Z</time></trkpt><trkpt lat="44.0983895" lon="10.9230661"><ele>783.0</ele><time>2026-04-24T14:10:32.889Z</time></trkpt><trkpt lat="44.0984675" lon="10.9230237"><ele>783.0</ele><time>2026-04-24T14:10:33.889Z</time></trkpt><trkpt lat="44.0985522" lon="10.9229804"><ele>783.0</ele><time>2026-04-24T14:10:34.89Z</time></trkpt><trkpt lat="44.0986414" lon="10.9229298"><ele>783.0</ele><time>2026-04-24T14:10:35.888Z</time></trkpt><trkpt lat="44.098738" lon="10.9228807"><ele>783.0</ele><time>2026-04-24T14:10:36.89Z</time></trkpt><trkpt lat="44.0988338" lon="10.9228394"><ele>783.0</ele><time>2026-04-24T14:10:37.889Z</time></trkpt><trkpt lat="44.0989328" lon="10.9228003"><ele>783.0</ele><time>2026-04-24T14:10:38.89Z</time></trkpt><trkpt lat="44.0990314" lon="10.9227691"><ele>783.0</ele><time>2026-04-24T14:10:39.889Z</time></trkpt><trkpt lat="44.0991346" lon="10.9227401"><ele>783.0</ele><time>2026-04-24T14:10:40.888Z</time></trkpt><trkpt lat="44.0992368" lon="10.9227123"><ele>789.5</ele><time>2026-04-24T14:10:41.889Z</time></trkpt><trkpt lat="44.0993438" lon="10.9226819"><ele>796.0</ele><time>2026-04-24T14:10:42.888Z</time></trkpt><trkpt lat="44.0994546" lon="10.9226634"><ele>802.5</ele><time>2026-04-24T14:10:43.889Z</time></trkpt><trkpt lat="44.0995683" lon="10.9226559"><ele>809.0</ele><time>2026-04-24T14:10:44.888Z</time></trkpt><trkpt lat="44.0996852" lon="10.9226592"><ele>809.0</ele><time>2026-04-24T14:10:45.889Z</time></trkpt><trkpt lat="44.0998029" lon="10.9226675"><ele>809.0</ele><time>2026-04-24T14:10:46.889Z</time></trkpt><trkpt lat="44.0999205" lon="10.9226807"><ele>809.0</ele><time>2026-04-24T14:10:47.888Z</time></trkpt><trkpt lat="44.1000361" lon="10.9226893"><ele>809.0</ele><time>2026-04-24T14:10:48.887Z</time></trkpt><trkpt lat="44.1001586" lon="10.9227045"><ele>810.8000000000001</ele><time>2026-04-24T14:10:49.888Z</time></trkpt><trkpt lat="44.1002734" lon="10.9227026"><ele>812.6</ele><time>2026-04-24T14:10:50.888Z</time></trkpt><trkpt lat="44.1003805" lon="10.9227056"><ele>814.4</ele><time>2026-04-24T14:10:51.887Z</time></trkpt><trkpt lat="44.1004765" lon="10.9227189"><ele>816.2</ele><time>2026-04-24T14:10:52.888Z</time></trkpt><trkpt lat="44.100561" lon="10.9227521"><ele>818.0</ele><time>2026-04-24T14:10:53.89Z</time></trkpt><trkpt lat="44.1006445" lon="10.922803"><ele>818.0</ele><time>2026-04-24T14:10:54.888Z</time></trkpt><trkpt lat="44.1006995" lon="10.9228561"><ele>818.0</ele><time>2026-04-24T14:10:55.889Z</time></trkpt><trkpt lat="44.1007551" lon="10.9229879"><ele>818.0</ele><time>2026-04-24T14:10:57.888Z</time></trkpt><trkpt lat="44.1006684" lon="10.9230261"><ele>818.0</ele><time>2026-04-24T14:10:58.888Z</time></trkpt><trkpt lat="44.1005647" lon="10.9229515"><ele>818.0</ele><time>2026-04-24T14:11:00.888Z</time></trkpt><trkpt lat="44.100498" lon="10.9229014"><ele>818.0</ele><time>2026-04-24T14:11:01.888Z</time></trkpt><trkpt lat="44.1004141" lon="10.922896"><ele>818.0</ele><time>2026-04-24T14:11:02.887Z</time></trkpt><trkpt lat="44.1003234" lon="10.9229109"><ele>818.0</ele><time>2026-04-24T14:11:03.888Z</time></trkpt><trkpt lat="44.1002276" lon="10.9229275"><ele>818.0</ele><time>2026-04-24T14:11:04.889Z</time></trkpt><trkpt lat="44.1001335" lon="10.9229766"><ele>818.0</ele><time>2026-04-24T14:11:05.889Z</time></trkpt><trkpt lat="44.1000304" lon="10.9230193"><ele>818.0</ele><time>2026-04-24T14:11:06.888Z</time></trkpt><trkpt lat="44.0999259" lon="10.9230797"><ele>818.0</ele><time>2026-04-24T14:11:07.887Z</time></trkpt><trkpt lat="44.0998138" lon="10.923149"><ele>818.0</ele><time>2026-04-24T14:11:08.889Z</time></trkpt><trkpt lat="44.0997046" lon="10.9232122"><ele>818.0</ele><time>2026-04-24T14:11:09.888Z</time></trkpt><trkpt lat="44.0995899" lon="10.9232912"><ele>815.75</ele><time>2026-04-24T14:11:10.888Z</time></trkpt><trkpt lat="44.0994798" lon="10.9233721"><ele>813.5</ele><time>2026-04-24T14:11:11.889Z</time></trkpt><trkpt lat="44.099375" lon="10.9234463"><ele>811.25</ele><time>2026-04-24T14:11:12.887Z</time></trkpt><trkpt lat="44.0992581" lon="10.923523"><ele>809.0</ele><time>2026-04-24T14:11:13.888Z</time></trkpt><trkpt lat="44.0991475" lon="10.9235971"><ele>808.0</ele><time>2026-04-24T14:11:14.889Z</time></trkpt><trkpt lat="44.0990369" lon="10.9236764"><ele>807.0</ele><time>2026-04-24T14:11:15.887Z</time></trkpt><trkpt lat="44.0989304" lon="10.9237398"><ele>806.0</ele><time>2026-04-24T14:11:16.889Z</time></trkpt><trkpt lat="44.0988369" lon="10.923793"><ele>805.0</ele><time>2026-04-24T14:11:17.888Z</time></trkpt><trkpt lat="44.0987516" lon="10.9238403"><ele>804.0</ele><time>2026-04-24T14:11:18.888Z</time></trkpt><trkpt lat="44.0986862" lon="10.9238956"><ele>804.0</ele><time>2026-04-24T14:11:19.888Z</time></trkpt><trkpt lat="44.0986464" lon="10.9239706"><ele>804.0</ele><time>2026-04-24T14:11:20.889Z</time></trkpt><trkpt lat="44.0986892" lon="10.9241147"><ele>804.0</ele><time>2026-04-24T14:11:22.889Z</time></trkpt><trkpt lat="44.0987414" lon="10.9241664"><ele>804.0</ele><time>2026-04-24T14:11:23.888Z</time></trkpt><trkpt lat="44.0988228" lon="10.9241288"><ele>804.0</ele><time>2026-04-24T14:11:24.888Z</time></trkpt><trkpt lat="44.0988987" lon="10.9241069"><ele>804.0</ele><time>2026-04-24T14:11:25.888Z</time></trkpt><trkpt lat="44.0989798" lon="10.9240853"><ele>804.0</ele><time>2026-04-24T14:11:26.888Z</time></trkpt><trkpt lat="44.0990676" lon="10.924067"><ele>804.0</ele><time>2026-04-24T14:11:27.887Z</time></trkpt><trkpt lat="44.0991622" lon="10.9240517"><ele>804.0</ele><time>2026-04-24T14:11:28.888Z</time></trkpt><trkpt lat="44.0992518" lon="10.9240343"><ele>804.0</ele><time>2026-04-24T14:11:29.888Z</time></trkpt><trkpt lat="44.0993456" lon="10.9240224"><ele>804.0</ele><time>2026-04-24T14:11:30.887Z</time></trkpt><trkpt lat="44.0994367" lon="10.9240216"><ele>810.2</ele><time>2026-04-24T14:11:31.887Z</time></trkpt><trkpt lat="44.0995339" lon="10.9240381"><ele>816.4000000000001</ele><time>2026-04-24T14:11:32.888Z</time></trkpt><trkpt lat="44.0996275" lon="10.9240618"><ele>822.6</ele><time>2026-04-24T14:11:33.887Z</time></trkpt><trkpt lat="44.0997172" lon="10.9240938"><ele>828.8</ele><time>2026-04-24T14:11:34.888Z</time></trkpt><trkpt lat="44.0998016" lon="10.9241359"><ele>835.0</ele><time>2026-04-24T14:11:35.888Z</time></trkpt><trkpt lat="44.099886" lon="10.924185"><ele>836.8</ele><time>2026-04-24T14:11:36.888Z</time></trkpt><trkpt lat="44.0999824" lon="10.9242098"><ele>838.6</ele><time>2026-04-24T14:11:37.888Z</time></trkpt><trkpt lat="44.1000868" lon="10.9242095"><ele>840.4000000000001</ele><time>2026-04-24T14:11:38.888Z</time></trkpt><trkpt lat="44.1001913" lon="10.9241644"><ele>842.2</ele><time>2026-04-24T14:11:39.887Z</time></trkpt><trkpt lat="44.1002902" lon="10.9241037"><ele>844.0</ele><time>2026-04-24T14:11:40.888Z</time></trkpt><trkpt lat="44.1003799" lon="10.9240176"><ele>844.0</ele><time>2026-04-24T14:11:41.888Z</time></trkpt><trkpt lat="44.1004665" lon="10.9239018"><ele>844.0</ele><time>2026-04-24T14:11:42.887Z</time></trkpt><trkpt lat="44.1005498" lon="10.9237854"><ele>844.0</ele><time>2026-04-24T14:11:43.887Z</time></trkpt><trkpt lat="44.1006379" lon="10.9236681"><ele>844.0</ele><time>2026-04-24T14:11:44.887Z</time></trkpt><trkpt lat="44.1007256" lon="10.9235623"><ele>840.0</ele><time>2026-04-24T14:11:45.888Z</time></trkpt><trkpt lat="44.100817" lon="10.9234737"><ele>836.0</ele><time>2026-04-24T14:11:46.887Z</time></trkpt><trkpt lat="44.1009156" lon="10.9234023"><ele>832.0</ele><time>2026-04-24T14:11:47.889Z</time></trkpt><trkpt lat="44.1010161" lon="10.9233327"><ele>828.0</ele><time>2026-04-24T14:11:48.887Z</time></trkpt><trkpt lat="44.1011091" lon="10.9232734"><ele>824.0</ele><time>2026-04-24T14:11:49.889Z</time></trkpt><trkpt lat="44.1012021" lon="10.9232346"><ele>824.0</ele><time>2026-04-24T14:11:50.888Z</time></trkpt><trkpt lat="44.1013111" lon="10.923233"><ele>824.0</ele><time>2026-04-24T14:11:51.889Z</time></trkpt><trkpt lat="44.1014231" lon="10.9232281"><ele>824.0</ele><time>2026-04-24T14:11:52.889Z</time></trkpt><trkpt lat="44.10154" lon="10.923196"><ele>824.0</ele><time>2026-04-24T14:11:53.889Z</time></trkpt><trkpt lat="44.101652" lon="10.9231593"><ele>827.75</ele><time>2026-04-24T14:11:54.889Z</time></trkpt><trkpt lat="44.101773" lon="10.9231503"><ele>831.5</ele><time>2026-04-24T14:11:55.889Z</time></trkpt><trkpt lat="44.1018936" lon="10.923148"><ele>835.25</ele><time>2026-04-24T14:11:56.888Z</time></trkpt><trkpt lat="44.1020132" lon="10.9231246"><ele>839.0</ele><time>2026-04-24T14:11:57.888Z</time></trkpt><trkpt lat="44.1021219" lon="10.9230858"><ele>839.0</ele><time>2026-04-24T14:11:58.889Z</time></trkpt><trkpt lat="44.1022143" lon="10.9230379"><ele>839.0</ele><time>2026-04-24T14:11:59.888Z</time></trkpt><trkpt lat="44.1023048" lon="10.9230107"><ele>839.0</ele><time>2026-04-24T14:12:00.889Z</time></trkpt><trkpt lat="44.1023979" lon="10.9229976"><ele>839.0</ele><time>2026-04-24T14:12:01.888Z</time></trkpt><trkpt lat="44.1024986" lon="10.9230332"><ele>839.0</ele><time>2026-04-24T14:12:02.887Z</time></trkpt><trkpt lat="44.1026011" lon="10.9230741"><ele>841.4000000000001</ele><time>2026-04-24T14:12:03.888Z</time></trkpt><trkpt lat="44.1027058" lon="10.9231073"><ele>843.8</ele><time>2026-04-24T14:12:04.887Z</time></trkpt><trkpt lat="44.1028081" lon="10.9231106"><ele>846.2</ele><time>2026-04-24T14:12:05.887Z</time></trkpt><trkpt lat="44.1029036" lon="10.9230685"><ele>848.5999999999999</ele><time>2026-04-24T14:12:06.888Z</time></trkpt><trkpt lat="44.1029926" lon="10.9229937"><ele>851.0</ele><time>2026-04-24T14:12:07.888Z</time></trkpt><trkpt lat="44.1030767" lon="10.9229173"><ele>851.0000000000001</ele><time>2026-04-24T14:12:08.889Z</time></trkpt><trkpt lat="44.1031637" lon="10.9228674"><ele>851.0</ele><time>2026-04-24T14:12:09.887Z</time></trkpt><trkpt lat="44.1032485" lon="10.9228363"><ele>851.0</ele><time>2026-04-24T14:12:10.889Z</time></trkpt><trkpt lat="44.1033316" lon="10.9228006"><ele>851.0</ele><time>2026-04-24T14:12:11.887Z</time></trkpt><trkpt lat="44.1034171" lon="10.9227731"><ele>851.0000000000001</ele><time>2026-04-24T14:12:12.889Z</time></trkpt><trkpt lat="44.1035057" lon="10.9227494"><ele>851.0</ele><time>2026-04-24T14:12:13.888Z</time></trkpt><trkpt lat="44.103594" lon="10.9227228"><ele>854.0</ele><time>2026-04-24T14:12:14.888Z</time></trkpt><trkpt lat="44.1036809" lon="10.9226763"><ele>857.0</ele><time>2026-04-24T14:12:15.888Z</time></trkpt><trkpt lat="44.1037664" lon="10.9226262"><ele>859.9999999999999</ele><time>2026-04-24T14:12:16.887Z</time></trkpt><trkpt lat="44.1038355" lon="10.9225474"><ele>863.0</ele><time>2026-04-24T14:12:17.887Z</time></trkpt><trkpt lat="44.1039079" lon="10.922472"><ele>866.0</ele><time>2026-04-24T14:12:18.887Z</time></trkpt><trkpt lat="44.1039828" lon="10.9224007"><ele>864.8333333333334</ele><time>2026-04-24T14:12:19.889Z</time></trkpt><trkpt lat="44.104054" lon="10.922348"><ele>863.6666666666667</ele><time>2026-04-24T14:12:20.887Z</time></trkpt><trkpt lat="44.1041324" lon="10.9223322"><ele>862.5</ele><time>2026-04-24T14:12:21.888Z</time></trkpt><trkpt lat="44.1042171" lon="10.9223295"><ele>861.3333333333333</ele><time>2026-04-24T14:12:22.888Z</time></trkpt><trkpt lat="44.104305" lon="10.9223229"><ele>860.1666666666666</ele><time>2026-04-24T14:12:23.888Z</time></trkpt><trkpt lat="44.1043902" lon="10.9223133"><ele>859.0</ele><time>2026-04-24T14:12:24.888Z</time></trkpt><trkpt lat="44.1044779" lon="10.9223096"><ele>858.9999999999999</ele><time>2026-04-24T14:12:25.889Z</time></trkpt><trkpt lat="44.1045669" lon="10.9223191"><ele>859.0</ele><time>2026-04-24T14:12:26.887Z</time></trkpt><trkpt lat="44.1046537" lon="10.9223428"><ele>859.0</ele><time>2026-04-24T14:12:27.888Z</time></trkpt><trkpt lat="44.1047303" lon="10.9224017"><ele>859.0</ele><time>2026-04-24T14:12:28.888Z</time></trkpt><trkpt lat="44.1047893" lon="10.9224982"><ele>858.9999999999999</ele><time>2026-04-24T14:12:29.888Z</time></trkpt><trkpt lat="44.1048405" lon="10.9226014"><ele>859.0</ele><time>2026-04-24T14:12:30.888Z</time></trkpt><trkpt lat="44.1048735" lon="10.9227237"><ele>865.2</ele><time>2026-04-24T14:12:31.888Z</time></trkpt><trkpt lat="44.1049167" lon="10.9228432"><ele>871.4000000000001</ele><time>2026-04-24T14:12:32.888Z</time></trkpt><trkpt lat="44.1049722" lon="10.9229523"><ele>877.6</ele><time>2026-04-24T14:12:33.887Z</time></trkpt><trkpt lat="44.1050292" lon="10.923043"><ele>883.8</ele><time>2026-04-24T14:12:34.888Z</time></trkpt><trkpt lat="44.1051279" lon="10.9230449"><ele>890.0</ele><time>2026-04-24T14:12:35.888Z</time></trkpt><trkpt lat="44.1052096" lon="10.9230283"><ele>890.0</ele><time>2026-04-24T14:12:36.888Z</time></trkpt><trkpt lat="44.1052895" lon="10.9230029"><ele>890.0</ele><time>2026-04-24T14:12:37.889Z</time></trkpt><trkpt lat="44.105351" lon="10.9229687"><ele>890.0</ele><time>2026-04-24T14:12:38.888Z</time></trkpt><trkpt lat="44.105456" lon="10.9230594"><ele>890.0</ele><time>2026-04-24T14:12:40.887Z</time></trkpt><trkpt lat="44.1054616" lon="10.923159"><ele>890.0</ele><time>2026-04-24T14:12:41.889Z</time></trkpt><trkpt lat="44.1053557" lon="10.9231801"><ele>890.0000000000001</ele><time>2026-04-24T14:12:42.889Z</time></trkpt><trkpt lat="44.1053011" lon="10.9232422"><ele>890.0</ele><time>2026-04-24T14:12:43.887Z</time></trkpt><trkpt lat="44.1052332" lon="10.9233103"><ele>890.0</ele><time>2026-04-24T14:12:44.888Z</time></trkpt><trkpt lat="44.1051574" lon="10.9233379"><ele>890.0</ele><time>2026-04-24T14:12:45.889Z</time></trkpt><trkpt lat="44.1050812" lon="10.923305"><ele>890.0000000000001</ele><time>2026-04-24T14:12:46.888Z</time></trkpt><trkpt lat="44.1050003" lon="10.923249"><ele>890.0</ele><time>2026-04-24T14:12:47.888Z</time></trkpt><trkpt lat="44.1049214" lon="10.9231991"><ele>890.2</ele><time>2026-04-24T14:12:48.889Z</time></trkpt><trkpt lat="44.1048349" lon="10.9231457"><ele>890.4</ele><time>2026-04-24T14:12:49.888Z</time></trkpt><trkpt lat="44.1047431" lon="10.9231032"><ele>890.5999999999999</ele><time>2026-04-24T14:12:50.888Z</time></trkpt><trkpt lat="44.1046467" lon="10.923088"><ele>890.8</ele><time>2026-04-24T14:12:51.888Z</time></trkpt><trkpt lat="44.1045497" lon="10.9230686"><ele>891.0</ele><time>2026-04-24T14:12:52.888Z</time></trkpt><trkpt lat="44.1044559" lon="10.9230511"><ele>891.0000000000001</ele><time>2026-04-24T14:12:53.887Z</time></trkpt><trkpt lat="44.1043734" lon="10.9230464"><ele>891.0</ele><time>2026-04-24T14:12:54.888Z</time></trkpt><trkpt lat="44.1042997" lon="10.9230575"><ele>891.0</ele><time>2026-04-24T14:12:55.888Z</time></trkpt><trkpt lat="44.1042403" lon="10.9231022"><ele>891.0</ele><time>2026-04-24T14:12:56.888Z</time></trkpt><trkpt lat="44.1042212" lon="10.9231891"><ele>891.0</ele><time>2026-04-24T14:12:57.889Z</time></trkpt><trkpt lat="44.1042445" lon="10.9232777"><ele>891.0000000000001</ele><time>2026-04-24T14:12:58.887Z</time></trkpt><trkpt lat="44.104285" lon="10.9233491"><ele>891.0</ele><time>2026-04-24T14:12:59.889Z</time></trkpt><trkpt lat="44.1043793" lon="10.9233836"><ele>897.4</ele><time>2026-04-24T14:13:00.887Z</time></trkpt><trkpt lat="44.104463" lon="10.9234338"><ele>903.8</ele><time>2026-04-24T14:13:01.889Z</time></trkpt><trkpt lat="44.1045572" lon="10.9234808"><ele>910.1999999999999</ele><time>2026-04-24T14:13:02.888Z</time></trkpt><trkpt lat="44.1046514" lon="10.9235347"><ele>916.5999999999999</ele><time>2026-04-24T14:13:03.888Z</time></trkpt><trkpt lat="44.1047395" lon="10.9235892"><ele>923.0</ele><time>2026-04-24T14:13:04.888Z</time></trkpt><trkpt lat="44.1048358" lon="10.9236424"><ele>922.2</ele><time>2026-04-24T14:13:05.887Z</time></trkpt><trkpt lat="44.1049294" lon="10.9236964"><ele>921.4</ele><time>2026-04-24T14:13:06.888Z</time></trkpt><trkpt lat="44.1050213" lon="10.9237464"><ele>920.6000000000001</ele><time>2026-04-24T14:13:07.888Z</time></trkpt><trkpt lat="44.1051069" lon="10.9238242"><ele>919.8000000000001</ele><time>2026-04-24T14:13:08.889Z</time></trkpt><trkpt lat="44.1051946" lon="10.9238943"><ele>919.0</ele><time>2026-04-24T14:13:09.888Z</time></trkpt><trkpt lat="44.1052896" lon="10.923968"><ele>919.0</ele><time>2026-04-24T14:13:10.888Z</time></trkpt><trkpt lat="44.1053739" lon="10.9240234"><ele>919.0000000000001</ele><time>2026-04-24T14:13:11.888Z</time></trkpt><trkpt lat="44.1054622" lon="10.9240684"><ele>919.0000000000001</ele><time>2026-04-24T14:13:12.888Z</time></trkpt><trkpt lat="44.1055658" lon="10.9240541"><ele>919.0</ele><time>2026-04-24T14:13:13.887Z</time></trkpt><trkpt lat="44.1056551" lon="10.9240476"><ele>919.0</ele><time>2026-04-24T14:13:14.888Z</time></trkpt><trkpt lat="44.1057492" lon="10.924035"><ele>918.8000000000001</ele><time>2026-04-24T14:13:15.888Z</time></trkpt><trkpt lat="44.1058323" lon="10.9240455"><ele>918.6000000000001</ele><time>2026-04-24T14:13:16.889Z</time></trkpt><trkpt lat="44.105909" lon="10.9240615"><ele>918.4</ele><time>2026-04-24T14:13:17.888Z</time></trkpt><trkpt lat="44.106015" lon="10.924043"><ele>918.2</ele><time>2026-04-24T14:13:19.888Z</time></trkpt><trkpt lat="44.1061236" lon="10.9240311"><ele>918.0</ele><time>2026-04-24T14:13:21.889Z</time></trkpt><trkpt lat="44.1061949" lon="10.9240071"><ele>918.0</ele><time>2026-04-24T14:13:22.888Z</time></trkpt><trkpt lat="44.1062661" lon="10.9239915"><ele>918.0</ele><time>2026-04-24T14:13:23.888Z</time></trkpt><trkpt lat="44.1063606" lon="10.9240501"><ele>918.0</ele><time>2026-04-24T14:13:25.889Z</time></trkpt><trkpt lat="44.1063486" lon="10.9241369"><ele>918.0</ele><time>2026-04-24T14:13:26.888Z</time></trkpt><trkpt lat="44.1062445" lon="10.924214"><ele>918.0</ele><time>2026-04-24T14:13:28.888Z</time></trkpt><trkpt lat="44.1061664" lon="10.924229"><ele>918.0</ele><time>2026-04-24T14:13:29.887Z</time></trkpt><trkpt lat="44.1060876" lon="10.92426"><ele>923.0</ele><time>2026-04-24T14:13:30.888Z</time></trkpt><trkpt lat="44.1060031" lon="10.9243043"><ele>928.0</ele><time>2026-04-24T14:13:31.888Z</time></trkpt><trkpt lat="44.1059274" lon="10.9243559"><ele>933.0</ele><time>2026-04-24T14:13:32.888Z</time></trkpt><trkpt lat="44.1058507" lon="10.924426"><ele>938.0</ele><time>2026-04-24T14:13:33.888Z</time></trkpt><trkpt lat="44.1057742" lon="10.92449"><ele>943.0</ele><time>2026-04-24T14:13:34.887Z</time></trkpt><trkpt lat="44.1056883" lon="10.9245392"><ele>948.0</ele><time>2026-04-24T14:13:35.889Z</time></trkpt><trkpt lat="44.1055879" lon="10.9245269"><ele>948.0</ele><time>2026-04-24T14:13:36.888Z</time></trkpt><trkpt lat="44.1054998" lon="10.9244938"><ele>948.0</ele><time>2026-04-24T14:13:37.888Z</time></trkpt><trkpt lat="44.1053995" lon="10.9244745"><ele>948.0</ele><time>2026-04-24T14:13:38.888Z</time></trkpt><trkpt lat="44.105302" lon="10.9244945"><ele>948.0</ele><time>2026-04-24T14:13:39.887Z</time></trkpt><trkpt lat="44.1052047" lon="10.9245321"><ele>948.0</ele><time>2026-04-24T14:13:40.888Z</time></trkpt><trkpt lat="44.1050959" lon="10.9245691"><ele>948.0</ele><time>2026-04-24T14:13:41.887Z</time></trkpt><trkpt lat="44.1049911" lon="10.9245792"><ele>948.0</ele><time>2026-04-24T14:13:42.888Z</time></trkpt><trkpt lat="44.1048774" lon="10.9245673"><ele>948.0</ele><time>2026-04-24T14:13:43.889Z</time></trkpt><trkpt lat="44.1047701" lon="10.9245566"><ele>948.0</ele><time>2026-04-24T14:13:44.888Z</time></trkpt><trkpt lat="44.1046557" lon="10.924505"><ele>948.0</ele><time>2026-04-24T14:13:45.887Z</time></trkpt><trkpt lat="44.1045507" lon="10.9244888"><ele>947.1666666666666</ele><time>2026-04-24T14:13:46.887Z</time></trkpt><trkpt lat="44.1044536" lon="10.9245036"><ele>946.3333333333333</ele><time>2026-04-24T14:13:47.887Z</time></trkpt><trkpt lat="44.1043681" lon="10.9244937"><ele>945.5</ele><time>2026-04-24T14:13:48.888Z</time></trkpt><trkpt lat="44.1042974" lon="10.9244913"><ele>944.6666666666666</ele><time>2026-04-24T14:13:49.888Z</time></trkpt><trkpt lat="44.1042049" lon="10.9244825"><ele>943.8333333333333</ele><time>2026-04-24T14:13:51.888Z</time></trkpt><trkpt lat="44.1041279" lon="10.9245098"><ele>943.0</ele><time>2026-04-24T14:18:08.887Z</time></trkpt><trkpt lat="44.1040625" lon="10.9245868"><ele>942.0</ele><time>2026-04-24T14:18:11.886Z</time></trkpt><trkpt lat="44.1039857" lon="10.9246889"><ele>941.0</ele><time>2026-04-24T14:18:13.887Z</time></trkpt><trkpt lat="44.1038826" lon="10.924793"><ele>940.0</ele><time>2026-04-24T14:18:15.886Z</time></trkpt><trkpt lat="44.1038248" lon="10.9248446"><ele>939.0</ele><time>2026-04-24T14:18:16.887Z</time></trkpt><trkpt lat="44.1037599" lon="10.9248909"><ele>938.0</ele><time>2026-04-24T14:18:17.887Z</time></trkpt><trkpt lat="44.1036854" lon="10.9249179"><ele>938.0000000000001</ele><time>2026-04-24T14:18:18.887Z</time></trkpt><trkpt lat="44.1036068" lon="10.9249584"><ele>938.0</ele><time>2026-04-24T14:18:19.887Z</time></trkpt><trkpt lat="44.1035316" lon="10.9249827"><ele>938.0</ele><time>2026-04-24T14:18:20.887Z</time></trkpt><trkpt lat="44.1034617" lon="10.9250211"><ele>938.0</ele><time>2026-04-24T14:18:21.886Z</time></trkpt><trkpt lat="44.1033954" lon="10.9250772"><ele>938.0000000000001</ele><time>2026-04-24T14:18:22.887Z</time></trkpt><trkpt lat="44.1033277" lon="10.9251318"><ele>938.0</ele><time>2026-04-24T14:18:23.888Z</time></trkpt><trkpt lat="44.1032613" lon="10.9251948"><ele>939.1666666666667</ele><time>2026-04-24T14:18:24.887Z</time></trkpt><trkpt lat="44.1031929" lon="10.9252589"><ele>940.3333333333334</ele><time>2026-04-24T14:18:25.887Z</time></trkpt><trkpt lat="44.1031249" lon="10.9253275"><ele>941.5</ele><time>2026-04-24T14:18:26.886Z</time></trkpt><trkpt lat="44.1030545" lon="10.9253949"><ele>942.6666666666667</ele><time>2026-04-24T14:18:27.888Z</time></trkpt><trkpt lat="44.1029834" lon="10.9254634"><ele>943.8333333333334</ele><time>2026-04-24T14:18:28.888Z</time></trkpt><trkpt lat="44.1029097" lon="10.9255118"><ele>945.0</ele><time>2026-04-24T14:18:29.887Z</time></trkpt><trkpt lat="44.1028471" lon="10.925552"><ele>945.0</ele><time>2026-04-24T14:18:30.886Z</time></trkpt><trkpt lat="44.1027847" lon="10.9255867"><ele>945.0</ele><time>2026-04-24T14:18:31.887Z</time></trkpt><trkpt lat="44.1027171" lon="10.9256297"><ele>945.0</ele><time>2026-04-24T14:18:32.887Z</time></trkpt><trkpt lat="44.1026491" lon="10.9256744"><ele>945.0</ele><time>2026-04-24T14:18:33.887Z</time></trkpt><trkpt lat="44.1025803" lon="10.9257244"><ele>945.0</ele><time>2026-04-24T14:18:34.888Z</time></trkpt><trkpt lat="44.1025075" lon="10.9257704"><ele>945.0</ele><time>2026-04-24T14:18:35.887Z</time></trkpt><trkpt lat="44.1024418" lon="10.9258233"><ele>944.6</ele><time>2026-04-24T14:18:36.886Z</time></trkpt><trkpt lat="44.1023901" lon="10.9258819"><ele>944.2</ele><time>2026-04-24T14:18:37.887Z</time></trkpt><trkpt lat="44.1023645" lon="10.9260159"><ele>943.8</ele><time>2026-04-24T14:18:39.887Z</time></trkpt><trkpt lat="44.1024565" lon="10.9260749"><ele>943.4</ele><time>2026-04-24T14:18:41.887Z</time></trkpt><trkpt lat="44.1025758" lon="10.9260172"><ele>943.0</ele><time>2026-04-24T14:18:43.886Z</time></trkpt><trkpt lat="44.1026409" lon="10.9259901"><ele>943.0</ele><time>2026-04-24T14:18:44.886Z</time></trkpt><trkpt lat="44.1027098" lon="10.925962"><ele>943.0000000000001</ele><time>2026-04-24T14:18:45.888Z</time></trkpt><trkpt lat="44.1027853" lon="10.925932"><ele>943.0</ele><time>2026-04-24T14:18:46.886Z</time></trkpt><trkpt lat="44.1028623" lon="10.925908"><ele>943.0</ele><time>2026-04-24T14:18:47.887Z</time></trkpt><trkpt lat="44.1029372" lon="10.9258957"><ele>943.0000000000001</ele><time>2026-04-24T14:18:48.887Z</time></trkpt><trkpt lat="44.1030098" lon="10.9258888"><ele>943.0</ele><time>2026-04-24T14:18:49.887Z</time></trkpt><trkpt lat="44.1030811" lon="10.9258906"><ele>943.0</ele><time>2026-04-24T14:18:50.887Z</time></trkpt><trkpt lat="44.1031519" lon="10.9258959"><ele>943.0</ele><time>2026-04-24T14:18:51.888Z</time></trkpt><trkpt lat="44.1032189" lon="10.9259102"><ele>943.0000000000001</ele><time>2026-04-24T14:18:52.887Z</time></trkpt><trkpt lat="44.1032874" lon="10.9259333"><ele>943.0</ele><time>2026-04-24T14:18:53.886Z</time></trkpt><trkpt lat="44.1033573" lon="10.9259612"><ele>943.0</ele><time>2026-04-24T14:18:54.887Z</time></trkpt><trkpt lat="44.1034261" lon="10.925991"><ele>943.0000000000001</ele><time>2026-04-24T14:18:55.887Z</time></trkpt><trkpt lat="44.1034967" lon="10.9260216"><ele>943.0</ele><time>2026-04-24T14:18:56.887Z</time></trkpt><trkpt lat="44.1035725" lon="10.9260467"><ele>943.0</ele><time>2026-04-24T14:18:57.887Z</time></trkpt><trkpt lat="44.1036379" lon="10.9260732"><ele>948.1666666666666</ele><time>2026-04-24T14:18:58.888Z</time></trkpt><trkpt lat="44.1037009" lon="10.9261024"><ele>953.3333333333333</ele><time>2026-04-24T14:18:59.887Z</time></trkpt><trkpt lat="44.1038245" lon="10.9261162"><ele>958.5</ele><time>2026-04-24T14:19:01.888Z</time></trkpt><trkpt lat="44.1038876" lon="10.9261348"><ele>963.6666666666667</ele><time>2026-04-24T14:19:02.888Z</time></trkpt><trkpt lat="44.1039591" lon="10.926156"><ele>968.8333333333334</ele><time>2026-04-24T14:19:03.887Z</time></trkpt><trkpt lat="44.1040192" lon="10.9261978"><ele>974.0</ele><time>2026-04-24T14:19:04.887Z</time></trkpt><trkpt lat="44.1040906" lon="10.9262334"><ele>976.0</ele><time>2026-04-24T14:19:05.887Z</time></trkpt><trkpt lat="44.104163" lon="10.9262709"><ele>978.0</ele><time>2026-04-24T14:19:06.887Z</time></trkpt><trkpt lat="44.1042281" lon="10.9263104"><ele>980.0</ele><time>2026-04-24T14:19:07.888Z</time></trkpt><trkpt lat="44.1042967" lon="10.9263391"><ele>982.0</ele><time>2026-04-24T14:19:08.886Z</time></trkpt><trkpt lat="44.104359" lon="10.9263743"><ele>984.0</ele><time>2026-04-24T14:19:09.887Z</time></trkpt><trkpt lat="44.1044239" lon="10.9264108"><ele>986.0</ele><time>2026-04-24T14:19:10.886Z</time></trkpt><trkpt lat="44.1044877" lon="10.9264446"><ele>988.0</ele><time>2026-04-24T14:19:11.888Z</time></trkpt><trkpt lat="44.1045504" lon="10.9264836"><ele>988.0</ele><time>2026-04-24T14:19:12.887Z</time></trkpt><trkpt lat="44.1046087" lon="10.9265341"><ele>988.0</ele><time>2026-04-24T14:19:13.887Z</time></trkpt><trkpt lat="44.1046678" lon="10.9265879"><ele>988.0</ele><time>2026-04-24T14:19:14.888Z</time></trkpt><trkpt lat="44.104727" lon="10.9266475"><ele>988.0</ele><time>2026-04-24T14:19:15.886Z</time></trkpt><trkpt lat="44.1047858" lon="10.9267141"><ele>988.0</ele><time>2026-04-24T14:19:16.888Z</time></trkpt><trkpt lat="44.1048544" lon="10.9267453"><ele>988.0</ele><time>2026-04-24T14:19:17.888Z</time></trkpt><trkpt lat="44.1049248" lon="10.9267873"><ele>988.0</ele><time>2026-04-24T14:19:18.886Z</time></trkpt><trkpt lat="44.1050001" lon="10.9268231"><ele>992.4285714285714</ele><time>2026-04-24T14:19:19.887Z</time></trkpt><trkpt lat="44.1050714" lon="10.926858"><ele>996.8571428571429</ele><time>2026-04-24T14:19:20.887Z</time></trkpt><trkpt lat="44.1051416" lon="10.9268793"><ele>1001.2857142857143</ele><time>2026-04-24T14:19:21.887Z</time></trkpt><trkpt lat="44.105212" lon="10.9269015"><ele>1005.7142857142858</ele><time>2026-04-24T14:19:22.888Z</time></trkpt><trkpt lat="44.1052837" lon="10.9269393"><ele>1010.1428571428571</ele><time>2026-04-24T14:19:23.887Z</time></trkpt><trkpt lat="44.1053546" lon="10.926967"><ele>1014.5714285714287</ele><time>2026-04-24T14:19:24.888Z</time></trkpt><trkpt lat="44.1054247" lon="10.9269934"><ele>1019.0000000000001</ele><time>2026-04-24T14:19:25.887Z</time></trkpt><trkpt lat="44.1054864" lon="10.9270185"><ele>1019.0000000000001</ele><time>2026-04-24T14:19:26.887Z</time></trkpt><trkpt lat="44.1055582" lon="10.9270394"><ele>1019.0</ele><time>2026-04-24T14:19:27.888Z</time></trkpt><trkpt lat="44.1056281" lon="10.9270483"><ele>1019.0</ele><time>2026-04-24T14:19:28.887Z</time></trkpt><trkpt lat="44.1057548" lon="10.9270625"><ele>1019.0</ele><time>2026-04-24T14:19:30.887Z</time></trkpt><trkpt lat="44.1058183" lon="10.9270692"><ele>1019.0000000000001</ele><time>2026-04-24T14:19:31.886Z</time></trkpt><trkpt lat="44.105884" lon="10.927067"><ele>1019.0</ele><time>2026-04-24T14:19:32.886Z</time></trkpt><trkpt lat="44.1059544" lon="10.9270632"><ele>1019.4285714285716</ele><time>2026-04-24T14:19:33.887Z</time></trkpt><trkpt lat="44.1060257" lon="10.9270604"><ele>1019.8571428571429</ele><time>2026-04-24T14:19:34.888Z</time></trkpt><trkpt lat="44.1060983" lon="10.9270486"><ele>1020.2857142857143</ele><time>2026-04-24T14:19:35.886Z</time></trkpt><trkpt lat="44.1061744" lon="10.9270351"><ele>1020.7142857142858</ele><time>2026-04-24T14:19:36.887Z</time></trkpt><trkpt lat="44.1062387" lon="10.9269958"><ele>1021.1428571428571</ele><time>2026-04-24T14:19:37.888Z</time></trkpt><trkpt lat="44.1063061" lon="10.9269679"><ele>1021.5714285714286</ele><time>2026-04-24T14:19:38.887Z</time></trkpt><trkpt lat="44.1063668" lon="10.9269405"><ele>1022.0</ele><time>2026-04-24T14:19:39.887Z</time></trkpt><trkpt lat="44.1064415" lon="10.9269025"><ele>1022.0000000000001</ele><time>2026-04-24T14:19:40.888Z</time></trkpt><trkpt lat="44.1065117" lon="10.9268719"><ele>1022.0</ele><time>2026-04-24T14:19:41.888Z</time></trkpt><trkpt lat="44.106578" lon="10.9268348"><ele>1022.0</ele><time>2026-04-24T14:19:42.887Z</time></trkpt><trkpt lat="44.1066708" lon="10.9267943"><ele>1022.0</ele><time>2026-04-24T14:19:44.887Z</time></trkpt><trkpt lat="44.1067432" lon="10.9268197"><ele>1022.0000000000001</ele><time>2026-04-24T14:19:46.888Z</time></trkpt><trkpt lat="44.1067332" lon="10.9269392"><ele>1022.0</ele><time>2026-04-24T14:19:56.888Z</time></trkpt><trkpt lat="44.106634" lon="10.927035"><ele>1022.0000000000001</ele><time>2026-04-24T14:19:58.887Z</time></trkpt><trkpt lat="44.1065758" lon="10.9270886"><ele>1022.0</ele><time>2026-04-24T14:19:59.886Z</time></trkpt><trkpt lat="44.1065098" lon="10.9271491"><ele>1022.0</ele><time>2026-04-24T14:20:00.887Z</time></trkpt><trkpt lat="44.1064488" lon="10.9272146"><ele>1022.0</ele><time>2026-04-24T14:20:01.886Z</time></trkpt><trkpt lat="44.1063832" lon="10.9272841"><ele>1022.0000000000001</ele><time>2026-04-24T14:20:02.886Z</time></trkpt><trkpt lat="44.1063063" lon="10.927341"><ele>1022.0</ele><time>2026-04-24T14:20:03.886Z</time></trkpt><trkpt lat="44.1062268" lon="10.9273915"><ele>1022.0000000000001</ele><time>2026-04-24T14:20:04.886Z</time></trkpt><trkpt lat="44.1061539" lon="10.9274415"><ele>1022.0</ele><time>2026-04-24T14:20:05.886Z</time></trkpt><trkpt lat="44.1060822" lon="10.9274794"><ele>1022.0</ele><time>2026-04-24T14:20:06.886Z</time></trkpt><trkpt lat="44.1060163" lon="10.9275144"><ele>1022.0</ele><time>2026-04-24T14:20:07.886Z</time></trkpt><trkpt lat="44.1059513" lon="10.927553"><ele>1022.0000000000001</ele><time>2026-04-24T14:20:08.886Z</time></trkpt><trkpt lat="44.105877" lon="10.9275795"><ele>1022.0</ele><time>2026-04-24T14:20:09.886Z</time></trkpt><trkpt lat="44.1058035" lon="10.927608"><ele>1023.6666666666667</ele><time>2026-04-24T14:20:10.885Z</time></trkpt><trkpt lat="44.1057288" lon="10.9276393"><ele>1025.3333333333335</ele><time>2026-04-24T14:20:11.886Z</time></trkpt><trkpt lat="44.1056537" lon="10.9276718"><ele>1027.0</ele><time>2026-04-24T14:20:12.887Z</time></trkpt><trkpt lat="44.1055766" lon="10.9277018"><ele>1028.6666666666667</ele><time>2026-04-24T14:20:13.887Z</time></trkpt><trkpt lat="44.1055023" lon="10.9277192"><ele>1030.3333333333333</ele><time>2026-04-24T14:20:14.886Z</time></trkpt><trkpt lat="44.1054239" lon="10.9277248"><ele>1032.0</ele><time>2026-04-24T14:20:15.886Z</time></trkpt><trkpt lat="44.1053446" lon="10.9277367"><ele>1032.0</ele><time>2026-04-24T14:20:16.887Z</time></trkpt><trkpt lat="44.105267" lon="10.9277518"><ele>1032.0</ele><time>2026-04-24T14:20:17.885Z</time></trkpt><trkpt lat="44.1051891" lon="10.9277586"><ele>1032.0</ele><time>2026-04-24T14:20:18.886Z</time></trkpt><trkpt lat="44.1051167" lon="10.9277585"><ele>1032.0</ele><time>2026-04-24T14:20:19.886Z</time></trkpt><trkpt lat="44.1050392" lon="10.9277532"><ele>1032.0</ele><time>2026-04-24T14:20:20.885Z</time></trkpt><trkpt lat="44.1049604" lon="10.9277466"><ele>1032.0</ele><time>2026-04-24T14:20:21.887Z</time></trkpt><trkpt lat="44.1048858" lon="10.9277518"><ele>1024.6</ele><time>2026-04-24T14:20:22.887Z</time></trkpt><trkpt lat="44.1047792" lon="10.9278255"><ele>1017.2</ele><time>2026-04-24T14:20:24.886Z</time></trkpt><trkpt lat="44.1047403" lon="10.9278989"><ele>1009.8</ele><time>2026-04-24T14:20:25.885Z</time></trkpt><trkpt lat="44.1047145" lon="10.9280434"><ele>1002.4</ele><time>2026-04-24T14:20:27.887Z</time></trkpt><trkpt lat="44.1047901" lon="10.9281249"><ele>995.0</ele><time>2026-04-24T14:20:29.886Z</time></trkpt><trkpt lat="44.1048834" lon="10.9280755"><ele>1001.1666666666667</ele><time>2026-04-24T14:20:31.885Z</time></trkpt><trkpt lat="44.1049878" lon="10.927995"><ele>1007.3333333333334</ele><time>2026-04-24T14:20:33.886Z</time></trkpt><trkpt lat="44.1050501" lon="10.9279817"><ele>1013.5</ele><time>2026-04-24T14:20:34.887Z</time></trkpt><trkpt lat="44.1051201" lon="10.9279827"><ele>1019.6666666666667</ele><time>2026-04-24T14:20:35.887Z</time></trkpt><trkpt lat="44.1051967" lon="10.9279935"><ele>1025.8333333333333</ele><time>2026-04-24T14:20:36.886Z</time></trkpt><trkpt lat="44.1052709" lon="10.9280091"><ele>1032.0</ele><time>2026-04-24T14:20:37.886Z</time></trkpt><trkpt lat="44.1053464" lon="10.9280147"><ele>1032.0</ele><time>2026-04-24T14:20:38.886Z</time></trkpt><trkpt lat="44.1054236" lon="10.928027"><ele>1032.0</ele><time>2026-04-24T14:20:39.886Z</time></trkpt><trkpt lat="44.1055041" lon="10.9280371"><ele>1032.0</ele><time>2026-04-24T14:20:40.887Z</time></trkpt><trkpt lat="44.1055884" lon="10.9280502"><ele>1032.0</ele><time>2026-04-24T14:20:41.885Z</time></trkpt><trkpt lat="44.1056716" lon="10.9280604"><ele>1032.0</ele><time>2026-04-24T14:20:42.886Z</time></trkpt><trkpt lat="44.1057588" lon="10.9280736"><ele>1032.0</ele><time>2026-04-24T14:20:43.885Z</time></trkpt><trkpt lat="44.1058464" lon="10.9280859"><ele>1034.0</ele><time>2026-04-24T14:20:44.886Z</time></trkpt><trkpt lat="44.1059256" lon="10.9280889"><ele>1036.0</ele><time>2026-04-24T14:20:45.886Z</time></trkpt><trkpt lat="44.105996" lon="10.9280877"><ele>1038.0</ele><time>2026-04-24T14:20:46.885Z</time></trkpt><trkpt lat="44.1060749" lon="10.9280803"><ele>1040.0</ele><time>2026-04-24T14:20:47.886Z</time></trkpt><trkpt lat="44.1061552" lon="10.9280755"><ele>1042.0</ele><time>2026-04-24T14:20:48.886Z</time></trkpt><trkpt lat="44.1062376" lon="10.9280588"><ele>1044.0</ele><time>2026-04-24T14:20:49.887Z</time></trkpt><trkpt lat="44.1063282" lon="10.9280475"><ele>1044.0</ele><time>2026-04-24T14:20:50.887Z</time></trkpt><trkpt lat="44.1064189" lon="10.9280433"><ele>1044.0</ele><time>2026-04-24T14:20:51.886Z</time></trkpt><trkpt lat="44.1065105" lon="10.928038"><ele>1044.0</ele><time>2026-04-24T14:20:52.886Z</time></trkpt><trkpt lat="44.1066027" lon="10.9280252"><ele>1044.0</ele><time>2026-04-24T14:20:53.887Z</time></trkpt><trkpt lat="44.1066937" lon="10.9280148"><ele>1044.0</ele><time>2026-04-24T14:20:54.886Z</time></trkpt><trkpt lat="44.1067841" lon="10.9280158"><ele>1046.5</ele><time>2026-04-24T14:20:55.886Z</time></trkpt><trkpt lat="44.1068739" lon="10.9280293"><ele>1049.0</ele><time>2026-04-24T14:20:56.886Z</time></trkpt><trkpt lat="44.1069622" lon="10.928051"><ele>1051.5</ele><time>2026-04-24T14:20:57.887Z</time></trkpt><trkpt lat="44.1070499" lon="10.92808"><ele>1054.0</ele><time>2026-04-24T14:20:58.886Z</time></trkpt><trkpt lat="44.1071374" lon="10.9281022"><ele>1056.5</ele><time>2026-04-24T14:20:59.885Z</time></trkpt><trkpt lat="44.1072226" lon="10.9281011"><ele>1059.0</ele><time>2026-04-24T14:21:00.886Z</time></trkpt><trkpt lat="44.1073028" lon="10.9280717"><ele>1059.0</ele><time>2026-04-24T14:21:01.885Z</time></trkpt><trkpt lat="44.1073692" lon="10.928028"><ele>1059.0</ele><time>2026-04-24T14:21:02.887Z</time></trkpt><trkpt lat="44.1074262" lon="10.9279727"><ele>1059.0</ele><time>2026-04-24T14:21:03.887Z</time></trkpt><trkpt lat="44.1075269" lon="10.9279506"><ele>1059.0</ele><time>2026-04-24T14:21:05.885Z</time></trkpt><trkpt lat="44.1075538" lon="10.9280719"><ele>1059.0</ele><time>2026-04-24T14:21:07.887Z</time></trkpt><trkpt lat="44.1074772" lon="10.9281675"><ele>1059.0</ele><time>2026-04-24T14:21:09.887Z</time></trkpt><trkpt lat="44.1074244" lon="10.9282215"><ele>1059.0</ele><time>2026-04-24T14:21:10.886Z</time></trkpt><trkpt lat="44.107359" lon="10.9282534"><ele>1059.0</ele><time>2026-04-24T14:21:11.886Z</time></trkpt><trkpt lat="44.1072908" lon="10.9282885"><ele>1059.0</ele><time>2026-04-24T14:21:12.886Z</time></trkpt><trkpt lat="44.1072242" lon="10.9283144"><ele>1059.0</ele><time>2026-04-24T14:21:13.887Z</time></trkpt><trkpt lat="44.1071582" lon="10.9283465"><ele>1059.0</ele><time>2026-04-24T14:21:14.886Z</time></trkpt><trkpt lat="44.1070912" lon="10.9283607"><ele>1059.0</ele><time>2026-04-24T14:21:15.885Z</time></trkpt><trkpt lat="44.1070222" lon="10.9283477"><ele>1059.0</ele><time>2026-04-24T14:21:16.886Z</time></trkpt><trkpt lat="44.1069602" lon="10.9283324"><ele>1059.0</ele><time>2026-04-24T14:21:17.887Z</time></trkpt><trkpt lat="44.1068941" lon="10.9283307"><ele>1059.0</ele><time>2026-04-24T14:21:18.887Z</time></trkpt><trkpt lat="44.1068295" lon="10.9283255"><ele>1059.0</ele><time>2026-04-24T14:21:19.886Z</time></trkpt><trkpt lat="44.1067559" lon="10.9283454"><ele>1059.0</ele><time>2026-04-24T14:21:20.886Z</time></trkpt><trkpt lat="44.1066817" lon="10.9283586"><ele>1059.0</ele><time>2026-04-24T14:21:21.886Z</time></trkpt><trkpt lat="44.1066099" lon="10.9283779"><ele>1059.0</ele><time>2026-04-24T14:21:22.886Z</time></trkpt><trkpt lat="44.106537" lon="10.9283969"><ele>1059.0</ele><time>2026-04-24T14:21:23.885Z</time></trkpt><trkpt lat="44.1064635" lon="10.9284119"><ele>1055.5</ele><time>2026-04-24T14:21:24.886Z</time></trkpt><trkpt lat="44.106396" lon="10.9284296"><ele>1052.0</ele><time>2026-04-24T14:21:25.887Z</time></trkpt><trkpt lat="44.1063302" lon="10.9284333"><ele>1048.5</ele><time>2026-04-24T14:21:26.886Z</time></trkpt><trkpt lat="44.1062289" lon="10.9284679"><ele>1045.0</ele><time>2026-04-24T14:21:28.886Z</time></trkpt><trkpt lat="44.1062005" lon="10.9285484"><ele>1041.5</ele><time>2026-04-24T14:21:30.886Z</time></trkpt><trkpt lat="44.106251" lon="10.9286211"><ele>1038.0</ele><time>2026-04-24T14:21:32.887Z</time></trkpt><trkpt lat="44.1063532" lon="10.9286779"><ele>1038.0</ele><time>2026-04-24T14:21:34.887Z</time></trkpt><trkpt lat="44.106452" lon="10.9287502"><ele>1038.0</ele><time>2026-04-24T14:21:36.887Z</time></trkpt><trkpt lat="44.1065562" lon="10.9288334"><ele>1038.0</ele><time>2026-04-24T14:21:38.885Z</time></trkpt><trkpt lat="44.106655" lon="10.9288975"><ele>1038.0</ele><time>2026-04-24T14:21:40.887Z</time></trkpt><trkpt lat="44.1067688" lon="10.9289381"><ele>1045.2</ele><time>2026-04-24T14:21:42.886Z</time></trkpt><trkpt lat="44.1068349" lon="10.9289468"><ele>1052.4</ele><time>2026-04-24T14:21:43.887Z</time></trkpt><trkpt lat="44.1069526" lon="10.9289376"><ele>1059.6000000000001</ele><time>2026-04-24T14:21:45.886Z</time></trkpt><trkpt lat="44.1070632" lon="10.9289065"><ele>1066.8</ele><time>2026-04-24T14:21:47.886Z</time></trkpt><trkpt lat="44.1071762" lon="10.928888"><ele>1074.0</ele><time>2026-04-24T14:21:49.886Z</time></trkpt><trkpt lat="44.1072924" lon="10.9289019"><ele>1074.0</ele><time>2026-04-24T14:21:51.887Z</time></trkpt><trkpt lat="44.1073951" lon="10.9289825"><ele>1074.0</ele><time>2026-04-24T14:21:53.885Z</time></trkpt><trkpt lat="44.1074507" lon="10.9290358"><ele>1074.0</ele><time>2026-04-24T14:21:54.885Z</time></trkpt><trkpt lat="44.1074985" lon="10.9291044"><ele>1074.0</ele><time>2026-04-24T14:21:55.886Z</time></trkpt><trkpt lat="44.1075412" lon="10.9291828"><ele>1074.0</ele><time>2026-04-24T14:21:56.885Z</time></trkpt><trkpt lat="44.1076395" lon="10.9292483"><ele>1074.0</ele><time>2026-04-24T14:21:58.885Z</time></trkpt><trkpt lat="44.1077075" lon="10.9292272"><ele>1078.3333333333333</ele><time>2026-04-24T14:21:59.887Z</time></trkpt><trkpt lat="44.107778" lon="10.9292374"><ele>1082.6666666666667</ele><time>2026-04-24T14:22:00.886Z</time></trkpt><trkpt lat="44.107843" lon="10.9292525"><ele>1087.0</ele><time>2026-04-24T14:22:01.886Z</time></trkpt><trkpt lat="44.107902" lon="10.9293017"><ele>1091.3333333333335</ele><time>2026-04-24T14:22:02.886Z</time></trkpt><trkpt lat="44.1079632" lon="10.9293261"><ele>1095.6666666666667</ele><time>2026-04-24T14:22:03.886Z</time></trkpt><trkpt lat="44.1080867" lon="10.9293492"><ele>1100.0</ele><time>2026-04-24T14:22:05.886Z</time></trkpt><trkpt lat="44.1082032" lon="10.9292994"><ele>1102.2</ele><time>2026-04-24T14:22:07.885Z</time></trkpt><trkpt lat="44.1082625" lon="10.9292697"><ele>1104.4</ele><time>2026-04-24T14:22:08.886Z</time></trkpt><trkpt lat="44.1083693" lon="10.9291916"><ele>1106.6</ele><time>2026-04-24T14:22:10.885Z</time></trkpt><trkpt lat="44.1084749" lon="10.9290889"><ele>1108.8</ele><time>2026-04-24T14:22:12.886Z</time></trkpt><trkpt lat="44.1085341" lon="10.929037"><ele>1111.0</ele><time>2026-04-24T14:22:13.885Z</time></trkpt><trkpt lat="44.1085846" lon="10.9289747"><ele>1111.0</ele><time>2026-04-24T14:22:14.886Z</time></trkpt><trkpt lat="44.1086359" lon="10.9289223"><ele>1111.0</ele><time>2026-04-24T14:22:15.886Z</time></trkpt><trkpt lat="44.1086842" lon="10.9288606"><ele>1111.0</ele><time>2026-04-24T14:22:16.887Z</time></trkpt><trkpt lat="44.1087741" lon="10.9287464"><ele>1111.0</ele><time>2026-04-24T14:22:18.885Z</time></trkpt><trkpt lat="44.1088674" lon="10.9286376"><ele>1111.0</ele><time>2026-04-24T14:22:20.886Z</time></trkpt><trkpt lat="44.1089416" lon="10.9285836"><ele>1111.0</ele><time>2026-04-24T14:22:22.885Z</time></trkpt><trkpt lat="44.1089938" lon="10.9286344"><ele>1111.0</ele><time>2026-04-24T14:22:24.886Z</time></trkpt><trkpt lat="44.1089604" lon="10.9287401"><ele>1111.0</ele><time>2026-04-24T14:22:26.886Z</time></trkpt><trkpt lat="44.1088837" lon="10.9288563"><ele>1111.0</ele><time>2026-04-24T14:22:28.886Z</time></trkpt><trkpt lat="44.1087991" lon="10.9289929"><ele>1111.0</ele><time>2026-04-24T14:22:30.885Z</time></trkpt><trkpt lat="44.1087572" lon="10.9290634"><ele>1115.0</ele><time>2026-04-24T14:22:31.885Z</time></trkpt><trkpt lat="44.1087026" lon="10.9292273"><ele>1119.0</ele><time>2026-04-24T14:22:33.886Z</time></trkpt><trkpt lat="44.1086908" lon="10.9293157"><ele>1123.0</ele><time>2026-04-24T14:22:34.887Z</time></trkpt><trkpt lat="44.1086578" lon="10.9294024"><ele>1127.0</ele><time>2026-04-24T14:22:35.887Z</time></trkpt><trkpt lat="44.1086187" lon="10.9294894"><ele>1131.0</ele><time>2026-04-24T14:22:36.887Z</time></trkpt><trkpt lat="44.1085716" lon="10.9295674"><ele>1135.0</ele><time>2026-04-24T14:22:37.886Z</time></trkpt><trkpt lat="44.1085101" lon="10.9296438"><ele>1135.0</ele><time>2026-04-24T14:22:38.885Z</time></trkpt><trkpt lat="44.108448" lon="10.929726"><ele>1135.0</ele><time>2026-04-24T14:22:39.886Z</time></trkpt><trkpt lat="44.1083804" lon="10.9298004"><ele>1135.0</ele><time>2026-04-24T14:22:40.886Z</time></trkpt><trkpt lat="44.108309" lon="10.9298277"><ele>1135.0</ele><time>2026-04-24T14:22:41.886Z</time></trkpt><trkpt lat="44.1082321" lon="10.9298814"><ele>1135.0</ele><time>2026-04-24T14:22:42.886Z</time></trkpt><trkpt lat="44.1081114" lon="10.9299361"><ele>1136.8333333333333</ele><time>2026-04-24T14:22:44.887Z</time></trkpt><trkpt lat="44.1080241" lon="10.9299653"><ele>1138.6666666666665</ele><time>2026-04-24T14:22:46.887Z</time></trkpt><trkpt lat="44.1079669" lon="10.9300129"><ele>1140.5</ele><time>2026-04-24T14:22:48.887Z</time></trkpt><trkpt lat="44.1079985" lon="10.930134"><ele>1142.3333333333333</ele><time>2026-04-24T14:22:51.885Z</time></trkpt><trkpt lat="44.1080724" lon="10.9301433"><ele>1144.1666666666667</ele><time>2026-04-24T14:22:53.885Z</time></trkpt><trkpt lat="44.1081745" lon="10.930107"><ele>1146.0</ele><time>2026-04-24T14:22:55.885Z</time></trkpt><trkpt lat="44.1082977" lon="10.9300741"><ele>1146.0</ele><time>2026-04-24T14:22:57.886Z</time></trkpt><trkpt lat="44.1083662" lon="10.9300674"><ele>1146.0</ele><time>2026-04-24T14:22:58.885Z</time></trkpt><trkpt lat="44.1084377" lon="10.9300479"><ele>1146.0</ele><time>2026-04-24T14:22:59.886Z</time></trkpt><trkpt lat="44.1085075" lon="10.9300108"><ele>1146.0</ele><time>2026-04-24T14:23:00.886Z</time></trkpt><trkpt lat="44.1085811" lon="10.9299681"><ele>1146.0</ele><time>2026-04-24T14:23:01.887Z</time></trkpt><trkpt lat="44.1086381" lon="10.929925"><ele>1146.0</ele><time>2026-04-24T14:23:02.886Z</time></trkpt><trkpt lat="44.1087562" lon="10.9298504"><ele>1144.4285714285716</ele><time>2026-04-24T14:23:04.886Z</time></trkpt><trkpt lat="44.1088207" lon="10.9298064"><ele>1142.857142857143</ele><time>2026-04-24T14:23:05.887Z</time></trkpt><trkpt lat="44.1088798" lon="10.9297557"><ele>1141.2857142857142</ele><time>2026-04-24T14:23:06.886Z</time></trkpt><trkpt lat="44.1089324" lon="10.9296892"><ele>1139.7142857142858</ele><time>2026-04-24T14:23:07.886Z</time></trkpt><trkpt lat="44.1089815" lon="10.9296111"><ele>1138.142857142857</ele><time>2026-04-24T14:23:08.887Z</time></trkpt><trkpt lat="44.1090323" lon="10.9295294"><ele>1136.5714285714287</ele><time>2026-04-24T14:23:09.886Z</time></trkpt><trkpt lat="44.1090852" lon="10.9294483"><ele>1135.0</ele><time>2026-04-24T14:23:10.887Z</time></trkpt><trkpt lat="44.1091414" lon="10.9293751"><ele>1136.1666666666665</ele><time>2026-04-24T14:23:11.885Z</time></trkpt><trkpt lat="44.1092078" lon="10.9293094"><ele>1137.3333333333333</ele><time>2026-04-24T14:23:12.886Z</time></trkpt><trkpt lat="44.1092813" lon="10.9292505"><ele>1138.5</ele><time>2026-04-24T14:23:13.886Z</time></trkpt><trkpt lat="44.1093576" lon="10.9291993"><ele>1139.6666666666667</ele><time>2026-04-24T14:23:14.887Z</time></trkpt><trkpt lat="44.1094386" lon="10.9291569"><ele>1140.8333333333335</ele><time>2026-04-24T14:23:15.886Z</time></trkpt><trkpt lat="44.1095145" lon="10.9291248"><ele>1142.0</ele><time>2026-04-24T14:23:16.886Z</time></trkpt><trkpt lat="44.109591" lon="10.9290939"><ele>1142.0</ele><time>2026-04-24T14:23:17.886Z</time></trkpt><trkpt lat="44.1096645" lon="10.9290597"><ele>1142.0</ele><time>2026-04-24T14:23:18.886Z</time></trkpt><trkpt lat="44.109731" lon="10.9290188"><ele>1142.0</ele><time>2026-04-24T14:23:19.887Z</time></trkpt><trkpt lat="44.1097828" lon="10.9289606"><ele>1142.0</ele><time>2026-04-24T14:23:20.886Z</time></trkpt><trkpt lat="44.1098904" lon="10.9288527"><ele>1142.0</ele><time>2026-04-24T14:23:22.886Z</time></trkpt><trkpt lat="44.1099566" lon="10.9288172"><ele>1142.0</ele><time>2026-04-24T14:23:23.886Z</time></trkpt><trkpt lat="44.1100267" lon="10.928803"><ele>1146.5714285714287</ele><time>2026-04-24T14:23:24.887Z</time></trkpt><trkpt lat="44.1100941" lon="10.9287892"><ele>1151.142857142857</ele><time>2026-04-24T14:23:25.886Z</time></trkpt><trkpt lat="44.1101642" lon="10.9287713"><ele>1155.7142857142858</ele><time>2026-04-24T14:23:26.887Z</time></trkpt><trkpt lat="44.1102327" lon="10.9287546"><ele>1160.2857142857142</ele><time>2026-04-24T14:23:27.886Z</time></trkpt><trkpt lat="44.1102999" lon="10.9287347"><ele>1164.857142857143</ele><time>2026-04-24T14:23:28.886Z</time></trkpt><trkpt lat="44.11037" lon="10.9287209"><ele>1169.4285714285716</ele><time>2026-04-24T14:23:29.887Z</time></trkpt><trkpt lat="44.1104359" lon="10.9286987"><ele>1174.0</ele><time>2026-04-24T14:23:30.885Z</time></trkpt><trkpt lat="44.1105035" lon="10.9286829"><ele>1174.0</ele><time>2026-04-24T14:23:31.886Z</time></trkpt><trkpt lat="44.1105672" lon="10.9286712"><ele>1174.0</ele><time>2026-04-24T14:23:32.886Z</time></trkpt><trkpt lat="44.1106765" lon="10.9286213"><ele>1174.0</ele><time>2026-04-24T14:23:34.885Z</time></trkpt><trkpt lat="44.1107509" lon="10.9285036"><ele>1174.0</ele><time>2026-04-24T14:23:36.886Z</time></trkpt><trkpt lat="44.1107589" lon="10.9284162"><ele>1174.0</ele><time>2026-04-24T14:23:37.887Z</time></trkpt><trkpt lat="44.1107635" lon="10.9283257"><ele>1174.0</ele><time>2026-04-24T14:23:38.887Z</time></trkpt><trkpt lat="44.1107564" lon="10.9282335"><ele>1176.6666666666665</ele><time>2026-04-24T14:23:39.886Z</time></trkpt><trkpt lat="44.1107726" lon="10.9281355"><ele>1179.3333333333333</ele><time>2026-04-24T14:23:40.885Z</time></trkpt><trkpt lat="44.1108134" lon="10.9280501"><ele>1182.0</ele><time>2026-04-24T14:23:41.887Z</time></trkpt><trkpt lat="44.1108673" lon="10.9279711"><ele>1184.6666666666667</ele><time>2026-04-24T14:23:42.885Z</time></trkpt><trkpt lat="44.1109251" lon="10.9278828"><ele>1187.3333333333335</ele><time>2026-04-24T14:23:43.887Z</time></trkpt><trkpt lat="44.110977" lon="10.9277898"><ele>1190.0</ele><time>2026-04-24T14:23:44.887Z</time></trkpt><trkpt lat="44.1110268" lon="10.9276878"><ele>1190.0</ele><time>2026-04-24T14:23:45.886Z</time></trkpt><trkpt lat="44.1110748" lon="10.9275848"><ele>1190.0</ele><time>2026-04-24T14:23:46.886Z</time></trkpt><trkpt lat="44.1111238" lon="10.927479"><ele>1190.0</ele><time>2026-04-24T14:23:47.886Z</time></trkpt><trkpt lat="44.1111671" lon="10.9273696"><ele>1190.0</ele><time>2026-04-24T14:23:48.886Z</time></trkpt><trkpt lat="44.1112196" lon="10.9272703"><ele>1190.0</ele><time>2026-04-24T14:23:49.887Z</time></trkpt><trkpt lat="44.1112734" lon="10.927183"><ele>1190.0</ele><time>2026-04-24T14:23:50.885Z</time></trkpt><trkpt lat="44.1113193" lon="10.9270856"><ele>1186.3333333333335</ele><time>2026-04-24T14:23:51.886Z</time></trkpt><trkpt lat="44.1113551" lon="10.9269764"><ele>1182.6666666666667</ele><time>2026-04-24T14:23:52.887Z</time></trkpt><trkpt lat="44.1113899" lon="10.9268755"><ele>1179.0</ele><time>2026-04-24T14:23:53.886Z</time></trkpt><trkpt lat="44.1114098" lon="10.9267911"><ele>1175.3333333333333</ele><time>2026-04-24T14:23:54.885Z</time></trkpt><trkpt lat="44.1114216" lon="10.9266708"><ele>1171.6666666666665</ele><time>2026-04-24T14:23:55.886Z</time></trkpt><trkpt lat="44.1114494" lon="10.9265732"><ele>1168.0</ele><time>2026-04-24T14:23:56.886Z</time></trkpt><trkpt lat="44.1114806" lon="10.9264769"><ele>1165.8</ele><time>2026-04-24T14:23:57.886Z</time></trkpt><trkpt lat="44.1115408" lon="10.9263572"><ele>1163.6</ele><time>2026-04-24T14:23:59.886Z</time></trkpt><trkpt lat="44.1116222" lon="10.9263593"><ele>1161.4</ele><time>2026-04-24T14:24:01.887Z</time></trkpt><trkpt lat="44.1116389" lon="10.9264647"><ele>1159.2</ele><time>2026-04-24T14:24:03.887Z</time></trkpt><trkpt lat="44.111597" lon="10.926582"><ele>1157.0</ele><time>2026-04-24T14:24:05.885Z</time></trkpt><trkpt lat="44.1115508" lon="10.9267184"><ele>1158.8333333333335</ele><time>2026-04-24T14:24:07.885Z</time></trkpt><trkpt lat="44.1115377" lon="10.9268946"><ele>1160.6666666666667</ele><time>2026-04-24T14:24:09.886Z</time></trkpt><trkpt lat="44.1115348" lon="10.9269949"><ele>1162.5</ele><time>2026-04-24T14:24:10.885Z</time></trkpt><trkpt lat="44.1115298" lon="10.9270965"><ele>1164.3333333333333</ele><time>2026-04-24T14:24:11.884Z</time></trkpt><trkpt lat="44.1115227" lon="10.9272039"><ele>1166.1666666666665</ele><time>2026-04-24T14:24:12.885Z</time></trkpt><trkpt lat="44.1115148" lon="10.9273188"><ele>1168.0</ele><time>2026-04-24T14:24:13.885Z</time></trkpt><trkpt lat="44.1115072" lon="10.9274335"><ele>1168.0</ele><time>2026-04-24T14:24:14.885Z</time></trkpt><trkpt lat="44.1114956" lon="10.9275431"><ele>1168.0</ele><time>2026-04-24T14:24:15.885Z</time></trkpt><trkpt lat="44.1114739" lon="10.9276483"><ele>1168.0</ele><time>2026-04-24T14:24:16.886Z</time></trkpt><trkpt lat="44.1114435" lon="10.9278182"><ele>1168.0</ele><time>2026-04-24T14:24:18.886Z</time></trkpt><trkpt lat="44.1113807" lon="10.9279824"><ele>1168.0</ele><time>2026-04-24T14:24:20.885Z</time></trkpt><trkpt lat="44.1113502" lon="10.9280697"><ele>1171.6666666666665</ele><time>2026-04-24T14:24:21.886Z</time></trkpt><trkpt lat="44.1113153" lon="10.9281521"><ele>1175.3333333333333</ele><time>2026-04-24T14:24:22.885Z</time></trkpt><trkpt lat="44.1112741" lon="10.9282806"><ele>1179.0</ele><time>2026-04-24T14:24:24.884Z</time></trkpt><trkpt lat="44.1113344" lon="10.9283722"><ele>1182.6666666666667</ele><time>2026-04-24T14:24:27.884Z</time></trkpt><trkpt lat="44.111408" lon="10.9283445"><ele>1186.3333333333335</ele><time>2026-04-24T14:24:29.885Z</time></trkpt><trkpt lat="44.1114618" lon="10.9282532"><ele>1190.0</ele><time>2026-04-24T14:24:31.886Z</time></trkpt><trkpt lat="44.1115346" lon="10.9281503"><ele>1197.1666666666667</ele><time>2026-04-24T14:24:33.885Z</time></trkpt><trkpt lat="44.1116043" lon="10.9280644"><ele>1204.3333333333335</ele><time>2026-04-24T14:24:35.884Z</time></trkpt><trkpt lat="44.1117002" lon="10.9279568"><ele>1211.5</ele><time>2026-04-24T14:24:37.884Z</time></trkpt><trkpt lat="44.111752" lon="10.9278978"><ele>1218.6666666666667</ele><time>2026-04-24T14:24:38.886Z</time></trkpt><trkpt lat="44.111804" lon="10.9278357"><ele>1225.8333333333333</ele><time>2026-04-24T14:24:39.885Z</time></trkpt><trkpt lat="44.111868" lon="10.9277797"><ele>1233.0</ele><time>2026-04-24T14:24:40.885Z</time></trkpt><trkpt lat="44.1119273" lon="10.9277172"><ele>1233.0</ele><time>2026-04-24T14:24:41.884Z</time></trkpt><trkpt lat="44.1120143" lon="10.9276223"><ele>1233.0</ele><time>2026-04-24T14:24:43.885Z</time></trkpt><trkpt lat="44.1120894" lon="10.927508"><ele>1233.0</ele><time>2026-04-24T14:24:45.886Z</time></trkpt><trkpt lat="44.1121469" lon="10.927451"><ele>1233.0</ele><time>2026-04-24T14:24:46.885Z</time></trkpt><trkpt lat="44.1121987" lon="10.9273844"><ele>1233.0</ele><time>2026-04-24T14:24:47.885Z</time></trkpt><trkpt lat="44.1122608" lon="10.9273626"><ele>1233.0</ele><time>2026-04-24T14:24:48.884Z</time></trkpt><trkpt lat="44.1123356" lon="10.9273391"><ele>1235.3333333333333</ele><time>2026-04-24T14:24:49.886Z</time></trkpt><trkpt lat="44.1124098" lon="10.9273347"><ele>1237.6666666666667</ele><time>2026-04-24T14:24:50.886Z</time></trkpt><trkpt lat="44.112488" lon="10.9273321"><ele>1240.0</ele><time>2026-04-24T14:24:51.885Z</time></trkpt><trkpt lat="44.1125707" lon="10.9273248"><ele>1242.3333333333335</ele><time>2026-04-24T14:24:52.886Z</time></trkpt><trkpt lat="44.1126524" lon="10.9273147"><ele>1244.6666666666667</ele><time>2026-04-24T14:24:53.884Z</time></trkpt><trkpt lat="44.112723" lon="10.9273082"><ele>1247.0</ele><time>2026-04-24T14:24:54.886Z</time></trkpt><trkpt lat="44.1128072" lon="10.9272923"><ele>1247.0</ele><time>2026-04-24T14:24:55.886Z</time></trkpt><trkpt lat="44.1128796" lon="10.9272814"><ele>1247.0</ele><time>2026-04-24T14:24:56.885Z</time></trkpt><trkpt lat="44.1129913" lon="10.9272658"><ele>1247.0</ele><time>2026-04-24T14:24:58.884Z</time></trkpt><trkpt lat="44.1130585" lon="10.9272924"><ele>1247.0</ele><time>2026-04-24T14:24:59.885Z</time></trkpt><trkpt lat="44.1131208" lon="10.9273094"><ele>1247.0</ele><time>2026-04-24T14:25:00.886Z</time></trkpt><trkpt lat="44.1131878" lon="10.9273153"><ele>1247.0</ele><time>2026-04-24T14:25:01.885Z</time></trkpt><trkpt lat="44.113253" lon="10.9273043"><ele>1250.8</ele><time>2026-04-24T14:25:02.885Z</time></trkpt><trkpt lat="44.1133202" lon="10.9272784"><ele>1254.6</ele><time>2026-04-24T14:25:03.885Z</time></trkpt><trkpt lat="44.113421" lon="10.9272008"><ele>1258.3999999999999</ele><time>2026-04-24T14:25:05.885Z</time></trkpt><trkpt lat="44.1135454" lon="10.9271295"><ele>1262.2</ele><time>2026-04-24T14:25:07.885Z</time></trkpt><trkpt lat="44.1136014" lon="10.927075"><ele>1266.0</ele><time>2026-04-24T14:25:08.885Z</time></trkpt><trkpt lat="44.1136595" lon="10.9270371"><ele>1266.0</ele><time>2026-04-24T14:25:09.885Z</time></trkpt><trkpt lat="44.1137174" lon="10.9269992"><ele>1266.0</ele><time>2026-04-24T14:25:10.886Z</time></trkpt><trkpt lat="44.113778" lon="10.9269464"><ele>1266.0</ele><time>2026-04-24T14:25:11.885Z</time></trkpt><trkpt lat="44.1138325" lon="10.9268947"><ele>1266.0</ele><time>2026-04-24T14:25:12.885Z</time></trkpt><trkpt lat="44.1138861" lon="10.9268459"><ele>1266.0</ele><time>2026-04-24T14:25:13.885Z</time></trkpt><trkpt lat="44.1139529" lon="10.9268212"><ele>1266.0</ele><time>2026-04-24T14:25:14.884Z</time></trkpt><trkpt lat="44.1140246" lon="10.9267975"><ele>1266.0</ele><time>2026-04-24T14:25:15.885Z</time></trkpt><trkpt lat="44.1140878" lon="10.9267615"><ele>1264.5</ele><time>2026-04-24T14:25:16.885Z</time></trkpt><trkpt lat="44.1141511" lon="10.9267181"><ele>1263.0</ele><time>2026-04-24T14:25:17.885Z</time></trkpt><trkpt lat="44.114222" lon="10.9266797"><ele>1261.5</ele><time>2026-04-24T14:25:18.885Z</time></trkpt><trkpt lat="44.1142825" lon="10.9266193"><ele>1260.0</ele><time>2026-04-24T14:25:19.886Z</time></trkpt><trkpt lat="44.1143471" lon="10.9265602"><ele>1258.5</ele><time>2026-04-24T14:25:20.885Z</time></trkpt><trkpt lat="44.1144095" lon="10.9264976"><ele>1257.0</ele><time>2026-04-24T14:25:21.884Z</time></trkpt><trkpt lat="44.11447" lon="10.9264365"><ele>1257.0</ele><time>2026-04-24T14:25:22.885Z</time></trkpt><trkpt lat="44.1145309" lon="10.9263686"><ele>1257.0</ele><time>2026-04-24T14:25:23.886Z</time></trkpt><trkpt lat="44.114594" lon="10.9263035"><ele>1257.0</ele><time>2026-04-24T14:25:24.884Z</time></trkpt><trkpt lat="44.1146566" lon="10.9262367"><ele>1257.0</ele><time>2026-04-24T14:25:25.886Z</time></trkpt><trkpt lat="44.1147161" lon="10.926166"><ele>1257.0</ele><time>2026-04-24T14:25:26.886Z</time></trkpt><trkpt lat="44.1147704" lon="10.9260772"><ele>1257.0</ele><time>2026-04-24T14:25:27.886Z</time></trkpt><trkpt lat="44.1148263" lon="10.9259905"><ele>1257.0</ele><time>2026-04-24T14:25:28.886Z</time></trkpt><trkpt lat="44.1148787" lon="10.9259027"><ele>1257.0</ele><time>2026-04-24T14:25:29.886Z</time></trkpt><trkpt lat="44.1149331" lon="10.9258167"><ele>1257.0</ele><time>2026-04-24T14:25:30.885Z</time></trkpt><trkpt lat="44.1149887" lon="10.9257358"><ele>1257.0</ele><time>2026-04-24T14:25:31.885Z</time></trkpt><trkpt lat="44.1150408" lon="10.9256482"><ele>1257.0</ele><time>2026-04-24T14:25:32.884Z</time></trkpt><trkpt lat="44.1150979" lon="10.9255724"><ele>1257.0</ele><time>2026-04-24T14:25:33.886Z</time></trkpt><trkpt lat="44.1151522" lon="10.9254993"><ele>1255.7142857142858</ele><time>2026-04-24T14:25:34.885Z</time></trkpt><trkpt lat="44.1152021" lon="10.9254296"><ele>1254.4285714285716</ele><time>2026-04-24T14:25:35.885Z</time></trkpt><trkpt lat="44.1152466" lon="10.9253564"><ele>1253.1428571428573</ele><time>2026-04-24T14:25:36.885Z</time></trkpt><trkpt lat="44.1152874" lon="10.925279"><ele>1251.857142857143</ele><time>2026-04-24T14:25:37.885Z</time></trkpt><trkpt lat="44.1153261" lon="10.9251977"><ele>1250.5714285714284</ele><time>2026-04-24T14:25:38.885Z</time></trkpt><trkpt lat="44.1153564" lon="10.9251139"><ele>1249.2857142857144</ele><time>2026-04-24T14:25:39.885Z</time></trkpt><trkpt lat="44.1153794" lon="10.9250264"><ele>1248.0</ele><time>2026-04-24T14:25:40.886Z</time></trkpt><trkpt lat="44.115404" lon="10.9249402"><ele>1248.0</ele><time>2026-04-24T14:25:41.885Z</time></trkpt><trkpt lat="44.115439" lon="10.9248618"><ele>1248.0</ele><time>2026-04-24T14:25:42.885Z</time></trkpt><trkpt lat="44.1154721" lon="10.9247841"><ele>1248.0</ele><time>2026-04-24T14:25:43.885Z</time></trkpt><trkpt lat="44.1155066" lon="10.9247093"><ele>1248.0</ele><time>2026-04-24T14:25:44.886Z</time></trkpt><trkpt lat="44.1155999" lon="10.9246155"><ele>1248.0</ele><time>2026-04-24T14:25:46.885Z</time></trkpt><trkpt lat="44.1157074" lon="10.9245189"><ele>1248.0</ele><time>2026-04-24T14:25:48.885Z</time></trkpt><trkpt lat="44.1157805" lon="10.9243948"><ele>1250.2857142857144</ele><time>2026-04-24T14:25:50.885Z</time></trkpt><trkpt lat="44.1158088" lon="10.9243162"><ele>1252.5714285714284</ele><time>2026-04-24T14:25:51.886Z</time></trkpt><trkpt lat="44.1158402" lon="10.9242312"><ele>1254.857142857143</ele><time>2026-04-24T14:25:52.885Z</time></trkpt><trkpt lat="44.1158737" lon="10.9241386"><ele>1257.1428571428573</ele><time>2026-04-24T14:25:53.884Z</time></trkpt><trkpt lat="44.1159083" lon="10.9240412"><ele>1259.4285714285716</ele><time>2026-04-24T14:25:54.886Z</time></trkpt><trkpt lat="44.1159429" lon="10.9239446"><ele>1261.7142857142858</ele><time>2026-04-24T14:25:55.885Z</time></trkpt><trkpt lat="44.1159744" lon="10.9238425"><ele>1264.0</ele><time>2026-04-24T14:25:56.886Z</time></trkpt><trkpt lat="44.1160038" lon="10.9237341"><ele>1265.5</ele><time>2026-04-24T14:25:57.885Z</time></trkpt><trkpt lat="44.1160316" lon="10.9236252"><ele>1267.0</ele><time>2026-04-24T14:25:58.884Z</time></trkpt><trkpt lat="44.116052" lon="10.9235141"><ele>1268.5</ele><time>2026-04-24T14:25:59.885Z</time></trkpt><trkpt lat="44.116069" lon="10.9234028"><ele>1270.0</ele><time>2026-04-24T14:26:00.885Z</time></trkpt><trkpt lat="44.1160913" lon="10.923292"><ele>1271.5</ele><time>2026-04-24T14:26:01.884Z</time></trkpt><trkpt lat="44.1161181" lon="10.9231864"><ele>1273.0</ele><time>2026-04-24T14:26:02.885Z</time></trkpt><trkpt lat="44.1161427" lon="10.9230806"><ele>1273.0</ele><time>2026-04-24T14:26:03.885Z</time></trkpt><trkpt lat="44.1161736" lon="10.9229766"><ele>1273.0</ele><time>2026-04-24T14:26:04.885Z</time></trkpt><trkpt lat="44.11621" lon="10.9228705"><ele>1273.0</ele><time>2026-04-24T14:26:05.885Z</time></trkpt><trkpt lat="44.1162458" lon="10.922768"><ele>1273.0</ele><time>2026-04-24T14:26:06.884Z</time></trkpt><trkpt lat="44.1162825" lon="10.9226719"><ele>1273.0</ele><time>2026-04-24T14:26:07.884Z</time></trkpt><trkpt lat="44.1163148" lon="10.9225706"><ele>1273.0</ele><time>2026-04-24T14:26:08.886Z</time></trkpt><trkpt lat="44.1163516" lon="10.922469"><ele>1272.8333333333333</ele><time>2026-04-24T14:26:09.885Z</time></trkpt><trkpt lat="44.1163897" lon="10.9223608"><ele>1272.6666666666665</ele><time>2026-04-24T14:26:10.885Z</time></trkpt><trkpt lat="44.1164256" lon="10.9222463"><ele>1272.5</ele><time>2026-04-24T14:26:11.885Z</time></trkpt><trkpt lat="44.1164602" lon="10.9221335"><ele>1272.3333333333333</ele><time>2026-04-24T14:26:12.885Z</time></trkpt><trkpt lat="44.116497" lon="10.9220229"><ele>1272.1666666666667</ele><time>2026-04-24T14:26:13.885Z</time></trkpt><trkpt lat="44.1165333" lon="10.921912"><ele>1272.0</ele><time>2026-04-24T14:26:14.885Z</time></trkpt><trkpt lat="44.1165691" lon="10.9218009"><ele>1274.1666666666667</ele><time>2026-04-24T14:26:15.885Z</time></trkpt><trkpt lat="44.1166027" lon="10.9216923"><ele>1276.3333333333333</ele><time>2026-04-24T14:26:16.885Z</time></trkpt><trkpt lat="44.1166394" lon="10.9215891"><ele>1278.5</ele><time>2026-04-24T14:26:17.884Z</time></trkpt><trkpt lat="44.1166791" lon="10.9214949"><ele>1280.6666666666665</ele><time>2026-04-24T14:26:18.886Z</time></trkpt><trkpt lat="44.1167242" lon="10.9214104"><ele>1282.8333333333333</ele><time>2026-04-24T14:26:19.884Z</time></trkpt><trkpt lat="44.1167777" lon="10.921336"><ele>1285.0</ele><time>2026-04-24T14:26:20.886Z</time></trkpt><trkpt lat="44.1168355" lon="10.9212667"><ele>1285.0</ele><time>2026-04-24T14:26:21.884Z</time></trkpt><trkpt lat="44.116896" lon="10.9212024"><ele>1285.0</ele><time>2026-04-24T14:26:22.884Z</time></trkpt><trkpt lat="44.1169594" lon="10.921145"><ele>1285.0</ele><time>2026-04-24T14:26:23.885Z</time></trkpt><trkpt lat="44.1170267" lon="10.9210998"><ele>1285.0</ele><time>2026-04-24T14:26:24.886Z</time></trkpt><trkpt lat="44.117097" lon="10.9210658"><ele>1285.0</ele><time>2026-04-24T14:26:25.885Z</time></trkpt><trkpt lat="44.1171708" lon="10.9210415"><ele>1285.0</ele><time>2026-04-24T14:26:26.885Z</time></trkpt><trkpt lat="44.1172488" lon="10.9210179"><ele>1285.0</ele><time>2026-04-24T14:26:27.884Z</time></trkpt><trkpt lat="44.11733" lon="10.920998"><ele>1285.0</ele><time>2026-04-24T14:26:28.884Z</time></trkpt><trkpt lat="44.1174105" lon="10.9209862"><ele>1285.0</ele><time>2026-04-24T14:26:29.885Z</time></trkpt><trkpt lat="44.1174923" lon="10.9209748"><ele>1285.0</ele><time>2026-04-24T14:26:30.884Z</time></trkpt><trkpt lat="44.117573" lon="10.9209621"><ele>1285.0</ele><time>2026-04-24T14:26:31.886Z</time></trkpt><trkpt lat="44.1176496" lon="10.9209453"><ele>1285.0</ele><time>2026-04-24T14:26:32.886Z</time></trkpt><trkpt lat="44.1177206" lon="10.920925"><ele>1289.0000000000002</ele><time>2026-04-24T14:26:33.885Z</time></trkpt><trkpt lat="44.1177906" lon="10.9208984"><ele>1293.0</ele><time>2026-04-24T14:26:34.885Z</time></trkpt><trkpt lat="44.1178568" lon="10.920871"><ele>1297.0</ele><time>2026-04-24T14:26:35.884Z</time></trkpt><trkpt lat="44.1179262" lon="10.9208453"><ele>1301.0</ele><time>2026-04-24T14:26:36.884Z</time></trkpt><trkpt lat="44.1179957" lon="10.9208208"><ele>1305.0</ele><time>2026-04-24T14:26:37.886Z</time></trkpt><trkpt lat="44.1180694" lon="10.9207954"><ele>1309.0000000000002</ele><time>2026-04-24T14:26:38.885Z</time></trkpt><trkpt lat="44.1181458" lon="10.9207709"><ele>1313.0</ele><time>2026-04-24T14:26:39.885Z</time></trkpt><trkpt lat="44.1182203" lon="10.9207509"><ele>1311.4</ele><time>2026-04-24T14:26:40.886Z</time></trkpt><trkpt lat="44.1182889" lon="10.9207259"><ele>1309.8000000000002</ele><time>2026-04-24T14:26:41.885Z</time></trkpt><trkpt lat="44.1183504" lon="10.9207039"><ele>1308.2</ele><time>2026-04-24T14:26:42.885Z</time></trkpt><trkpt lat="44.1184727" lon="10.920635"><ele>1306.6</ele><time>2026-04-24T14:26:44.886Z</time></trkpt><trkpt lat="44.1185401" lon="10.9204744"><ele>1305.0</ele><time>2026-04-24T14:26:46.886Z</time></trkpt><trkpt lat="44.1185574" lon="10.9202995"><ele>1305.0</ele><time>2026-04-24T14:26:48.886Z</time></trkpt><trkpt lat="44.118556" lon="10.920193"><ele>1305.0</ele><time>2026-04-24T14:26:49.886Z</time></trkpt><trkpt lat="44.1185713" lon="10.9200833"><ele>1305.0</ele><time>2026-04-24T14:26:50.885Z</time></trkpt><trkpt lat="44.1185796" lon="10.9199626"><ele>1305.0</ele><time>2026-04-24T14:26:51.884Z</time></trkpt><trkpt lat="44.1185907" lon="10.9198416"><ele>1305.0</ele><time>2026-04-24T14:26:52.886Z</time></trkpt><trkpt lat="44.1185945" lon="10.9197266"><ele>1305.0</ele><time>2026-04-24T14:26:53.884Z</time></trkpt><trkpt lat="44.1186068" lon="10.919609"><ele>1309.6666666666667</ele><time>2026-04-24T14:26:54.884Z</time></trkpt><trkpt lat="44.1186174" lon="10.9194927"><ele>1314.3333333333333</ele><time>2026-04-24T14:26:55.885Z</time></trkpt><trkpt lat="44.1186244" lon="10.9193697"><ele>1319.0</ele><time>2026-04-24T14:26:56.885Z</time></trkpt><trkpt lat="44.1186665" lon="10.9192593"><ele>1323.6666666666665</ele><time>2026-04-24T14:26:57.885Z</time></trkpt><trkpt lat="44.1186879" lon="10.9191521"><ele>1328.3333333333333</ele><time>2026-04-24T14:26:58.886Z</time></trkpt><trkpt lat="44.1187179" lon="10.9190647"><ele>1333.0</ele><time>2026-04-24T14:26:59.885Z</time></trkpt><trkpt lat="44.1187472" lon="10.9189701"><ele>1335.5</ele><time>2026-04-24T14:27:00.885Z</time></trkpt><trkpt lat="44.1187607" lon="10.9188695"><ele>1338.0</ele><time>2026-04-24T14:27:01.884Z</time></trkpt><trkpt lat="44.1187751" lon="10.9187707"><ele>1340.5</ele><time>2026-04-24T14:27:02.886Z</time></trkpt><trkpt lat="44.1188475" lon="10.9186332"><ele>1343.0</ele><time>2026-04-24T14:27:04.885Z</time></trkpt><trkpt lat="44.1189044" lon="10.918588"><ele>1345.5</ele><time>2026-04-24T14:27:05.884Z</time></trkpt><trkpt lat="44.1189737" lon="10.9185448"><ele>1348.0</ele><time>2026-04-24T14:27:06.886Z</time></trkpt><trkpt lat="44.1190464" lon="10.9185166"><ele>1346.3333333333333</ele><time>2026-04-24T14:27:07.884Z</time></trkpt><trkpt lat="44.119117" lon="10.918496"><ele>1344.6666666666665</ele><time>2026-04-24T14:27:08.886Z</time></trkpt><trkpt lat="44.1191802" lon="10.9184692"><ele>1343.0</ele><time>2026-04-24T14:27:09.885Z</time></trkpt><trkpt lat="44.1192511" lon="10.9184455"><ele>1341.3333333333333</ele><time>2026-04-24T14:27:10.885Z</time></trkpt><trkpt lat="44.1193552" lon="10.9183627"><ele>1339.6666666666667</ele><time>2026-04-24T14:27:12.884Z</time></trkpt><trkpt lat="44.1194189" lon="10.9183101"><ele>1338.0</ele><time>2026-04-24T14:27:13.886Z</time></trkpt><trkpt lat="44.1194622" lon="10.9182239"><ele>1338.0</ele><time>2026-04-24T14:27:14.886Z</time></trkpt><trkpt lat="44.1195023" lon="10.9181469"><ele>1338.0</ele><time>2026-04-24T14:27:15.884Z</time></trkpt><trkpt lat="44.1195515" lon="10.9180606"><ele>1338.0</ele><time>2026-04-24T14:27:16.886Z</time></trkpt><trkpt lat="44.1196012" lon="10.9179804"><ele>1338.0</ele><time>2026-04-24T14:27:17.885Z</time></trkpt><trkpt lat="44.1196514" lon="10.9179082"><ele>1338.0</ele><time>2026-04-24T14:27:18.886Z</time></trkpt><trkpt lat="44.1196954" lon="10.9178314"><ele>1338.0</ele><time>2026-04-24T14:27:19.885Z</time></trkpt><trkpt lat="44.1197405" lon="10.9177532"><ele>1338.0</ele><time>2026-04-24T14:27:20.885Z</time></trkpt><trkpt lat="44.1198102" lon="10.9176587"><ele>1334.8333333333333</ele><time>2026-04-24T14:27:22.885Z</time></trkpt><trkpt lat="44.1199179" lon="10.9176383"><ele>1331.6666666666667</ele><time>2026-04-24T14:27:24.885Z</time></trkpt><trkpt lat="44.1199859" lon="10.9176459"><ele>1328.5</ele><time>2026-04-24T14:27:25.886Z</time></trkpt><trkpt lat="44.1200105" lon="10.9177697"><ele>1325.3333333333335</ele><time>2026-04-24T14:27:26.885Z</time></trkpt><trkpt lat="44.1200523" lon="10.9178487"><ele>1322.1666666666667</ele><time>2026-04-24T14:27:27.886Z</time></trkpt><trkpt lat="44.1201115" lon="10.917927"><ele>1319.0</ele><time>2026-04-24T14:27:28.884Z</time></trkpt><trkpt lat="44.1201717" lon="10.918009"><ele>1319.0</ele><time>2026-04-24T14:27:29.886Z</time></trkpt><trkpt lat="44.1202332" lon="10.9180798"><ele>1319.0</ele><time>2026-04-24T14:27:30.885Z</time></trkpt><trkpt lat="44.1203043" lon="10.9181384"><ele>1319.0</ele><time>2026-04-24T14:27:31.885Z</time></trkpt><trkpt lat="44.1203751" lon="10.9181901"><ele>1319.0</ele><time>2026-04-24T14:27:32.885Z</time></trkpt><trkpt lat="44.1204478" lon="10.918212"><ele>1319.0</ele><time>2026-04-24T14:27:33.885Z</time></trkpt><trkpt lat="44.1205181" lon="10.9182277"><ele>1319.0</ele><time>2026-04-24T14:27:34.886Z</time></trkpt><trkpt lat="44.1205883" lon="10.918238"><ele>1319.0</ele><time>2026-04-24T14:27:35.885Z</time></trkpt><trkpt lat="44.1206628" lon="10.9182216"><ele>1319.0</ele><time>2026-04-24T14:27:36.885Z</time></trkpt><trkpt lat="44.1207335" lon="10.9182133"><ele>1319.0</ele><time>2026-04-24T14:27:37.884Z</time></trkpt><trkpt lat="44.1208079" lon="10.9181836"><ele>1319.0</ele><time>2026-04-24T14:27:38.885Z</time></trkpt><trkpt lat="44.1208817" lon="10.9181538"><ele>1319.0</ele><time>2026-04-24T14:27:39.886Z</time></trkpt><trkpt lat="44.120958" lon="10.9181017"><ele>1319.0</ele><time>2026-04-24T14:27:40.884Z</time></trkpt><trkpt lat="44.1210334" lon="10.9180437"><ele>1320.5</ele><time>2026-04-24T14:27:41.886Z</time></trkpt><trkpt lat="44.1210973" lon="10.9179776"><ele>1322.0</ele><time>2026-04-24T14:27:42.885Z</time></trkpt><trkpt lat="44.1211754" lon="10.9179161"><ele>1323.5</ele><time>2026-04-24T14:27:43.885Z</time></trkpt><trkpt lat="44.1212588" lon="10.9178569"><ele>1325.0</ele><time>2026-04-24T14:27:44.886Z</time></trkpt><trkpt lat="44.1213398" lon="10.9177862"><ele>1326.5</ele><time>2026-04-24T14:27:45.884Z</time></trkpt><trkpt lat="44.1214168" lon="10.9177244"><ele>1328.0</ele><time>2026-04-24T14:27:46.885Z</time></trkpt><trkpt lat="44.1215016" lon="10.9176655"><ele>1327.1666666666667</ele><time>2026-04-24T14:27:47.884Z</time></trkpt><trkpt lat="44.1215761" lon="10.9175945"><ele>1326.3333333333335</ele><time>2026-04-24T14:27:48.885Z</time></trkpt><trkpt lat="44.1216593" lon="10.9175402"><ele>1325.5</ele><time>2026-04-24T14:27:49.886Z</time></trkpt><trkpt lat="44.1217468" lon="10.9174855"><ele>1324.6666666666667</ele><time>2026-04-24T14:27:50.885Z</time></trkpt><trkpt lat="44.1218294" lon="10.9174372"><ele>1323.8333333333333</ele><time>2026-04-24T14:27:51.886Z</time></trkpt><trkpt lat="44.1218953" lon="10.9174163"><ele>1323.0</ele><time>2026-04-24T14:27:52.885Z</time></trkpt><trkpt lat="44.121974" lon="10.9173682"><ele>1323.0</ele><time>2026-04-24T14:27:53.886Z</time></trkpt><trkpt lat="44.122087" lon="10.917365"><ele>1323.0</ele><time>2026-04-24T14:27:55.885Z</time></trkpt><trkpt lat="44.1221869" lon="10.9174539"><ele>1323.0</ele><time>2026-04-24T14:27:57.885Z</time></trkpt><trkpt lat="44.122169" lon="10.9175799"><ele>1323.0</ele><time>2026-04-24T14:27:58.885Z</time></trkpt><trkpt lat="44.1221846" lon="10.917674"><ele>1323.0</ele><time>2026-04-24T14:27:59.885Z</time></trkpt><trkpt lat="44.1222026" lon="10.9177882"><ele>1323.0</ele><time>2026-04-24T14:28:00.885Z</time></trkpt><trkpt lat="44.1222588" lon="10.9179055"><ele>1323.0</ele><time>2026-04-24T14:28:01.885Z</time></trkpt><trkpt lat="44.122285" lon="10.9180204"><ele>1323.0</ele><time>2026-04-24T14:28:02.885Z</time></trkpt><trkpt lat="44.1223335" lon="10.9181421"><ele>1323.0</ele><time>2026-04-24T14:28:03.886Z</time></trkpt><trkpt lat="44.1223584" lon="10.9182776"><ele>1323.0</ele><time>2026-04-24T14:28:04.885Z</time></trkpt><trkpt lat="44.1223935" lon="10.918396"><ele>1325.8333333333333</ele><time>2026-04-24T14:28:05.884Z</time></trkpt><trkpt lat="44.1224198" lon="10.9185054"><ele>1328.6666666666667</ele><time>2026-04-24T14:28:06.884Z</time></trkpt><trkpt lat="44.1224559" lon="10.9186078"><ele>1331.5</ele><time>2026-04-24T14:28:07.885Z</time></trkpt><trkpt lat="44.1225008" lon="10.9187203"><ele>1334.3333333333335</ele><time>2026-04-24T14:28:08.884Z</time></trkpt><trkpt lat="44.1226081" lon="10.9187528"><ele>1337.1666666666667</ele><time>2026-04-24T14:28:09.886Z</time></trkpt><trkpt lat="44.1226418" lon="10.9188298"><ele>1340.0</ele><time>2026-04-24T14:28:10.884Z</time></trkpt><trkpt lat="44.1226894" lon="10.9189601"><ele>1340.0</ele><time>2026-04-24T14:28:12.885Z</time></trkpt><trkpt lat="44.1227104" lon="10.9190538"><ele>1340.0</ele><time>2026-04-24T14:28:15.885Z</time></trkpt><trkpt lat="44.1226997" lon="10.9191698"><ele>1340.0</ele><time>2026-04-24T14:28:30.885Z</time></trkpt><trkpt lat="44.122646" lon="10.9192887"><ele>1340.0</ele><time>2026-04-24T14:28:32.884Z</time></trkpt><trkpt lat="44.1225893" lon="10.9193997"><ele>1340.0</ele><time>2026-04-24T14:28:34.885Z</time></trkpt><trkpt lat="44.1225332" lon="10.9195061"><ele>1340.0</ele><time>2026-04-24T14:28:36.885Z</time></trkpt><trkpt lat="44.1224876" lon="10.9196192"><ele>1340.0</ele><time>2026-04-24T14:28:38.886Z</time></trkpt><trkpt lat="44.1224419" lon="10.9197276"><ele>1340.0</ele><time>2026-04-24T14:28:40.885Z</time></trkpt><trkpt lat="44.1224089" lon="10.9198287"><ele>1340.0</ele><time>2026-04-24T14:28:42.884Z</time></trkpt><trkpt lat="44.1223941" lon="10.9199237"><ele>1340.0</ele><time>2026-04-24T14:28:44.886Z</time></trkpt><trkpt lat="44.1223572" lon="10.9200094"><ele>1340.0</ele><time>2026-04-24T14:28:46.886Z</time></trkpt><trkpt lat="44.1223324" lon="10.920131"><ele>1340.0</ele><time>2026-04-24T14:28:48.884Z</time></trkpt><trkpt lat="44.1223145" lon="10.9202581"><ele>1330.8</ele><time>2026-04-24T14:28:50.884Z</time></trkpt><trkpt lat="44.1222881" lon="10.9203878"><ele>1321.6</ele><time>2026-04-24T14:28:52.885Z</time></trkpt><trkpt lat="44.1222585" lon="10.9205241"><ele>1312.4</ele><time>2026-04-24T14:28:54.884Z</time></trkpt><trkpt lat="44.1222206" lon="10.9206559"><ele>1303.2</ele><time>2026-04-24T14:28:56.885Z</time></trkpt><trkpt lat="44.1221956" lon="10.9207912"><ele>1294.0</ele><time>2026-04-24T14:28:58.885Z</time></trkpt><trkpt lat="44.1221704" lon="10.9209491"><ele>1293.4</ele><time>2026-04-24T14:29:00.886Z</time></trkpt><trkpt lat="44.1221397" lon="10.921081"><ele>1292.8000000000002</ele><time>2026-04-24T14:29:02.886Z</time></trkpt><trkpt lat="44.1221182" lon="10.9212239"><ele>1292.1999999999998</ele><time>2026-04-24T14:29:04.885Z</time></trkpt><trkpt lat="44.1220872" lon="10.9213675"><ele>1291.6</ele><time>2026-04-24T14:29:06.885Z</time></trkpt><trkpt lat="44.1220506" lon="10.9215169"><ele>1291.0</ele><time>2026-04-24T14:29:08.885Z</time></trkpt><trkpt lat="44.1220267" lon="10.921685"><ele>1290.7142857142856</ele><time>2026-04-24T14:29:10.884Z</time></trkpt><trkpt lat="44.1220096" lon="10.9217732"><ele>1290.4285714285713</ele><time>2026-04-24T14:29:11.885Z</time></trkpt><trkpt lat="44.1219874" lon="10.9218594"><ele>1290.142857142857</ele><time>2026-04-24T14:29:12.885Z</time></trkpt><trkpt lat="44.1219741" lon="10.9219491"><ele>1289.8571428571427</ele><time>2026-04-24T14:29:13.885Z</time></trkpt><trkpt lat="44.121954" lon="10.9220345"><ele>1289.5714285714284</ele><time>2026-04-24T14:29:14.886Z</time></trkpt><trkpt lat="44.1219395" lon="10.9221214"><ele>1289.2857142857142</ele><time>2026-04-24T14:29:15.886Z</time></trkpt><trkpt lat="44.121917" lon="10.9222784"><ele>1289.0</ele><time>2026-04-24T14:29:17.885Z</time></trkpt><trkpt lat="44.1218928" lon="10.9224169"><ele>1289.0</ele><time>2026-04-24T14:29:19.885Z</time></trkpt><trkpt lat="44.1218673" lon="10.9225574"><ele>1289.0</ele><time>2026-04-24T14:29:21.884Z</time></trkpt><trkpt lat="44.1218465" lon="10.9227071"><ele>1289.0</ele><time>2026-04-24T14:29:23.885Z</time></trkpt><trkpt lat="44.1218262" lon="10.9228541"><ele>1289.0</ele><time>2026-04-24T14:29:25.884Z</time></trkpt><trkpt lat="44.1218104" lon="10.922999"><ele>1289.0</ele><time>2026-04-24T14:29:27.885Z</time></trkpt><trkpt lat="44.1217731" lon="10.9231595"><ele>1289.0</ele><time>2026-04-24T14:29:29.885Z</time></trkpt><trkpt lat="44.1217484" lon="10.9233232"><ele>1289.0</ele><time>2026-04-24T14:29:31.884Z</time></trkpt><trkpt lat="44.1217174" lon="10.9234684"><ele>1289.0</ele><time>2026-04-24T14:29:33.884Z</time></trkpt><trkpt lat="44.1216855" lon="10.9236229"><ele>1289.0</ele><time>2026-04-24T14:29:35.884Z</time></trkpt><trkpt lat="44.1216439" lon="10.9237585"><ele>1288.4</ele><time>2026-04-24T14:29:37.884Z</time></trkpt><trkpt lat="44.1216045" lon="10.9238706"><ele>1287.8000000000002</ele><time>2026-04-24T14:29:39.884Z</time></trkpt><trkpt lat="44.1215564" lon="10.9240352"><ele>1287.1999999999998</ele><time>2026-04-24T14:29:41.885Z</time></trkpt><trkpt lat="44.1215207" lon="10.9241771"><ele>1286.6</ele><time>2026-04-24T14:29:43.883Z</time></trkpt><trkpt lat="44.1214974" lon="10.9242604"><ele>1286.0</ele><time>2026-04-24T14:29:44.885Z</time></trkpt><trkpt lat="44.121454" lon="10.9244058"><ele>1278.2</ele><time>2026-04-24T14:29:46.883Z</time></trkpt><trkpt lat="44.1214201" lon="10.9245489"><ele>1270.3999999999999</ele><time>2026-04-24T14:29:48.883Z</time></trkpt><trkpt lat="44.1213843" lon="10.9246878"><ele>1262.6</ele><time>2026-04-24T14:29:50.884Z</time></trkpt><trkpt lat="44.1213697" lon="10.9248252"><ele>1254.8</ele><time>2026-04-24T14:29:52.884Z</time></trkpt><trkpt lat="44.1214416" lon="10.9249023"><ele>1247.0</ele><time>2026-04-24T14:29:54.884Z</time></trkpt><trkpt lat="44.1215346" lon="10.9248913"><ele>1251.6</ele><time>2026-04-24T14:29:56.883Z</time></trkpt><trkpt lat="44.1216079" lon="10.9248594"><ele>1256.2</ele><time>2026-04-24T14:29:58.885Z</time></trkpt><trkpt lat="44.1217057" lon="10.9248183"><ele>1260.8</ele><time>2026-04-24T14:30:00.884Z</time></trkpt><trkpt lat="44.1217943" lon="10.9247847"><ele>1265.4</ele><time>2026-04-24T14:30:02.883Z</time></trkpt><trkpt lat="44.1218943" lon="10.9247352"><ele>1270.0</ele><time>2026-04-24T14:30:04.884Z</time></trkpt><trkpt lat="44.1219987" lon="10.9247082"><ele>1270.0</ele><time>2026-04-24T14:30:06.885Z</time></trkpt><trkpt lat="44.1220647" lon="10.9246783"><ele>1270.0</ele><time>2026-04-24T14:30:07.884Z</time></trkpt><trkpt lat="44.1221242" lon="10.9246496"><ele>1270.0</ele><time>2026-04-24T14:30:08.884Z</time></trkpt><trkpt lat="44.1222239" lon="10.9246205"><ele>1270.0</ele><time>2026-04-24T14:30:10.884Z</time></trkpt><trkpt lat="44.1223246" lon="10.9245634"><ele>1270.0</ele><time>2026-04-24T14:30:12.883Z</time></trkpt><trkpt lat="44.1224169" lon="10.9245156"><ele>1270.0</ele><time>2026-04-24T14:30:14.885Z</time></trkpt><trkpt lat="44.1224989" lon="10.9244654"><ele>1265.8</ele><time>2026-04-24T14:30:16.884Z</time></trkpt><trkpt lat="44.1225695" lon="10.9244151"><ele>1261.6</ele><time>2026-04-24T14:30:18.884Z</time></trkpt><trkpt lat="44.1226766" lon="10.924378"><ele>1257.4</ele><time>2026-04-24T14:30:20.884Z</time></trkpt><trkpt lat="44.122778" lon="10.9243417"><ele>1253.2</ele><time>2026-04-24T14:30:22.884Z</time></trkpt><trkpt lat="44.1228673" lon="10.9243048"><ele>1249.0</ele><time>2026-04-24T14:30:24.883Z</time></trkpt><trkpt lat="44.1229664" lon="10.9242814"><ele>1249.0</ele><time>2026-04-24T14:30:26.885Z</time></trkpt><trkpt lat="44.1230659" lon="10.9242495"><ele>1249.0</ele><time>2026-04-24T14:30:28.884Z</time></trkpt><trkpt lat="44.1231385" lon="10.9242405"><ele>1249.0</ele><time>2026-04-24T14:30:30.885Z</time></trkpt><trkpt lat="44.1232631" lon="10.9242232"><ele>1249.0</ele><time>2026-04-24T14:30:32.883Z</time></trkpt><trkpt lat="44.1233985" lon="10.924207"><ele>1249.0</ele><time>2026-04-24T14:30:34.885Z</time></trkpt><trkpt lat="44.123466" lon="10.9242159"><ele>1250.5</ele><time>2026-04-24T14:30:35.885Z</time></trkpt><trkpt lat="44.1235925" lon="10.9242219"><ele>1252.0</ele><time>2026-04-24T14:30:37.884Z</time></trkpt><trkpt lat="44.1236652" lon="10.9242506"><ele>1253.5</ele><time>2026-04-24T14:30:38.884Z</time></trkpt><trkpt lat="44.1237286" lon="10.9242526"><ele>1255.0</ele><time>2026-04-24T14:30:39.883Z</time></trkpt><trkpt lat="44.1237928" lon="10.9242652"><ele>1256.5</ele><time>2026-04-24T14:30:40.884Z</time></trkpt><trkpt lat="44.1239046" lon="10.92423"><ele>1258.0</ele><time>2026-04-24T14:30:42.884Z</time></trkpt><trkpt lat="44.1240134" lon="10.9241673"><ele>1253.8</ele><time>2026-04-24T14:30:44.884Z</time></trkpt><trkpt lat="44.1240636" lon="10.9241057"><ele>1249.6</ele><time>2026-04-24T14:30:45.883Z</time></trkpt><trkpt lat="44.1241644" lon="10.9239989"><ele>1245.4</ele><time>2026-04-24T14:30:47.884Z</time></trkpt><trkpt lat="44.1242523" lon="10.9239181"><ele>1241.2</ele><time>2026-04-24T14:30:49.884Z</time></trkpt><trkpt lat="44.1243892" lon="10.9239284"><ele>1237.0</ele><time>2026-04-24T14:30:51.884Z</time></trkpt><trkpt lat="44.1245142" lon="10.9239665"><ele>1237.0</ele><time>2026-04-24T14:30:53.884Z</time></trkpt><trkpt lat="44.1246153" lon="10.9239464"><ele>1237.0</ele><time>2026-04-24T14:30:55.883Z</time></trkpt><trkpt lat="44.1246976" lon="10.9238899"><ele>1237.0</ele><time>2026-04-24T14:30:57.884Z</time></trkpt><trkpt lat="44.1247806" lon="10.9237503"><ele>1237.0</ele><time>2026-04-24T14:30:59.883Z</time></trkpt><trkpt lat="44.1248436" lon="10.9236205"><ele>1237.0</ele><time>2026-04-24T14:31:01.883Z</time></trkpt><trkpt lat="44.1248979" lon="10.9235569"><ele>1231.6666666666665</ele><time>2026-04-24T14:31:02.884Z</time></trkpt><trkpt lat="44.124963" lon="10.9235587"><ele>1226.3333333333333</ele><time>2026-04-24T14:31:03.885Z</time></trkpt><trkpt lat="44.1250257" lon="10.9235776"><ele>1221.0</ele><time>2026-04-24T14:31:04.884Z</time></trkpt><trkpt lat="44.1251266" lon="10.9236665"><ele>1215.6666666666667</ele><time>2026-04-24T14:31:06.884Z</time></trkpt><trkpt lat="44.1251823" lon="10.9237207"><ele>1210.3333333333335</ele><time>2026-04-24T14:31:07.883Z</time></trkpt><trkpt lat="44.1252861" lon="10.9237778"><ele>1205.0</ele><time>2026-04-24T14:31:09.884Z</time></trkpt><trkpt lat="44.1254016" lon="10.9238383"><ele>1205.0</ele><time>2026-04-24T14:31:11.884Z</time></trkpt><trkpt lat="44.1255158" lon="10.9238772"><ele>1205.0</ele><time>2026-04-24T14:31:13.883Z</time></trkpt><trkpt lat="44.1256215" lon="10.9238223"><ele>1205.0</ele><time>2026-04-24T14:31:15.885Z</time></trkpt><trkpt lat="44.12573" lon="10.9237807"><ele>1205.0</ele><time>2026-04-24T14:31:17.885Z</time></trkpt><trkpt lat="44.1257939" lon="10.9237672"><ele>1205.0</ele><time>2026-04-24T14:31:18.884Z</time></trkpt><trkpt lat="44.1259218" lon="10.92373"><ele>1203.0</ele><time>2026-04-24T14:31:20.883Z</time></trkpt><trkpt lat="44.1260537" lon="10.9237053"><ele>1201.0</ele><time>2026-04-24T14:31:22.883Z</time></trkpt><trkpt lat="44.1261236" lon="10.9236655"><ele>1199.0</ele><time>2026-04-24T14:31:23.885Z</time></trkpt><trkpt lat="44.1261966" lon="10.9236318"><ele>1197.0</ele><time>2026-04-24T14:31:24.883Z</time></trkpt><trkpt lat="44.126273" lon="10.9235998"><ele>1195.0</ele><time>2026-04-24T14:31:25.885Z</time></trkpt><trkpt lat="44.1263467" lon="10.9235656"><ele>1193.0</ele><time>2026-04-24T14:31:26.883Z</time></trkpt><trkpt lat="44.1264223" lon="10.9235295"><ele>1193.0</ele><time>2026-04-24T14:31:27.885Z</time></trkpt><trkpt lat="44.1265012" lon="10.9235033"><ele>1193.0</ele><time>2026-04-24T14:31:28.883Z</time></trkpt><trkpt lat="44.126562" lon="10.9234739"><ele>1193.0</ele><time>2026-04-24T14:31:29.885Z</time></trkpt><trkpt lat="44.1266273" lon="10.9234433"><ele>1193.0</ele><time>2026-04-24T14:31:30.884Z</time></trkpt><trkpt lat="44.1266998" lon="10.9234143"><ele>1193.0</ele><time>2026-04-24T14:31:31.884Z</time></trkpt><trkpt lat="44.12678" lon="10.9233898"><ele>1193.0</ele><time>2026-04-24T14:31:32.884Z</time></trkpt><trkpt lat="44.12686" lon="10.923375"><ele>1195.6666666666667</ele><time>2026-04-24T14:31:33.885Z</time></trkpt><trkpt lat="44.1269341" lon="10.9233579"><ele>1198.3333333333335</ele><time>2026-04-24T14:31:34.885Z</time></trkpt><trkpt lat="44.1270183" lon="10.9233201"><ele>1201.0</ele><time>2026-04-24T14:31:35.884Z</time></trkpt><trkpt lat="44.1270857" lon="10.9233009"><ele>1203.6666666666667</ele><time>2026-04-24T14:31:36.883Z</time></trkpt><trkpt lat="44.1271583" lon="10.9233008"><ele>1206.3333333333333</ele><time>2026-04-24T14:31:37.884Z</time></trkpt><trkpt lat="44.1272325" lon="10.9232969"><ele>1209.0</ele><time>2026-04-24T14:31:38.884Z</time></trkpt><trkpt lat="44.1273032" lon="10.9232998"><ele>1209.0</ele><time>2026-04-24T14:31:39.885Z</time></trkpt><trkpt lat="44.1273817" lon="10.9232706"><ele>1209.0</ele><time>2026-04-24T14:31:40.884Z</time></trkpt><trkpt lat="44.127475" lon="10.9232266"><ele>1209.0</ele><time>2026-04-24T14:31:42.883Z</time></trkpt><trkpt lat="44.1276073" lon="10.9232014"><ele>1209.0</ele><time>2026-04-24T14:31:44.884Z</time></trkpt><trkpt lat="44.1276811" lon="10.9231983"><ele>1209.0</ele><time>2026-04-24T14:31:45.884Z</time></trkpt><trkpt lat="44.1277505" lon="10.9232039"><ele>1204.6666666666667</ele><time>2026-04-24T14:31:46.885Z</time></trkpt><trkpt lat="44.1278199" lon="10.9232226"><ele>1200.3333333333333</ele><time>2026-04-24T14:31:47.884Z</time></trkpt><trkpt lat="44.1278915" lon="10.9232384"><ele>1196.0</ele><time>2026-04-24T14:31:48.885Z</time></trkpt><trkpt lat="44.1279943" lon="10.9232217"><ele>1191.6666666666665</ele><time>2026-04-24T14:31:50.884Z</time></trkpt><trkpt lat="44.1280535" lon="10.9231781"><ele>1187.3333333333333</ele><time>2026-04-24T14:31:51.883Z</time></trkpt><trkpt lat="44.12813" lon="10.9231434"><ele>1183.0</ele><time>2026-04-24T14:31:52.883Z</time></trkpt><trkpt lat="44.1282018" lon="10.9230752"><ele>1181.142857142857</ele><time>2026-04-24T14:31:53.884Z</time></trkpt><trkpt lat="44.1282645" lon="10.9230328"><ele>1179.2857142857142</ele><time>2026-04-24T14:31:54.884Z</time></trkpt><trkpt lat="44.1283245" lon="10.9229857"><ele>1177.4285714285716</ele><time>2026-04-24T14:31:55.884Z</time></trkpt><trkpt lat="44.1283904" lon="10.9229508"><ele>1175.5714285714284</ele><time>2026-04-24T14:31:56.884Z</time></trkpt><trkpt lat="44.1284642" lon="10.9229278"><ele>1173.7142857142858</ele><time>2026-04-24T14:31:57.884Z</time></trkpt><trkpt lat="44.1285408" lon="10.9228905"><ele>1171.857142857143</ele><time>2026-04-24T14:31:58.885Z</time></trkpt><trkpt lat="44.1286072" lon="10.9228495"><ele>1170.0</ele><time>2026-04-24T14:31:59.883Z</time></trkpt><trkpt lat="44.1286708" lon="10.9228061"><ele>1170.0</ele><time>2026-04-24T14:32:00.884Z</time></trkpt><trkpt lat="44.1287407" lon="10.9227916"><ele>1170.0</ele><time>2026-04-24T14:32:01.885Z</time></trkpt><trkpt lat="44.1288048" lon="10.9227789"><ele>1170.0</ele><time>2026-04-24T14:32:02.884Z</time></trkpt><trkpt lat="44.1288804" lon="10.9227379"><ele>1170.0</ele><time>2026-04-24T14:32:03.884Z</time></trkpt><trkpt lat="44.1289511" lon="10.9227097"><ele>1170.0</ele><time>2026-04-24T14:32:04.884Z</time></trkpt><trkpt lat="44.1290594" lon="10.9226578"><ele>1170.0</ele><time>2026-04-24T14:32:06.883Z</time></trkpt><trkpt lat="44.1291198" lon="10.9226142"><ele>1167.0</ele><time>2026-04-24T14:32:07.883Z</time></trkpt><trkpt lat="44.1291903" lon="10.9225907"><ele>1164.0</ele><time>2026-04-24T14:32:08.885Z</time></trkpt><trkpt lat="44.1292541" lon="10.9226154"><ele>1161.0</ele><time>2026-04-24T14:32:09.885Z</time></trkpt><trkpt lat="44.1293639" lon="10.9226695"><ele>1158.0</ele><time>2026-04-24T14:32:11.884Z</time></trkpt><trkpt lat="44.1294328" lon="10.9226759"><ele>1155.0</ele><time>2026-04-24T14:32:12.884Z</time></trkpt><trkpt lat="44.1294918" lon="10.9227184"><ele>1152.0</ele><time>2026-04-24T14:32:13.884Z</time></trkpt><trkpt lat="44.1295796" lon="10.9228227"><ele>1152.0</ele><time>2026-04-24T14:32:15.885Z</time></trkpt><trkpt lat="44.1296244" lon="10.9229366"><ele>1152.0</ele><time>2026-04-24T14:32:17.884Z</time></trkpt><trkpt lat="44.1297074" lon="10.9230803"><ele>1152.0</ele><time>2026-04-24T14:32:19.884Z</time></trkpt><trkpt lat="44.1297628" lon="10.92314"><ele>1152.0</ele><time>2026-04-24T14:32:20.884Z</time></trkpt><trkpt lat="44.1298225" lon="10.9232643"><ele>1152.0</ele><time>2026-04-24T14:32:22.884Z</time></trkpt><trkpt lat="44.1298763" lon="10.923339"><ele>1150.6666666666667</ele><time>2026-04-24T14:32:24.885Z</time></trkpt><trkpt lat="44.1299351" lon="10.9234338"><ele>1149.3333333333333</ele><time>2026-04-24T14:32:27.884Z</time></trkpt><trkpt lat="44.129983" lon="10.9234934"><ele>1148.0</ele><time>2026-04-24T14:32:30.884Z</time></trkpt><trkpt lat="44.1300348" lon="10.9235681"><ele>1146.6666666666665</ele><time>2026-04-24T14:32:32.884Z</time></trkpt><trkpt lat="44.1301188" lon="10.9236715"><ele>1145.3333333333333</ele><time>2026-04-24T14:32:34.884Z</time></trkpt><trkpt lat="44.1301865" lon="10.9237208"><ele>1144.0</ele><time>2026-04-24T14:32:35.884Z</time></trkpt><trkpt lat="44.1302659" lon="10.9237453"><ele>1144.0</ele><time>2026-04-24T14:32:36.884Z</time></trkpt><trkpt lat="44.130342" lon="10.9237569"><ele>1144.0</ele><time>2026-04-24T14:32:37.885Z</time></trkpt><trkpt lat="44.1304094" lon="10.9237625"><ele>1144.0</ele><time>2026-04-24T14:32:38.883Z</time></trkpt><trkpt lat="44.1304852" lon="10.9237546"><ele>1144.0</ele><time>2026-04-24T14:32:39.885Z</time></trkpt><trkpt lat="44.1305664" lon="10.9237549"><ele>1144.0</ele><time>2026-04-24T14:32:40.884Z</time></trkpt><trkpt lat="44.1306453" lon="10.9237488"><ele>1144.0</ele><time>2026-04-24T14:32:41.884Z</time></trkpt><trkpt lat="44.1307153" lon="10.923745"><ele>1142.9999999999998</ele><time>2026-04-24T14:32:42.884Z</time></trkpt><trkpt lat="44.1307911" lon="10.9237282"><ele>1142.0</ele><time>2026-04-24T14:32:43.884Z</time></trkpt><trkpt lat="44.1308637" lon="10.9237288"><ele>1141.0</ele><time>2026-04-24T14:32:44.883Z</time></trkpt><trkpt lat="44.1309339" lon="10.9237144"><ele>1140.0</ele><time>2026-04-24T14:32:45.883Z</time></trkpt><trkpt lat="44.1309986" lon="10.923706"><ele>1139.0</ele><time>2026-04-24T14:32:46.885Z</time></trkpt><trkpt lat="44.1310706" lon="10.9237031"><ele>1137.9999999999998</ele><time>2026-04-24T14:32:47.884Z</time></trkpt><trkpt lat="44.1311337" lon="10.9236875"><ele>1137.0</ele><time>2026-04-24T14:32:48.883Z</time></trkpt><trkpt lat="44.1312432" lon="10.9236802"><ele>1137.0</ele><time>2026-04-24T14:32:50.883Z</time></trkpt><trkpt lat="44.1313074" lon="10.9236736"><ele>1137.0</ele><time>2026-04-24T14:32:51.885Z</time></trkpt><trkpt lat="44.1314068" lon="10.9237053"><ele>1137.0</ele><time>2026-04-24T14:32:53.884Z</time></trkpt><trkpt lat="44.1314852" lon="10.9237349"><ele>1137.0</ele><time>2026-04-24T14:32:55.885Z</time></trkpt><trkpt lat="44.1315573" lon="10.9237967"><ele>1137.0</ele><time>2026-04-24T14:32:58.885Z</time></trkpt><trkpt lat="44.1315943" lon="10.9238966"><ele>1137.0</ele><time>2026-04-24T14:33:01.884Z</time></trkpt><trkpt lat="44.1316581" lon="10.9239193"><ele>1135.3333333333333</ele><time>2026-04-24T14:36:48.884Z</time></trkpt><trkpt lat="44.1317254" lon="10.9239191"><ele>1133.6666666666667</ele><time>2026-04-24T14:36:50.884Z</time></trkpt><trkpt lat="44.1317935" lon="10.9239818"><ele>1132.0</ele><time>2026-04-24T14:36:52.884Z</time></trkpt><trkpt lat="44.1318492" lon="10.9240626"><ele>1130.3333333333335</ele><time>2026-04-24T14:36:54.884Z</time></trkpt><trkpt lat="44.1319301" lon="10.9241528"><ele>1128.6666666666667</ele><time>2026-04-24T14:36:56.884Z</time></trkpt><trkpt lat="44.1319918" lon="10.9242164"><ele>1127.0</ele><time>2026-04-24T14:36:57.884Z</time></trkpt><trkpt lat="44.1320449" lon="10.9243514"><ele>1124.0</ele><time>2026-04-24T14:36:59.885Z</time></trkpt><trkpt lat="44.1320733" lon="10.9245108"><ele>1121.0</ele><time>2026-04-24T14:37:01.883Z</time></trkpt><trkpt lat="44.1320978" lon="10.924675"><ele>1118.0</ele><time>2026-04-24T14:37:03.883Z</time></trkpt><trkpt lat="44.1321357" lon="10.9248326"><ele>1115.0</ele><time>2026-04-24T14:37:05.883Z</time></trkpt><trkpt lat="44.1321886" lon="10.9249587"><ele>1115.0</ele><time>2026-04-24T14:37:07.883Z</time></trkpt><trkpt lat="44.1322804" lon="10.9250501"><ele>1115.0</ele><time>2026-04-24T14:37:09.884Z</time></trkpt><trkpt lat="44.1323798" lon="10.9251329"><ele>1115.0</ele><time>2026-04-24T14:37:11.885Z</time></trkpt><trkpt lat="44.1324631" lon="10.9252602"><ele>1115.0</ele><time>2026-04-24T14:37:13.884Z</time></trkpt><trkpt lat="44.1325226" lon="10.9253868"><ele>1117.0</ele><time>2026-04-24T14:37:15.884Z</time></trkpt><trkpt lat="44.1326007" lon="10.9254923"><ele>1119.0</ele><time>2026-04-24T14:37:17.883Z</time></trkpt><trkpt lat="44.1326835" lon="10.9255968"><ele>1121.0</ele><time>2026-04-24T14:37:19.885Z</time></trkpt><trkpt lat="44.1327945" lon="10.9256774"><ele>1123.0</ele><time>2026-04-24T14:37:21.884Z</time></trkpt><trkpt lat="44.1328893" lon="10.9257636"><ele>1123.0</ele><time>2026-04-24T14:37:23.885Z</time></trkpt><trkpt lat="44.1329397" lon="10.9258236"><ele>1123.0</ele><time>2026-04-24T14:37:24.884Z</time></trkpt><trkpt lat="44.1330194" lon="10.9259425"><ele>1123.0</ele><time>2026-04-24T14:37:26.884Z</time></trkpt><trkpt lat="44.1330595" lon="10.9260801"><ele>1123.0</ele><time>2026-04-24T14:37:28.883Z</time></trkpt><trkpt lat="44.1330832" lon="10.926226"><ele>1123.0</ele><time>2026-04-24T14:37:30.885Z</time></trkpt><trkpt lat="44.133115" lon="10.9263793"><ele>1124.8</ele><time>2026-04-24T14:37:32.884Z</time></trkpt><trkpt lat="44.1331765" lon="10.9265144"><ele>1126.6</ele><time>2026-04-24T14:37:34.884Z</time></trkpt><trkpt lat="44.1332642" lon="10.9266083"><ele>1128.4</ele><time>2026-04-24T14:37:36.885Z</time></trkpt><trkpt lat="44.1333289" lon="10.9266415"><ele>1130.2</ele><time>2026-04-24T14:37:37.884Z</time></trkpt><trkpt lat="44.1333909" lon="10.92666"><ele>1132.0</ele><time>2026-04-24T14:37:38.885Z</time></trkpt><trkpt lat="44.1335129" lon="10.9266721"><ele>1132.0</ele><time>2026-04-24T14:37:40.883Z</time></trkpt><trkpt lat="44.1335825" lon="10.926675"><ele>1132.0</ele><time>2026-04-24T14:37:41.884Z</time></trkpt><trkpt lat="44.1336457" lon="10.9266845"><ele>1132.0</ele><time>2026-04-24T14:37:42.884Z</time></trkpt><trkpt lat="44.1337655" lon="10.9266997"><ele>1132.0</ele><time>2026-04-24T14:37:44.884Z</time></trkpt><trkpt lat="44.1338673" lon="10.9267108"><ele>1132.0</ele><time>2026-04-24T14:37:46.885Z</time></trkpt><trkpt lat="44.1339445" lon="10.926718"><ele>1132.0</ele><time>2026-04-24T14:37:48.883Z</time></trkpt><trkpt lat="44.1340155" lon="10.9267417"><ele>1133.3333333333333</ele><time>2026-04-24T14:38:27.883Z</time></trkpt><trkpt lat="44.1340676" lon="10.9268598"><ele>1134.6666666666665</ele><time>2026-04-24T14:38:30.883Z</time></trkpt><trkpt lat="44.1340982" lon="10.926997"><ele>1136.0</ele><time>2026-04-24T14:38:32.884Z</time></trkpt><trkpt lat="44.1341393" lon="10.927139"><ele>1137.3333333333333</ele><time>2026-04-24T14:38:34.885Z</time></trkpt><trkpt lat="44.1341775" lon="10.9272103"><ele>1138.6666666666667</ele><time>2026-04-24T14:38:35.884Z</time></trkpt><trkpt lat="44.1342076" lon="10.9272906"><ele>1140.0</ele><time>2026-04-24T14:38:36.885Z</time></trkpt><trkpt lat="44.1342732" lon="10.927412"><ele>1140.0</ele><time>2026-04-24T14:38:38.883Z</time></trkpt><trkpt lat="44.134338" lon="10.9275397"><ele>1140.0</ele><time>2026-04-24T14:38:40.884Z</time></trkpt><trkpt lat="44.1344279" lon="10.9276437"><ele>1140.0</ele><time>2026-04-24T14:38:42.884Z</time></trkpt><trkpt lat="44.1345324" lon="10.9277131"><ele>1140.0</ele><time>2026-04-24T14:38:44.884Z</time></trkpt><trkpt lat="44.1346308" lon="10.9277687"><ele>1139.3333333333333</ele><time>2026-04-24T14:38:46.883Z</time></trkpt><trkpt lat="44.1347357" lon="10.9278476"><ele>1138.6666666666667</ele><time>2026-04-24T14:38:48.883Z</time></trkpt><trkpt lat="44.1348375" lon="10.9279174"><ele>1138.0</ele><time>2026-04-24T14:38:50.885Z</time></trkpt><trkpt lat="44.1349068" lon="10.9279572"><ele>1137.3333333333335</ele><time>2026-04-24T14:38:51.884Z</time></trkpt><trkpt lat="44.1349666" lon="10.9279935"><ele>1136.6666666666667</ele><time>2026-04-24T14:38:52.884Z</time></trkpt><trkpt lat="44.1350257" lon="10.9280291"><ele>1136.0</ele><time>2026-04-24T14:38:53.884Z</time></trkpt><trkpt lat="44.1350856" lon="10.9280605"><ele>1140.0</ele><time>2026-04-24T14:38:54.885Z</time></trkpt><trkpt lat="44.1351758" lon="10.9281671"><ele>1144.0</ele><time>2026-04-24T14:38:56.884Z</time></trkpt><trkpt lat="44.1352436" lon="10.9282992"><ele>1148.0</ele><time>2026-04-24T14:38:58.885Z</time></trkpt><trkpt lat="44.1352319" lon="10.9284057"><ele>1152.0</ele><time>2026-04-24T14:38:59.883Z</time></trkpt><trkpt lat="44.1352663" lon="10.9285515"><ele>1156.0</ele><time>2026-04-24T14:39:01.883Z</time></trkpt><trkpt lat="44.1353387" lon="10.9286997"><ele>1156.0</ele><time>2026-04-24T14:39:03.884Z</time></trkpt><trkpt lat="44.1353908" lon="10.9287589"><ele>1156.0</ele><time>2026-04-24T14:39:04.883Z</time></trkpt><trkpt lat="44.1354624" lon="10.9288934"><ele>1156.0</ele><time>2026-04-24T14:39:06.884Z</time></trkpt><trkpt lat="44.1354439" lon="10.9290072"><ele>1156.0</ele><time>2026-04-24T14:39:08.884Z</time></trkpt><trkpt lat="44.1353932" lon="10.9291034"><ele>1156.0</ele><time>2026-04-24T14:39:10.884Z</time></trkpt><trkpt lat="44.1353216" lon="10.9291781"><ele>1156.0</ele><time>2026-04-24T14:39:12.884Z</time></trkpt><trkpt lat="44.1352435" lon="10.9292722"><ele>1156.6</ele><time>2026-04-24T14:39:14.884Z</time></trkpt><trkpt lat="44.1351746" lon="10.9293804"><ele>1157.1999999999998</ele><time>2026-04-24T14:39:16.884Z</time></trkpt><trkpt lat="44.1351041" lon="10.9294909"><ele>1157.8000000000002</ele><time>2026-04-24T14:39:18.883Z</time></trkpt><trkpt lat="44.1350338" lon="10.9295787"><ele>1158.4</ele><time>2026-04-24T14:39:20.884Z</time></trkpt><trkpt lat="44.1349947" lon="10.9296595"><ele>1159.0</ele><time>2026-04-24T14:39:21.883Z</time></trkpt><trkpt lat="44.1349372" lon="10.9298187"><ele>1159.0000000000002</ele><time>2026-04-24T14:39:23.884Z</time></trkpt><trkpt lat="44.1349029" lon="10.929894"><ele>1159.0</ele><time>2026-04-24T14:39:24.884Z</time></trkpt><trkpt lat="44.134879" lon="10.9299759"><ele>1159.0</ele><time>2026-04-24T14:39:25.884Z</time></trkpt><trkpt lat="44.1348485" lon="10.9300611"><ele>1159.0</ele><time>2026-04-24T14:39:26.885Z</time></trkpt><trkpt lat="44.1348202" lon="10.9301618"><ele>1159.0</ele><time>2026-04-24T14:39:27.883Z</time></trkpt><trkpt lat="44.1347801" lon="10.9302555"><ele>1159.0000000000002</ele><time>2026-04-24T14:39:28.884Z</time></trkpt><trkpt lat="44.134745" lon="10.9303625"><ele>1159.0</ele><time>2026-04-24T14:39:29.883Z</time></trkpt><trkpt lat="44.1347155" lon="10.9304828"><ele>1159.0</ele><time>2026-04-24T14:39:30.884Z</time></trkpt><trkpt lat="44.1346838" lon="10.9305753"><ele>1159.0</ele><time>2026-04-24T14:39:31.883Z</time></trkpt><trkpt lat="44.134651" lon="10.9306909"><ele>1159.0</ele><time>2026-04-24T14:39:32.883Z</time></trkpt><trkpt lat="44.1346141" lon="10.9307838"><ele>1159.0</ele><time>2026-04-24T14:39:33.885Z</time></trkpt><trkpt lat="44.1345827" lon="10.9308859"><ele>1159.0</ele><time>2026-04-24T14:39:34.885Z</time></trkpt><trkpt lat="44.1345335" lon="10.9309774"><ele>1159.0</ele><time>2026-04-24T14:39:35.884Z</time></trkpt><trkpt lat="44.1344847" lon="10.9310764"><ele>1160.6666666666665</ele><time>2026-04-24T14:39:36.885Z</time></trkpt><trkpt lat="44.1344323" lon="10.9311767"><ele>1162.3333333333333</ele><time>2026-04-24T14:39:37.884Z</time></trkpt><trkpt lat="44.1343626" lon="10.9312695"><ele>1164.0</ele><time>2026-04-24T14:39:38.884Z</time></trkpt><trkpt lat="44.1343136" lon="10.9313632"><ele>1165.6666666666667</ele><time>2026-04-24T14:39:39.884Z</time></trkpt><trkpt lat="44.134257" lon="10.9314043"><ele>1167.3333333333335</ele><time>2026-04-24T14:39:40.884Z</time></trkpt><trkpt lat="44.1342061" lon="10.9314988"><ele>1169.0</ele><time>2026-04-24T14:39:41.884Z</time></trkpt><trkpt lat="44.1341562" lon="10.9315814"><ele>1169.0</ele><time>2026-04-24T14:39:42.884Z</time></trkpt><trkpt lat="44.1341069" lon="10.9316647"><ele>1169.0</ele><time>2026-04-24T14:39:43.884Z</time></trkpt><trkpt lat="44.1340571" lon="10.9317439"><ele>1169.0</ele><time>2026-04-24T14:39:44.883Z</time></trkpt><trkpt lat="44.1340193" lon="10.9318156"><ele>1169.0</ele><time>2026-04-24T14:39:45.885Z</time></trkpt><trkpt lat="44.1339604" lon="10.9319015"><ele>1169.0</ele><time>2026-04-24T14:39:46.884Z</time></trkpt><trkpt lat="44.1339041" lon="10.9319823"><ele>1169.0</ele><time>2026-04-24T14:39:47.884Z</time></trkpt><trkpt lat="44.1338437" lon="10.9320796"><ele>1169.3333333333335</ele><time>2026-04-24T14:39:48.883Z</time></trkpt><trkpt lat="44.133787" lon="10.9321704"><ele>1169.6666666666667</ele><time>2026-04-24T14:39:49.884Z</time></trkpt><trkpt lat="44.1337393" lon="10.9322589"><ele>1170.0</ele><time>2026-04-24T14:39:50.884Z</time></trkpt><trkpt lat="44.133684" lon="10.9323442"><ele>1170.3333333333333</ele><time>2026-04-24T14:39:51.885Z</time></trkpt><trkpt lat="44.1336366" lon="10.9324394"><ele>1170.6666666666665</ele><time>2026-04-24T14:39:52.883Z</time></trkpt><trkpt lat="44.1335825" lon="10.932509"><ele>1171.0</ele><time>2026-04-24T14:39:53.883Z</time></trkpt><trkpt lat="44.1335315" lon="10.9325877"><ele>1171.8333333333333</ele><time>2026-04-24T14:39:54.884Z</time></trkpt><trkpt lat="44.1334843" lon="10.9326637"><ele>1172.6666666666665</ele><time>2026-04-24T14:39:55.884Z</time></trkpt><trkpt lat="44.1334345" lon="10.9327393"><ele>1173.5</ele><time>2026-04-24T14:39:56.884Z</time></trkpt><trkpt lat="44.1333839" lon="10.9328081"><ele>1174.3333333333333</ele><time>2026-04-24T14:39:57.883Z</time></trkpt><trkpt lat="44.1332999" lon="10.9329559"><ele>1175.1666666666667</ele><time>2026-04-24T14:39:59.884Z</time></trkpt><trkpt lat="44.1332536" lon="10.9330246"><ele>1176.0</ele><time>2026-04-24T14:40:00.883Z</time></trkpt><trkpt lat="44.1332095" lon="10.933093"><ele>1175.0</ele><time>2026-04-24T14:40:01.885Z</time></trkpt><trkpt lat="44.1331636" lon="10.9331611"><ele>1174.0</ele><time>2026-04-24T14:40:02.882Z</time></trkpt><trkpt lat="44.1331293" lon="10.9332373"><ele>1173.0</ele><time>2026-04-24T14:40:03.883Z</time></trkpt><trkpt lat="44.1330855" lon="10.9333113"><ele>1172.0</ele><time>2026-04-24T14:40:04.883Z</time></trkpt><trkpt lat="44.133041" lon="10.9333738"><ele>1171.0</ele><time>2026-04-24T14:40:05.883Z</time></trkpt><trkpt lat="44.1329978" lon="10.9335102"><ele>1170.0</ele><time>2026-04-24T14:40:07.883Z</time></trkpt><trkpt lat="44.1330281" lon="10.9336162"><ele>1170.0</ele><time>2026-04-24T14:40:09.883Z</time></trkpt><trkpt lat="44.1331082" lon="10.9337098"><ele>1170.0</ele><time>2026-04-24T14:40:11.883Z</time></trkpt><trkpt lat="44.1332068" lon="10.9338012"><ele>1170.0</ele><time>2026-04-24T14:40:13.883Z</time></trkpt><trkpt lat="44.1332644" lon="10.9338497"><ele>1170.0</ele><time>2026-04-24T14:40:14.884Z</time></trkpt><trkpt lat="44.1333142" lon="10.9339165"><ele>1170.0</ele><time>2026-04-24T14:40:15.883Z</time></trkpt><trkpt lat="44.1333415" lon="10.9340297"><ele>1170.0</ele><time>2026-04-24T14:40:17.883Z</time></trkpt><trkpt lat="44.1332915" lon="10.9340899"><ele>1170.0</ele><time>2026-04-24T14:40:18.884Z</time></trkpt><trkpt lat="44.1332121" lon="10.9342"><ele>1170.0</ele><time>2026-04-24T14:40:20.884Z</time></trkpt><trkpt lat="44.1331058" lon="10.9342968"><ele>1170.0</ele><time>2026-04-24T14:40:22.883Z</time></trkpt><trkpt lat="44.1330508" lon="10.93437"><ele>1170.0</ele><time>2026-04-24T14:40:23.883Z</time></trkpt><trkpt lat="44.1329907" lon="10.9344201"><ele>1170.0</ele><time>2026-04-24T14:40:24.883Z</time></trkpt><trkpt lat="44.1329434" lon="10.9344793"><ele>1170.0</ele><time>2026-04-24T14:40:25.882Z</time></trkpt><trkpt lat="44.132887" lon="10.9345187"><ele>1172.0</ele><time>2026-04-24T14:40:26.883Z</time></trkpt><trkpt lat="44.1328355" lon="10.9346232"><ele>1174.0</ele><time>2026-04-24T14:40:28.883Z</time></trkpt><trkpt lat="44.1328514" lon="10.9347288"><ele>1176.0</ele><time>2026-04-24T14:40:30.882Z</time></trkpt><trkpt lat="44.1329089" lon="10.9347747"><ele>1178.0</ele><time>2026-04-24T14:40:31.883Z</time></trkpt><trkpt lat="44.1330015" lon="10.9347988"><ele>1180.0</ele><time>2026-04-24T14:40:33.884Z</time></trkpt><trkpt lat="44.1330716" lon="10.934852"><ele>1182.0</ele><time>2026-04-24T14:40:34.883Z</time></trkpt><trkpt lat="44.1331683" lon="10.9349752"><ele>1183.1666666666667</ele><time>2026-04-24T14:40:36.883Z</time></trkpt><trkpt lat="44.1332413" lon="10.9351197"><ele>1184.3333333333333</ele><time>2026-04-24T14:40:38.883Z</time></trkpt><trkpt lat="44.1332772" lon="10.9352048"><ele>1185.5</ele><time>2026-04-24T14:40:39.883Z</time></trkpt><trkpt lat="44.1333017" lon="10.9352951"><ele>1186.6666666666665</ele><time>2026-04-24T14:40:40.883Z</time></trkpt><trkpt lat="44.133318" lon="10.9354005"><ele>1187.8333333333333</ele><time>2026-04-24T14:40:41.882Z</time></trkpt><trkpt lat="44.1333514" lon="10.9354867"><ele>1189.0</ele><time>2026-04-24T14:40:42.882Z</time></trkpt><trkpt lat="44.1333775" lon="10.9356384"><ele>1189.0</ele><time>2026-04-24T14:40:44.884Z</time></trkpt><trkpt lat="44.1334037" lon="10.9357695"><ele>1189.0</ele><time>2026-04-24T14:40:46.883Z</time></trkpt><trkpt lat="44.1334126" lon="10.9358735"><ele>1189.0</ele><time>2026-04-24T14:40:48.883Z</time></trkpt><trkpt lat="44.1333745" lon="10.9359752"><ele>1189.0</ele><time>2026-04-24T14:40:51.883Z</time></trkpt><trkpt lat="44.1333642" lon="10.9360635"><ele>1189.0</ele><time>2026-04-24T14:40:55.883Z</time></trkpt><trkpt lat="44.1334219" lon="10.9360143"><ele>1189.0</ele><time>2026-04-24T14:44:20.883Z</time></trkpt><trkpt lat="44.1334376" lon="10.9359074"><ele>1189.0</ele><time>2026-04-24T14:44:23.884Z</time></trkpt><trkpt lat="44.1334234" lon="10.9358168"><ele>1189.0</ele><time>2026-04-24T14:44:26.884Z</time></trkpt><trkpt lat="44.1333942" lon="10.9356767"><ele>1189.0</ele><time>2026-04-24T14:44:29.882Z</time></trkpt><trkpt lat="44.1333622" lon="10.9355563"><ele>1189.0</ele><time>2026-04-24T14:44:31.882Z</time></trkpt><trkpt lat="44.1333322" lon="10.9354381"><ele>1189.0</ele><time>2026-04-24T14:44:33.883Z</time></trkpt><trkpt lat="44.133302" lon="10.9353081"><ele>1189.0</ele><time>2026-04-24T14:44:35.883Z</time></trkpt><trkpt lat="44.1332618" lon="10.9351991"><ele>1189.0</ele><time>2026-04-24T14:44:37.883Z</time></trkpt><trkpt lat="44.1332332" lon="10.9350907"><ele>1189.0</ele><time>2026-04-24T14:44:39.883Z</time></trkpt><trkpt lat="44.1331974" lon="10.9349989"><ele>1189.0</ele><time>2026-04-24T14:44:41.883Z</time></trkpt><trkpt lat="44.1331248" lon="10.9349057"><ele>1189.0</ele><time>2026-04-24T14:44:43.884Z</time></trkpt><trkpt lat="44.1330472" lon="10.9348241"><ele>1189.0</ele><time>2026-04-24T14:44:45.882Z</time></trkpt><trkpt lat="44.1329579" lon="10.934791"><ele>1187.6000000000001</ele><time>2026-04-24T14:44:47.884Z</time></trkpt><trkpt lat="44.1328759" lon="10.9347482"><ele>1186.2</ele><time>2026-04-24T14:44:49.883Z</time></trkpt><trkpt lat="44.132825" lon="10.934653"><ele>1184.8000000000002</ele><time>2026-04-24T14:44:51.883Z</time></trkpt><trkpt lat="44.1328427" lon="10.9345376"><ele>1183.4</ele><time>2026-04-24T14:44:53.883Z</time></trkpt><trkpt lat="44.1329158" lon="10.9344537"><ele>1182.0</ele><time>2026-04-24T14:44:55.884Z</time></trkpt><trkpt lat="44.1330107" lon="10.9343868"><ele>1182.0</ele><time>2026-04-24T14:44:57.883Z</time></trkpt><trkpt lat="44.1330643" lon="10.9343296"><ele>1182.0</ele><time>2026-04-24T14:44:58.884Z</time></trkpt><trkpt lat="44.1331568" lon="10.9342419"><ele>1182.0</ele><time>2026-04-24T14:45:00.883Z</time></trkpt><trkpt lat="44.1332302" lon="10.9341699"><ele>1182.0</ele><time>2026-04-24T14:45:02.882Z</time></trkpt><trkpt lat="44.1332856" lon="10.9341106"><ele>1182.0</ele><time>2026-04-24T14:45:04.883Z</time></trkpt><trkpt lat="44.1333316" lon="10.9340506"><ele>1182.0</ele><time>2026-04-24T14:45:07.884Z</time></trkpt><trkpt lat="44.1333482" lon="10.9339382"><ele>1181.8333333333333</ele><time>2026-04-24T14:45:12.883Z</time></trkpt><trkpt lat="44.1332853" lon="10.9338766"><ele>1181.6666666666667</ele><time>2026-04-24T14:45:14.882Z</time></trkpt><trkpt lat="44.1332091" lon="10.9338025"><ele>1181.5</ele><time>2026-04-24T14:45:16.884Z</time></trkpt><trkpt lat="44.1331411" lon="10.9337599"><ele>1181.3333333333335</ele><time>2026-04-24T14:45:18.884Z</time></trkpt><trkpt lat="44.1330876" lon="10.9336784"><ele>1181.1666666666667</ele><time>2026-04-24T14:45:25.883Z</time></trkpt><trkpt lat="44.1330315" lon="10.9336168"><ele>1181.0</ele><time>2026-04-24T14:45:27.882Z</time></trkpt><trkpt lat="44.1330302" lon="10.933486"><ele>1180.0</ele><time>2026-04-24T14:45:29.882Z</time></trkpt><trkpt lat="44.1330638" lon="10.9333475"><ele>1179.0</ele><time>2026-04-24T14:45:31.881Z</time></trkpt><trkpt lat="44.1331139" lon="10.9332317"><ele>1178.0</ele><time>2026-04-24T14:45:33.882Z</time></trkpt><trkpt lat="44.1331839" lon="10.9331419"><ele>1177.0</ele><time>2026-04-24T14:45:35.882Z</time></trkpt><trkpt lat="44.133257" lon="10.9330382"><ele>1176.0</ele><time>2026-04-24T14:45:37.881Z</time></trkpt><trkpt lat="44.1333124" lon="10.9329551"><ele>1176.0</ele><time>2026-04-24T14:45:39.881Z</time></trkpt><trkpt lat="44.1333777" lon="10.9328637"><ele>1176.0</ele><time>2026-04-24T14:45:41.882Z</time></trkpt><trkpt lat="44.133427" lon="10.9327621"><ele>1176.0</ele><time>2026-04-24T14:45:43.882Z</time></trkpt><trkpt lat="44.1334849" lon="10.9326649"><ele>1176.0</ele><time>2026-04-24T14:45:45.882Z</time></trkpt><trkpt lat="44.1335381" lon="10.9325633"><ele>1176.0</ele><time>2026-04-24T14:45:47.883Z</time></trkpt><trkpt lat="44.1336017" lon="10.9324638"><ele>1175.1666666666667</ele><time>2026-04-24T14:45:49.881Z</time></trkpt><trkpt lat="44.1336599" lon="10.9323521"><ele>1174.3333333333333</ele><time>2026-04-24T14:45:51.883Z</time></trkpt><trkpt lat="44.1337269" lon="10.9322729"><ele>1173.5</ele><time>2026-04-24T14:45:53.883Z</time></trkpt><trkpt lat="44.1337827" lon="10.9321977"><ele>1172.6666666666665</ele><time>2026-04-24T14:45:55.882Z</time></trkpt><trkpt lat="44.1338268" lon="10.9321315"><ele>1171.8333333333333</ele><time>2026-04-24T14:45:59.883Z</time></trkpt><trkpt lat="44.1338891" lon="10.932167"><ele>1171.0</ele><time>2026-04-24T14:46:10.882Z</time></trkpt><trkpt lat="44.1339604" lon="10.9322299"><ele>1171.0</ele><time>2026-04-24T14:46:13.882Z</time></trkpt><trkpt lat="44.1339221" lon="10.9321475"><ele>1171.0</ele><time>2026-04-24T14:46:20.882Z</time></trkpt><trkpt lat="44.1338764" lon="10.9320635"><ele>1171.0</ele><time>2026-04-24T14:46:23.882Z</time></trkpt><trkpt lat="44.1339267" lon="10.931957"><ele>1171.0</ele><time>2026-04-24T14:46:26.881Z</time></trkpt><trkpt lat="44.1339814" lon="10.9318857"><ele>1171.0</ele><time>2026-04-24T14:46:27.883Z</time></trkpt><trkpt lat="44.1340386" lon="10.9318037"><ele>1171.0</ele><time>2026-04-24T14:46:28.881Z</time></trkpt><trkpt lat="44.1340918" lon="10.931731"><ele>1170.6666666666665</ele><time>2026-04-24T14:46:29.883Z</time></trkpt><trkpt lat="44.1341475" lon="10.9316672"><ele>1170.3333333333333</ele><time>2026-04-24T14:46:30.882Z</time></trkpt><trkpt lat="44.1342195" lon="10.9315202"><ele>1170.0</ele><time>2026-04-24T14:46:32.881Z</time></trkpt><trkpt lat="44.1342635" lon="10.9314552"><ele>1169.6666666666667</ele><time>2026-04-24T14:46:33.881Z</time></trkpt><trkpt lat="44.1343041" lon="10.9313811"><ele>1169.3333333333335</ele><time>2026-04-24T14:46:34.883Z</time></trkpt><trkpt lat="44.134348" lon="10.9313158"><ele>1169.0</ele><time>2026-04-24T14:46:35.882Z</time></trkpt><trkpt lat="44.134422" lon="10.9311754"><ele>1169.0</ele><time>2026-04-24T14:46:37.883Z</time></trkpt><trkpt lat="44.1344638" lon="10.931097"><ele>1169.0</ele><time>2026-04-24T14:46:38.881Z</time></trkpt><trkpt lat="44.1345097" lon="10.9310204"><ele>1169.0</ele><time>2026-04-24T14:46:39.882Z</time></trkpt><trkpt lat="44.1345415" lon="10.9309363"><ele>1169.0</ele><time>2026-04-24T14:46:40.882Z</time></trkpt><trkpt lat="44.134572" lon="10.9308443"><ele>1169.0</ele><time>2026-04-24T14:46:41.882Z</time></trkpt><trkpt lat="44.1346014" lon="10.9307504"><ele>1169.0</ele><time>2026-04-24T14:46:42.882Z</time></trkpt><trkpt lat="44.1346396" lon="10.9306483"><ele>1169.0</ele><time>2026-04-24T14:46:43.883Z</time></trkpt><trkpt lat="44.1346794" lon="10.9305475"><ele>1167.3333333333335</ele><time>2026-04-24T14:46:44.881Z</time></trkpt><trkpt lat="44.1347179" lon="10.9304323"><ele>1165.6666666666667</ele><time>2026-04-24T14:46:45.883Z</time></trkpt><trkpt lat="44.1347517" lon="10.9303226"><ele>1164.0</ele><time>2026-04-24T14:46:46.882Z</time></trkpt><trkpt lat="44.1347823" lon="10.9302089"><ele>1162.3333333333333</ele><time>2026-04-24T14:46:47.882Z</time></trkpt><trkpt lat="44.1348082" lon="10.9300991"><ele>1160.6666666666665</ele><time>2026-04-24T14:46:48.881Z</time></trkpt><trkpt lat="44.134839" lon="10.9299952"><ele>1159.0</ele><time>2026-04-24T14:46:49.883Z</time></trkpt><trkpt lat="44.1348791" lon="10.9299173"><ele>1159.0</ele><time>2026-04-24T14:46:50.882Z</time></trkpt><trkpt lat="44.1349142" lon="10.9298148"><ele>1159.0</ele><time>2026-04-24T14:46:51.881Z</time></trkpt><trkpt lat="44.1349528" lon="10.9297167"><ele>1159.0</ele><time>2026-04-24T14:46:52.881Z</time></trkpt><trkpt lat="44.1350115" lon="10.9296318"><ele>1159.0</ele><time>2026-04-24T14:46:53.882Z</time></trkpt><trkpt lat="44.1350523" lon="10.9295503"><ele>1159.0</ele><time>2026-04-24T14:46:54.882Z</time></trkpt><trkpt lat="44.1350955" lon="10.9294725"><ele>1159.0</ele><time>2026-04-24T14:46:55.882Z</time></trkpt><trkpt lat="44.1351418" lon="10.9293997"><ele>1159.0</ele><time>2026-04-24T14:46:56.882Z</time></trkpt><trkpt lat="44.1352043" lon="10.9293412"><ele>1159.0</ele><time>2026-04-24T14:46:57.882Z</time></trkpt><trkpt lat="44.1352534" lon="10.9292711"><ele>1159.0</ele><time>2026-04-24T14:46:58.882Z</time></trkpt><trkpt lat="44.1353358" lon="10.9291655"><ele>1159.0</ele><time>2026-04-24T14:47:00.883Z</time></trkpt><trkpt lat="44.1353828" lon="10.9291016"><ele>1159.0</ele><time>2026-04-24T14:47:02.884Z</time></trkpt><trkpt lat="44.135441" lon="10.929023"><ele>1159.0</ele><time>2026-04-24T14:47:34.882Z</time></trkpt><trkpt lat="44.1354683" lon="10.9289354"><ele>1158.4</ele><time>2026-04-24T14:47:36.881Z</time></trkpt><trkpt lat="44.1354434" lon="10.9288144"><ele>1157.8000000000002</ele><time>2026-04-24T14:47:38.881Z</time></trkpt><trkpt lat="44.1353741" lon="10.9287153"><ele>1157.1999999999998</ele><time>2026-04-24T14:47:40.882Z</time></trkpt><trkpt lat="44.1353105" lon="10.928579"><ele>1156.6</ele><time>2026-04-24T14:47:42.882Z</time></trkpt><trkpt lat="44.1352571" lon="10.9284369"><ele>1156.0</ele><time>2026-04-24T14:47:44.882Z</time></trkpt><trkpt lat="44.1352541" lon="10.9283452"><ele>1156.0</ele><time>2026-04-24T14:47:50.882Z</time></trkpt><trkpt lat="44.1351992" lon="10.9282489"><ele>1156.0</ele><time>2026-04-24T14:47:55.881Z</time></trkpt><trkpt lat="44.135162" lon="10.9281397"><ele>1156.0</ele><time>2026-04-24T14:47:58.882Z</time></trkpt><trkpt lat="44.1350835" lon="10.9280452"><ele>1156.0</ele><time>2026-04-24T14:48:00.881Z</time></trkpt><trkpt lat="44.1350031" lon="10.9279954"><ele>1156.0</ele><time>2026-04-24T14:48:01.883Z</time></trkpt><trkpt lat="44.1348954" lon="10.9279451"><ele>1152.0</ele><time>2026-04-24T14:48:03.883Z</time></trkpt><trkpt lat="44.1348172" lon="10.9279465"><ele>1148.0</ele><time>2026-04-24T14:48:21.882Z</time></trkpt><trkpt lat="44.1347458" lon="10.9278898"><ele>1144.0</ele><time>2026-04-24T14:48:23.882Z</time></trkpt><trkpt lat="44.1346606" lon="10.9278321"><ele>1140.0</ele><time>2026-04-24T14:48:25.881Z</time></trkpt><trkpt lat="44.1345684" lon="10.9277522"><ele>1136.0</ele><time>2026-04-24T14:48:27.883Z</time></trkpt><trkpt lat="44.1344999" lon="10.9276532"><ele>1136.0</ele><time>2026-04-24T14:48:29.883Z</time></trkpt><trkpt lat="44.1344155" lon="10.9275892"><ele>1136.0</ele><time>2026-04-24T14:48:31.882Z</time></trkpt><trkpt lat="44.1343378" lon="10.9274925"><ele>1136.0</ele><time>2026-04-24T14:48:33.881Z</time></trkpt><trkpt lat="44.1342586" lon="10.9273516"><ele>1136.0</ele><time>2026-04-24T14:48:35.881Z</time></trkpt><trkpt lat="44.1342069" lon="10.9272349"><ele>1136.0</ele><time>2026-04-24T14:48:37.883Z</time></trkpt><trkpt lat="44.1341378" lon="10.9271016"><ele>1136.8</ele><time>2026-04-24T14:48:39.882Z</time></trkpt><trkpt lat="44.1340893" lon="10.9269629"><ele>1137.6</ele><time>2026-04-24T14:48:41.881Z</time></trkpt><trkpt lat="44.1340507" lon="10.9268257"><ele>1138.4</ele><time>2026-04-24T14:48:43.882Z</time></trkpt><trkpt lat="44.1340767" lon="10.9266991"><ele>1139.2</ele><time>2026-04-24T14:48:45.882Z</time></trkpt><trkpt lat="44.1341369" lon="10.926586"><ele>1140.0</ele><time>2026-04-24T14:48:47.882Z</time></trkpt><trkpt lat="44.1342495" lon="10.9264984"><ele>1140.0</ele><time>2026-04-24T14:48:49.881Z</time></trkpt><trkpt lat="44.1343099" lon="10.9264706"><ele>1140.0</ele><time>2026-04-24T14:48:50.883Z</time></trkpt><trkpt lat="44.1344402" lon="10.9264203"><ele>1140.0</ele><time>2026-04-24T14:48:52.882Z</time></trkpt><trkpt lat="44.1345509" lon="10.9263786"><ele>1140.0</ele><time>2026-04-24T14:48:54.882Z</time></trkpt><trkpt lat="44.1346319" lon="10.9263647"><ele>1140.0</ele><time>2026-04-24T14:48:55.882Z</time></trkpt><trkpt lat="44.1347049" lon="10.9263479"><ele>1140.0</ele><time>2026-04-24T14:48:56.882Z</time></trkpt><trkpt lat="44.1347748" lon="10.9263444"><ele>1140.0</ele><time>2026-04-24T14:48:57.881Z</time></trkpt><trkpt lat="44.134848" lon="10.9263477"><ele>1140.0</ele><time>2026-04-24T14:48:58.882Z</time></trkpt><trkpt lat="44.134917" lon="10.9263365"><ele>1140.0</ele><time>2026-04-24T14:48:59.881Z</time></trkpt><trkpt lat="44.1350469" lon="10.9263237"><ele>1140.0</ele><time>2026-04-24T14:49:01.882Z</time></trkpt><trkpt lat="44.1351765" lon="10.9263146"><ele>1140.5</ele><time>2026-04-24T14:49:03.881Z</time></trkpt><trkpt lat="44.1352919" lon="10.9263123"><ele>1141.0</ele><time>2026-04-24T14:49:05.883Z</time></trkpt><trkpt lat="44.1353677" lon="10.9263059"><ele>1141.5</ele><time>2026-04-24T14:49:06.882Z</time></trkpt><trkpt lat="44.1354346" lon="10.9263306"><ele>1142.0</ele><time>2026-04-24T14:49:07.882Z</time></trkpt><trkpt lat="44.135498" lon="10.9263455"><ele>1142.5</ele><time>2026-04-24T14:49:08.882Z</time></trkpt><trkpt lat="44.1355619" lon="10.9263694"><ele>1143.0</ele><time>2026-04-24T14:49:09.883Z</time></trkpt><trkpt lat="44.1356198" lon="10.9264057"><ele>1141.6</ele><time>2026-04-24T14:49:10.881Z</time></trkpt><trkpt lat="44.135746" lon="10.9264435"><ele>1140.1999999999998</ele><time>2026-04-24T14:49:12.882Z</time></trkpt><trkpt lat="44.1358427" lon="10.92642"><ele>1138.8</ele><time>2026-04-24T14:49:14.883Z</time></trkpt><trkpt lat="44.1359128" lon="10.9263834"><ele>1137.3999999999999</ele><time>2026-04-24T14:49:15.882Z</time></trkpt><trkpt lat="44.1359797" lon="10.9263374"><ele>1136.0</ele><time>2026-04-24T14:49:16.881Z</time></trkpt><trkpt lat="44.1360422" lon="10.9262687"><ele>1136.0</ele><time>2026-04-24T14:49:17.882Z</time></trkpt><trkpt lat="44.1360945" lon="10.9262148"><ele>1136.0</ele><time>2026-04-24T14:49:18.882Z</time></trkpt><trkpt lat="44.136165" lon="10.9261626"><ele>1136.0</ele><time>2026-04-24T14:49:19.882Z</time></trkpt><trkpt lat="44.1362844" lon="10.9260828"><ele>1136.0</ele><time>2026-04-24T14:49:21.881Z</time></trkpt><trkpt lat="44.1363489" lon="10.9260474"><ele>1136.0</ele><time>2026-04-24T14:49:22.882Z</time></trkpt><trkpt lat="44.1364148" lon="10.926004"><ele>1136.0</ele><time>2026-04-24T14:49:23.883Z</time></trkpt><trkpt lat="44.1364787" lon="10.9259702"><ele>1136.0</ele><time>2026-04-24T14:49:24.882Z</time></trkpt><trkpt lat="44.136551" lon="10.9259205"><ele>1136.0</ele><time>2026-04-24T14:49:25.881Z</time></trkpt><trkpt lat="44.1366154" lon="10.9258755"><ele>1136.0</ele><time>2026-04-24T14:49:26.882Z</time></trkpt><trkpt lat="44.1366842" lon="10.92584"><ele>1136.0</ele><time>2026-04-24T14:49:27.881Z</time></trkpt><trkpt lat="44.1367488" lon="10.9257957"><ele>1136.0</ele><time>2026-04-24T14:49:28.882Z</time></trkpt><trkpt lat="44.1368116" lon="10.9257622"><ele>1136.0</ele><time>2026-04-24T14:49:29.882Z</time></trkpt><trkpt lat="44.1369199" lon="10.9256794"><ele>1133.0</ele><time>2026-04-24T14:49:31.882Z</time></trkpt><trkpt lat="44.1370337" lon="10.9256248"><ele>1130.0</ele><time>2026-04-24T14:49:33.882Z</time></trkpt><trkpt lat="44.1370907" lon="10.9255865"><ele>1127.0</ele><time>2026-04-24T14:49:34.882Z</time></trkpt><trkpt lat="44.1371954" lon="10.9255277"><ele>1124.0</ele><time>2026-04-24T14:49:36.883Z</time></trkpt><trkpt lat="44.1372954" lon="10.9254505"><ele>1121.0</ele><time>2026-04-24T14:49:38.882Z</time></trkpt><trkpt lat="44.1373827" lon="10.9253665"><ele>1121.8</ele><time>2026-04-24T14:49:40.882Z</time></trkpt><trkpt lat="44.1374592" lon="10.9253006"><ele>1122.6</ele><time>2026-04-24T14:49:42.882Z</time></trkpt><trkpt lat="44.137525" lon="10.9252221"><ele>1123.4</ele><time>2026-04-24T14:49:44.883Z</time></trkpt><trkpt lat="44.1375951" lon="10.9251438"><ele>1124.2</ele><time>2026-04-24T14:49:47.882Z</time></trkpt><trkpt lat="44.1376715" lon="10.9250278"><ele>1125.0</ele><time>2026-04-24T14:49:49.882Z</time></trkpt><trkpt lat="44.137756" lon="10.9249069"><ele>1121.8</ele><time>2026-04-24T14:49:51.881Z</time></trkpt><trkpt lat="44.1378304" lon="10.9247778"><ele>1118.6</ele><time>2026-04-24T14:49:53.882Z</time></trkpt><trkpt lat="44.1378738" lon="10.924711"><ele>1115.4</ele><time>2026-04-24T14:49:54.882Z</time></trkpt><trkpt lat="44.1379553" lon="10.9245905"><ele>1112.2</ele><time>2026-04-24T14:49:56.883Z</time></trkpt><trkpt lat="44.1380209" lon="10.9244748"><ele>1109.0</ele><time>2026-04-24T14:49:58.882Z</time></trkpt><trkpt lat="44.1380909" lon="10.9243713"><ele>1109.0</ele><time>2026-04-24T14:50:00.882Z</time></trkpt><trkpt lat="44.1381677" lon="10.9242598"><ele>1109.0</ele><time>2026-04-24T14:50:02.883Z</time></trkpt><trkpt lat="44.1382531" lon="10.9241315"><ele>1109.0</ele><time>2026-04-24T14:50:04.881Z</time></trkpt><trkpt lat="44.1383426" lon="10.9240105"><ele>1109.0</ele><time>2026-04-24T14:50:06.882Z</time></trkpt><trkpt lat="44.1384167" lon="10.9238798"><ele>1109.0</ele><time>2026-04-24T14:50:08.882Z</time></trkpt><trkpt lat="44.1384902" lon="10.9237546"><ele>1109.0</ele><time>2026-04-24T14:50:10.883Z</time></trkpt><trkpt lat="44.1385299" lon="10.9236836"><ele>1109.0</ele><time>2026-04-24T14:50:11.882Z</time></trkpt><trkpt lat="44.1385725" lon="10.9236184"><ele>1109.0</ele><time>2026-04-24T14:50:12.883Z</time></trkpt><trkpt lat="44.1386551" lon="10.9234825"><ele>1109.0</ele><time>2026-04-24T14:50:14.883Z</time></trkpt><trkpt lat="44.1386915" lon="10.9234035"><ele>1109.0</ele><time>2026-04-24T14:50:15.883Z</time></trkpt><trkpt lat="44.1387438" lon="10.9233495"><ele>1108.3333333333335</ele><time>2026-04-24T14:50:16.881Z</time></trkpt><trkpt lat="44.1387993" lon="10.923258"><ele>1107.6666666666667</ele><time>2026-04-24T14:50:17.883Z</time></trkpt><trkpt lat="44.1388501" lon="10.9231806"><ele>1107.0</ele><time>2026-04-24T14:50:18.882Z</time></trkpt><trkpt lat="44.138909" lon="10.9230991"><ele>1106.3333333333333</ele><time>2026-04-24T14:50:19.882Z</time></trkpt><trkpt lat="44.1389649" lon="10.9230411"><ele>1105.6666666666665</ele><time>2026-04-24T14:50:20.882Z</time></trkpt><trkpt lat="44.1390194" lon="10.9229691"><ele>1105.0</ele><time>2026-04-24T14:50:21.883Z</time></trkpt><trkpt lat="44.1390731" lon="10.9229108"><ele>1105.0</ele><time>2026-04-24T14:50:22.883Z</time></trkpt><trkpt lat="44.1391352" lon="10.9228516"><ele>1105.0</ele><time>2026-04-24T14:50:23.882Z</time></trkpt><trkpt lat="44.1391917" lon="10.9228081"><ele>1105.0</ele><time>2026-04-24T14:50:24.883Z</time></trkpt><trkpt lat="44.1392532" lon="10.9227508"><ele>1105.0</ele><time>2026-04-24T14:50:25.881Z</time></trkpt><trkpt lat="44.1393164" lon="10.9226939"><ele>1105.0</ele><time>2026-04-24T14:50:26.882Z</time></trkpt><trkpt lat="44.1393687" lon="10.9226398"><ele>1105.0</ele><time>2026-04-24T14:50:27.881Z</time></trkpt><trkpt lat="44.1394159" lon="10.9225654"><ele>1105.0</ele><time>2026-04-24T14:50:28.881Z</time></trkpt><trkpt lat="44.1394673" lon="10.9225004"><ele>1102.2</ele><time>2026-04-24T14:50:29.883Z</time></trkpt><trkpt lat="44.1395668" lon="10.9223911"><ele>1099.4</ele><time>2026-04-24T14:50:31.882Z</time></trkpt><trkpt lat="44.1396324" lon="10.922348"><ele>1096.6</ele><time>2026-04-24T14:50:32.882Z</time></trkpt><trkpt lat="44.1397443" lon="10.9222476"><ele>1093.8</ele><time>2026-04-24T14:50:34.882Z</time></trkpt><trkpt lat="44.1398035" lon="10.9222087"><ele>1091.0</ele><time>2026-04-24T14:50:35.883Z</time></trkpt><trkpt lat="44.1398909" lon="10.9221025"><ele>1091.0</ele><time>2026-04-24T14:50:37.883Z</time></trkpt><trkpt lat="44.139958" lon="10.9220473"><ele>1091.0</ele><time>2026-04-24T14:50:38.882Z</time></trkpt><trkpt lat="44.1400225" lon="10.9219975"><ele>1091.0</ele><time>2026-04-24T14:50:39.882Z</time></trkpt><trkpt lat="44.1400692" lon="10.9219382"><ele>1091.0</ele><time>2026-04-24T14:50:40.881Z</time></trkpt><trkpt lat="44.140125" lon="10.9218743"><ele>1091.0</ele><time>2026-04-24T14:50:41.881Z</time></trkpt><trkpt lat="44.1401762" lon="10.9218193"><ele>1091.0</ele><time>2026-04-24T14:50:42.882Z</time></trkpt><trkpt lat="44.1402285" lon="10.9217635"><ele>1091.0</ele><time>2026-04-24T14:50:43.882Z</time></trkpt><trkpt lat="44.1402838" lon="10.921711"><ele>1087.0</ele><time>2026-04-24T14:50:44.882Z</time></trkpt><trkpt lat="44.1403445" lon="10.9216476"><ele>1083.0</ele><time>2026-04-24T14:50:45.881Z</time></trkpt><trkpt lat="44.1404028" lon="10.9215881"><ele>1079.0</ele><time>2026-04-24T14:50:46.882Z</time></trkpt><trkpt lat="44.1404816" lon="10.9214799"><ele>1075.0</ele><time>2026-04-24T14:50:48.882Z</time></trkpt><trkpt lat="44.140531" lon="10.9214157"><ele>1071.0</ele><time>2026-04-24T14:50:49.883Z</time></trkpt><trkpt lat="44.1406289" lon="10.9213061"><ele>1071.0</ele><time>2026-04-24T14:50:51.883Z</time></trkpt><trkpt lat="44.1406899" lon="10.9212547"><ele>1071.0</ele><time>2026-04-24T14:50:52.883Z</time></trkpt><trkpt lat="44.1407854" lon="10.9211586"><ele>1071.0</ele><time>2026-04-24T14:50:54.882Z</time></trkpt><trkpt lat="44.1408413" lon="10.9211035"><ele>1071.0</ele><time>2026-04-24T14:50:55.883Z</time></trkpt><trkpt lat="44.1409022" lon="10.9210569"><ele>1071.0</ele><time>2026-04-24T14:50:56.882Z</time></trkpt><trkpt lat="44.1409898" lon="10.9209493"><ele>1071.0</ele><time>2026-04-24T14:50:58.88Z</time></trkpt><trkpt lat="44.1410476" lon="10.9208887"><ele>1069.6</ele><time>2026-04-24T14:50:59.882Z</time></trkpt><trkpt lat="44.1411303" lon="10.9207653"><ele>1068.1999999999998</ele><time>2026-04-24T14:51:01.88Z</time></trkpt><trkpt lat="44.1412011" lon="10.9206223"><ele>1066.8000000000002</ele><time>2026-04-24T14:51:03.88Z</time></trkpt><trkpt lat="44.1412406" lon="10.9205448"><ele>1065.4</ele><time>2026-04-24T14:51:04.88Z</time></trkpt><trkpt lat="44.1412874" lon="10.9204665"><ele>1064.0</ele><time>2026-04-24T14:51:05.882Z</time></trkpt><trkpt lat="44.141332" lon="10.9203936"><ele>1064.0</ele><time>2026-04-24T14:51:06.881Z</time></trkpt><trkpt lat="44.1414358" lon="10.9202981"><ele>1064.0</ele><time>2026-04-24T14:51:08.88Z</time></trkpt><trkpt lat="44.1415038" lon="10.9202562"><ele>1064.0</ele><time>2026-04-24T14:51:09.88Z</time></trkpt><trkpt lat="44.1415866" lon="10.920231"><ele>1064.0</ele><time>2026-04-24T14:51:10.881Z</time></trkpt><trkpt lat="44.1416925" lon="10.9202413"><ele>1064.0</ele><time>2026-04-24T14:51:11.881Z</time></trkpt><trkpt lat="44.1417835" lon="10.9202166"><ele>1066.2</ele><time>2026-04-24T14:51:12.88Z</time></trkpt><trkpt lat="44.1418718" lon="10.9201996"><ele>1068.4</ele><time>2026-04-24T14:51:13.881Z</time></trkpt><trkpt lat="44.141966" lon="10.9201884"><ele>1070.6</ele><time>2026-04-24T14:51:14.881Z</time></trkpt><trkpt lat="44.1420689" lon="10.9201715"><ele>1072.8</ele><time>2026-04-24T14:51:15.882Z</time></trkpt><trkpt lat="44.1421712" lon="10.9201628"><ele>1075.0</ele><time>2026-04-24T14:51:16.88Z</time></trkpt><trkpt lat="44.1422594" lon="10.9201557"><ele>1075.0</ele><time>2026-04-24T14:51:17.881Z</time></trkpt><trkpt lat="44.1423525" lon="10.9201425"><ele>1075.0</ele><time>2026-04-24T14:51:18.881Z</time></trkpt><trkpt lat="44.1424252" lon="10.9201308"><ele>1075.0</ele><time>2026-04-24T14:51:19.881Z</time></trkpt><trkpt lat="44.1424994" lon="10.9201098"><ele>1075.0</ele><time>2026-04-24T14:51:20.881Z</time></trkpt><trkpt lat="44.1425678" lon="10.9201077"><ele>1075.0</ele><time>2026-04-24T14:51:21.882Z</time></trkpt><trkpt lat="44.1426428" lon="10.9201077"><ele>1075.0</ele><time>2026-04-24T14:51:22.881Z</time></trkpt><trkpt lat="44.1427534" lon="10.9201001"><ele>1074.0</ele><time>2026-04-24T14:51:24.881Z</time></trkpt><trkpt lat="44.1428324" lon="10.9200763"><ele>1073.0</ele><time>2026-04-24T14:51:26.882Z</time></trkpt><trkpt lat="44.1429103" lon="10.9199411"><ele>1072.0</ele><time>2026-04-24T14:51:32.881Z</time></trkpt><trkpt lat="44.1429222" lon="10.9198026"><ele>1071.0</ele><time>2026-04-24T14:51:34.881Z</time></trkpt><trkpt lat="44.1428581" lon="10.9196925"><ele>1070.0</ele><time>2026-04-24T14:51:36.882Z</time></trkpt><trkpt lat="44.1427585" lon="10.9196202"><ele>1066.75</ele><time>2026-04-24T14:51:38.881Z</time></trkpt><trkpt lat="44.1426494" lon="10.919542"><ele>1063.5</ele><time>2026-04-24T14:51:40.881Z</time></trkpt><trkpt lat="44.1425466" lon="10.9195032"><ele>1060.25</ele><time>2026-04-24T14:51:42.882Z</time></trkpt><trkpt lat="44.1424445" lon="10.9194723"><ele>1057.0</ele><time>2026-04-24T14:51:44.881Z</time></trkpt><trkpt lat="44.1422992" lon="10.9194502"><ele>1056.4</ele><time>2026-04-24T14:51:46.881Z</time></trkpt><trkpt lat="44.1421991" lon="10.91944"><ele>1055.8000000000002</ele><time>2026-04-24T14:51:47.881Z</time></trkpt><trkpt lat="44.1421051" lon="10.9194559"><ele>1055.2</ele><time>2026-04-24T14:51:48.882Z</time></trkpt><trkpt lat="44.1420077" lon="10.919473"><ele>1054.6000000000001</ele><time>2026-04-24T14:51:49.881Z</time></trkpt><trkpt lat="44.1419117" lon="10.9194925"><ele>1054.0</ele><time>2026-04-24T14:51:50.881Z</time></trkpt><trkpt lat="44.1418281" lon="10.9195205"><ele>1054.0</ele><time>2026-04-24T14:51:51.881Z</time></trkpt><trkpt lat="44.1417577" lon="10.9195417"><ele>1054.0</ele><time>2026-04-24T14:51:52.881Z</time></trkpt><trkpt lat="44.141687" lon="10.9195647"><ele>1054.0</ele><time>2026-04-24T14:51:53.881Z</time></trkpt><trkpt lat="44.1416212" lon="10.9195674"><ele>1054.0</ele><time>2026-04-24T14:51:54.881Z</time></trkpt><trkpt lat="44.1415594" lon="10.9194838"><ele>1054.0</ele><time>2026-04-24T14:51:56.881Z</time></trkpt><trkpt lat="44.141601" lon="10.9194065"><ele>1054.0</ele><time>2026-04-24T14:51:57.88Z</time></trkpt><trkpt lat="44.1417114" lon="10.9193277"><ele>1054.0</ele><time>2026-04-24T14:51:59.881Z</time></trkpt><trkpt lat="44.1417807" lon="10.9192842"><ele>1054.0</ele><time>2026-04-24T14:52:00.88Z</time></trkpt><trkpt lat="44.141865" lon="10.9192229"><ele>1054.0</ele><time>2026-04-24T14:52:01.882Z</time></trkpt><trkpt lat="44.1419364" lon="10.9191318"><ele>1054.0</ele><time>2026-04-24T14:52:02.882Z</time></trkpt><trkpt lat="44.1420063" lon="10.9190382"><ele>1054.0</ele><time>2026-04-24T14:52:03.881Z</time></trkpt><trkpt lat="44.1420737" lon="10.9189408"><ele>1052.0</ele><time>2026-04-24T14:52:04.881Z</time></trkpt><trkpt lat="44.1421407" lon="10.9188495"><ele>1050.0</ele><time>2026-04-24T14:52:05.881Z</time></trkpt><trkpt lat="44.1422003" lon="10.9187514"><ele>1048.0</ele><time>2026-04-24T14:52:06.881Z</time></trkpt><trkpt lat="44.1422747" lon="10.9186889"><ele>1046.0</ele><time>2026-04-24T14:52:07.882Z</time></trkpt><trkpt lat="44.1423319" lon="10.9186255"><ele>1044.0</ele><time>2026-04-24T14:52:08.88Z</time></trkpt><trkpt lat="44.142405" lon="10.9185914"><ele>1042.0</ele><time>2026-04-24T14:52:09.882Z</time></trkpt><trkpt lat="44.1424704" lon="10.9185491"><ele>1042.0</ele><time>2026-04-24T14:52:10.881Z</time></trkpt><trkpt lat="44.1425391" lon="10.9185016"><ele>1042.0</ele><time>2026-04-24T14:52:12.881Z</time></trkpt><trkpt lat="44.1425046" lon="10.9184159"><ele>1042.0</ele><time>2026-04-24T14:52:14.882Z</time></trkpt><trkpt lat="44.1424338" lon="10.9183944"><ele>1042.0</ele><time>2026-04-24T14:52:15.881Z</time></trkpt><trkpt lat="44.1423581" lon="10.9184247"><ele>1042.0</ele><time>2026-04-24T14:52:16.881Z</time></trkpt><trkpt lat="44.1422422" lon="10.9184923"><ele>1042.0</ele><time>2026-04-24T14:52:17.882Z</time></trkpt><trkpt lat="44.1421531" lon="10.9185072"><ele>1040.0</ele><time>2026-04-24T14:52:18.882Z</time></trkpt><trkpt lat="44.1420657" lon="10.9185049"><ele>1038.0</ele><time>2026-04-24T14:52:19.882Z</time></trkpt><trkpt lat="44.1419708" lon="10.9184749"><ele>1036.0</ele><time>2026-04-24T14:52:20.881Z</time></trkpt><trkpt lat="44.1418838" lon="10.9184331"><ele>1034.0</ele><time>2026-04-24T14:52:21.88Z</time></trkpt><trkpt lat="44.1417973" lon="10.9184143"><ele>1032.0</ele><time>2026-04-24T14:52:22.881Z</time></trkpt><trkpt lat="44.1417135" lon="10.918402"><ele>1030.0</ele><time>2026-04-24T14:52:23.881Z</time></trkpt><trkpt lat="44.1416274" lon="10.918403"><ele>1030.0</ele><time>2026-04-24T14:52:24.88Z</time></trkpt><trkpt lat="44.1415499" lon="10.91842"><ele>1030.0</ele><time>2026-04-24T14:52:25.882Z</time></trkpt><trkpt lat="44.1414707" lon="10.9184259"><ele>1030.0</ele><time>2026-04-24T14:52:26.881Z</time></trkpt><trkpt lat="44.1413743" lon="10.9184408"><ele>1030.0</ele><time>2026-04-24T14:52:27.881Z</time></trkpt><trkpt lat="44.141279" lon="10.9184616"><ele>1030.0</ele><time>2026-04-24T14:52:28.882Z</time></trkpt><trkpt lat="44.1411797" lon="10.9184791"><ele>1028.5</ele><time>2026-04-24T14:52:29.882Z</time></trkpt><trkpt lat="44.1410875" lon="10.9184962"><ele>1027.0</ele><time>2026-04-24T14:52:30.881Z</time></trkpt><trkpt lat="44.1410046" lon="10.9185238"><ele>1025.5</ele><time>2026-04-24T14:52:31.881Z</time></trkpt><trkpt lat="44.1409156" lon="10.9185372"><ele>1024.0</ele><time>2026-04-24T14:52:32.881Z</time></trkpt><trkpt lat="44.1408308" lon="10.9185519"><ele>1022.4999999999999</ele><time>2026-04-24T14:52:33.88Z</time></trkpt><trkpt lat="44.1407451" lon="10.9185716"><ele>1021.0</ele><time>2026-04-24T14:52:34.882Z</time></trkpt><trkpt lat="44.1406529" lon="10.9185924"><ele>1019.8</ele><time>2026-04-24T14:52:35.881Z</time></trkpt><trkpt lat="44.1405566" lon="10.9186148"><ele>1018.5999999999999</ele><time>2026-04-24T14:52:36.88Z</time></trkpt><trkpt lat="44.1404551" lon="10.918632"><ele>1017.4</ele><time>2026-04-24T14:52:37.881Z</time></trkpt><trkpt lat="44.1403596" lon="10.9186476"><ele>1016.2</ele><time>2026-04-24T14:52:38.882Z</time></trkpt><trkpt lat="44.1402577" lon="10.9186703"><ele>1015.0</ele><time>2026-04-24T14:52:39.88Z</time></trkpt><trkpt lat="44.1401567" lon="10.9186848"><ele>1014.9999999999999</ele><time>2026-04-24T14:52:40.882Z</time></trkpt><trkpt lat="44.1400591" lon="10.9187211"><ele>1015.0</ele><time>2026-04-24T14:52:41.88Z</time></trkpt><trkpt lat="44.1399515" lon="10.9187514"><ele>1015.0</ele><time>2026-04-24T14:52:42.881Z</time></trkpt><trkpt lat="44.139881" lon="10.9187772"><ele>1015.0</ele><time>2026-04-24T14:52:43.881Z</time></trkpt><trkpt lat="44.1398139" lon="10.9188371"><ele>1014.9999999999999</ele><time>2026-04-24T14:52:44.881Z</time></trkpt><trkpt lat="44.1397632" lon="10.9188958"><ele>1015.0</ele><time>2026-04-24T14:52:45.881Z</time></trkpt><trkpt lat="44.1396637" lon="10.9189644"><ele>1015.0</ele><time>2026-04-24T14:52:47.882Z</time></trkpt><trkpt lat="44.1396074" lon="10.918891"><ele>1015.0</ele><time>2026-04-24T14:52:49.88Z</time></trkpt><trkpt lat="44.1396753" lon="10.9187358"><ele>1015.0</ele><time>2026-04-24T14:52:51.881Z</time></trkpt><trkpt lat="44.1397533" lon="10.9186436"><ele>1015.0</ele><time>2026-04-24T14:52:52.88Z</time></trkpt><trkpt lat="44.1398362" lon="10.9185529"><ele>1015.0</ele><time>2026-04-24T14:52:53.88Z</time></trkpt><trkpt lat="44.1399439" lon="10.9184792"><ele>1015.0</ele><time>2026-04-24T14:52:54.881Z</time></trkpt><trkpt lat="44.1400585" lon="10.9184085"><ele>1015.0</ele><time>2026-04-24T14:52:55.881Z</time></trkpt><trkpt lat="44.140164" lon="10.9183073"><ele>1015.0</ele><time>2026-04-24T14:52:56.881Z</time></trkpt><trkpt lat="44.1402598" lon="10.9181918"><ele>1015.0</ele><time>2026-04-24T14:52:57.881Z</time></trkpt><trkpt lat="44.1403407" lon="10.9180605"><ele>1008.75</ele><time>2026-04-24T14:52:58.881Z</time></trkpt><trkpt lat="44.1404082" lon="10.9179361"><ele>1002.5</ele><time>2026-04-24T14:52:59.881Z</time></trkpt><trkpt lat="44.1404874" lon="10.9178134"><ele>996.25</ele><time>2026-04-24T14:53:00.882Z</time></trkpt><trkpt lat="44.1405682" lon="10.9177195"><ele>990.0</ele><time>2026-04-24T14:53:01.881Z</time></trkpt><trkpt lat="44.1406647" lon="10.9176261"><ele>987.0</ele><time>2026-04-24T14:53:02.881Z</time></trkpt><trkpt lat="44.1407518" lon="10.9175306"><ele>984.0</ele><time>2026-04-24T14:53:03.88Z</time></trkpt><trkpt lat="44.140843" lon="10.917417"><ele>981.0</ele><time>2026-04-24T14:53:04.88Z</time></trkpt><trkpt lat="44.1409393" lon="10.9173191"><ele>978.0</ele><time>2026-04-24T14:53:05.88Z</time></trkpt><trkpt lat="44.1410358" lon="10.9172286"><ele>978.0</ele><time>2026-04-24T14:53:06.881Z</time></trkpt><trkpt lat="44.141136" lon="10.9171392"><ele>978.0</ele><time>2026-04-24T14:53:07.881Z</time></trkpt><trkpt lat="44.1412372" lon="10.9170522"><ele>978.0</ele><time>2026-04-24T14:53:08.881Z</time></trkpt><trkpt lat="44.1413382" lon="10.9169656"><ele>978.0</ele><time>2026-04-24T14:53:09.882Z</time></trkpt><trkpt lat="44.1414334" lon="10.9168758"><ele>978.0</ele><time>2026-04-24T14:53:10.881Z</time></trkpt><trkpt lat="44.1415327" lon="10.9167981"><ele>978.0</ele><time>2026-04-24T14:53:11.882Z</time></trkpt><trkpt lat="44.1416277" lon="10.916737"><ele>978.0</ele><time>2026-04-24T14:53:12.88Z</time></trkpt><trkpt lat="44.1417277" lon="10.9166844"><ele>978.0</ele><time>2026-04-24T14:53:13.881Z</time></trkpt><trkpt lat="44.1418423" lon="10.9166362"><ele>978.0</ele><time>2026-04-24T14:53:14.88Z</time></trkpt><trkpt lat="44.1419598" lon="10.9165985"><ele>978.25</ele><time>2026-04-24T14:53:15.881Z</time></trkpt><trkpt lat="44.14208" lon="10.9165522"><ele>978.5</ele><time>2026-04-24T14:53:16.881Z</time></trkpt><trkpt lat="44.1422072" lon="10.9165121"><ele>978.75</ele><time>2026-04-24T14:53:17.881Z</time></trkpt><trkpt lat="44.1423314" lon="10.916473"><ele>979.0</ele><time>2026-04-24T14:53:18.881Z</time></trkpt><trkpt lat="44.1424527" lon="10.9164292"><ele>979.0</ele><time>2026-04-24T14:53:19.88Z</time></trkpt><trkpt lat="44.1425701" lon="10.9163771"><ele>979.0</ele><time>2026-04-24T14:53:20.882Z</time></trkpt><trkpt lat="44.1426798" lon="10.9163104"><ele>979.0</ele><time>2026-04-24T14:53:21.88Z</time></trkpt><trkpt lat="44.1427819" lon="10.9162461"><ele>979.0</ele><time>2026-04-24T14:53:22.88Z</time></trkpt><trkpt lat="44.1428889" lon="10.9161767"><ele>979.0</ele><time>2026-04-24T14:53:23.882Z</time></trkpt><trkpt lat="44.1430008" lon="10.9161055"><ele>979.0</ele><time>2026-04-24T14:53:24.882Z</time></trkpt><trkpt lat="44.1431049" lon="10.9160374"><ele>979.0</ele><time>2026-04-24T14:53:25.881Z</time></trkpt><trkpt lat="44.1432077" lon="10.9159705"><ele>979.0</ele><time>2026-04-24T14:53:26.88Z</time></trkpt><trkpt lat="44.1433068" lon="10.9159079"><ele>976.5</ele><time>2026-04-24T14:53:27.881Z</time></trkpt><trkpt lat="44.1434147" lon="10.9158614"><ele>974.0</ele><time>2026-04-24T14:53:28.88Z</time></trkpt><trkpt lat="44.1435282" lon="10.9158197"><ele>971.5</ele><time>2026-04-24T14:53:29.882Z</time></trkpt><trkpt lat="44.1436478" lon="10.9157892"><ele>969.0</ele><time>2026-04-24T14:53:30.881Z</time></trkpt><trkpt lat="44.1437634" lon="10.9157733"><ele>969.0</ele><time>2026-04-24T14:53:31.881Z</time></trkpt><trkpt lat="44.1438738" lon="10.9157725"><ele>969.0000000000001</ele><time>2026-04-24T14:53:32.882Z</time></trkpt><trkpt lat="44.1439819" lon="10.9157791"><ele>969.0000000000001</ele><time>2026-04-24T14:53:33.882Z</time></trkpt><trkpt lat="44.1440931" lon="10.9157908"><ele>969.0</ele><time>2026-04-24T14:53:34.881Z</time></trkpt><trkpt lat="44.1442072" lon="10.9157999"><ele>969.0</ele><time>2026-04-24T14:53:35.881Z</time></trkpt><trkpt lat="44.1443351" lon="10.9158139"><ele>970.0</ele><time>2026-04-24T14:53:36.881Z</time></trkpt><trkpt lat="44.1444712" lon="10.9158158"><ele>971.0</ele><time>2026-04-24T14:53:37.882Z</time></trkpt><trkpt lat="44.1446094" lon="10.9158381"><ele>972.0</ele><time>2026-04-24T14:53:38.881Z</time></trkpt><trkpt lat="44.1447477" lon="10.9158532"><ele>973.0</ele><time>2026-04-24T14:53:39.881Z</time></trkpt><trkpt lat="44.1448868" lon="10.9158714"><ele>974.5</ele><time>2026-04-24T14:53:40.881Z</time></trkpt><trkpt lat="44.1450177" lon="10.9158888"><ele>976.0</ele><time>2026-04-24T14:53:41.88Z</time></trkpt><trkpt lat="44.145148" lon="10.9159177"><ele>977.5</ele><time>2026-04-24T14:53:42.88Z</time></trkpt><trkpt lat="44.1452646" lon="10.9159474"><ele>979.0</ele><time>2026-04-24T14:53:43.88Z</time></trkpt><trkpt lat="44.1453705" lon="10.9159765"><ele>978.9999999999999</ele><time>2026-04-24T14:53:44.882Z</time></trkpt><trkpt lat="44.1454675" lon="10.9160071"><ele>979.0</ele><time>2026-04-24T14:53:45.88Z</time></trkpt><trkpt lat="44.1455383" lon="10.9160542"><ele>979.0</ele><time>2026-04-24T14:53:46.882Z</time></trkpt><trkpt lat="44.1456026" lon="10.9161186"><ele>979.0</ele><time>2026-04-24T14:53:47.881Z</time></trkpt><trkpt lat="44.1456508" lon="10.9162194"><ele>978.9999999999999</ele><time>2026-04-24T14:53:48.882Z</time></trkpt><trkpt lat="44.1456807" lon="10.9163518"><ele>979.0</ele><time>2026-04-24T14:53:49.881Z</time></trkpt><trkpt lat="44.1457138" lon="10.916508"><ele>972.25</ele><time>2026-04-24T14:53:50.882Z</time></trkpt><trkpt lat="44.1457545" lon="10.9166774"><ele>965.5</ele><time>2026-04-24T14:53:51.881Z</time></trkpt><trkpt lat="44.1457932" lon="10.916854"><ele>958.75</ele><time>2026-04-24T14:53:52.88Z</time></trkpt><trkpt lat="44.1458404" lon="10.9170303"><ele>952.0</ele><time>2026-04-24T14:53:53.882Z</time></trkpt><trkpt lat="44.1458966" lon="10.9171917"><ele>951.6</ele><time>2026-04-24T14:53:54.881Z</time></trkpt><trkpt lat="44.1459238" lon="10.917337"><ele>951.2</ele><time>2026-04-24T14:53:55.88Z</time></trkpt><trkpt lat="44.145925" lon="10.9174915"><ele>950.8</ele><time>2026-04-24T14:53:56.882Z</time></trkpt><trkpt lat="44.1459238" lon="10.9176226"><ele>950.4</ele><time>2026-04-24T14:53:57.882Z</time></trkpt><trkpt lat="44.1459186" lon="10.9177311"><ele>950.0</ele><time>2026-04-24T14:53:58.881Z</time></trkpt><trkpt lat="44.1459023" lon="10.9178223"><ele>950.0000000000001</ele><time>2026-04-24T14:53:59.881Z</time></trkpt><trkpt lat="44.1459148" lon="10.917963"><ele>950.0</ele><time>2026-04-24T14:54:01.881Z</time></trkpt><trkpt lat="44.1459951" lon="10.9179886"><ele>950.0</ele><time>2026-04-24T14:54:04.882Z</time></trkpt><trkpt lat="44.146036" lon="10.9178828"><ele>950.0</ele><time>2026-04-24T14:54:07.88Z</time></trkpt><trkpt lat="44.1460595" lon="10.9177839"><ele>950.0000000000001</ele><time>2026-04-24T14:54:08.881Z</time></trkpt><trkpt lat="44.1460834" lon="10.9176728"><ele>950.0</ele><time>2026-04-24T14:54:09.882Z</time></trkpt><trkpt lat="44.1461052" lon="10.9175677"><ele>950.0</ele><time>2026-04-24T14:54:10.881Z</time></trkpt><trkpt lat="44.1461253" lon="10.9174732"><ele>950.0</ele><time>2026-04-24T14:54:11.881Z</time></trkpt><trkpt lat="44.1461772" lon="10.9173619"><ele>950.0</ele><time>2026-04-24T14:54:13.881Z</time></trkpt><trkpt lat="44.1462688" lon="10.9173993"><ele>950.0</ele><time>2026-04-24T14:54:15.882Z</time></trkpt><trkpt lat="44.1462941" lon="10.9174871"><ele>950.0</ele><time>2026-04-24T14:54:16.881Z</time></trkpt><trkpt lat="44.1462527" lon="10.9176732"><ele>948.75</ele><time>2026-04-24T14:54:17.881Z</time></trkpt><trkpt lat="44.1462596" lon="10.9178295"><ele>947.5</ele><time>2026-04-24T14:54:18.881Z</time></trkpt><trkpt lat="44.1462855" lon="10.9180169"><ele>946.25</ele><time>2026-04-24T14:54:19.882Z</time></trkpt><trkpt lat="44.1463025" lon="10.9181973"><ele>945.0</ele><time>2026-04-24T14:54:20.881Z</time></trkpt><trkpt lat="44.1463159" lon="10.9183598"><ele>943.0</ele><time>2026-04-24T14:54:21.88Z</time></trkpt><trkpt lat="44.1463178" lon="10.9185178"><ele>941.0</ele><time>2026-04-24T14:54:22.88Z</time></trkpt><trkpt lat="44.1463033" lon="10.9186939"><ele>939.0</ele><time>2026-04-24T14:54:23.881Z</time></trkpt><trkpt lat="44.1462846" lon="10.9188708"><ele>937.0</ele><time>2026-04-24T14:54:24.88Z</time></trkpt><trkpt lat="44.1462708" lon="10.919048"><ele>937.0</ele><time>2026-04-24T14:54:25.881Z</time></trkpt><trkpt lat="44.1462601" lon="10.9192301"><ele>937.0</ele><time>2026-04-24T14:54:26.882Z</time></trkpt><trkpt lat="44.1462474" lon="10.9194029"><ele>937.0</ele><time>2026-04-24T14:54:27.88Z</time></trkpt><trkpt lat="44.1462393" lon="10.919565"><ele>937.0</ele><time>2026-04-24T14:54:28.882Z</time></trkpt><trkpt lat="44.1462303" lon="10.9197235"><ele>935.0</ele><time>2026-04-24T14:54:29.882Z</time></trkpt><trkpt lat="44.1462279" lon="10.9198834"><ele>933.0</ele><time>2026-04-24T14:54:30.882Z</time></trkpt><trkpt lat="44.146226" lon="10.9200473"><ele>931.0</ele><time>2026-04-24T14:54:31.882Z</time></trkpt><trkpt lat="44.1462192" lon="10.9202175"><ele>929.0</ele><time>2026-04-24T14:54:32.881Z</time></trkpt><trkpt lat="44.1462081" lon="10.9203879"><ele>926.0</ele><time>2026-04-24T14:54:33.881Z</time></trkpt><trkpt lat="44.1461951" lon="10.9205617"><ele>923.0</ele><time>2026-04-24T14:54:34.881Z</time></trkpt><trkpt lat="44.1461833" lon="10.9207396"><ele>920.0</ele><time>2026-04-24T14:54:35.881Z</time></trkpt><trkpt lat="44.1461716" lon="10.920916"><ele>917.0</ele><time>2026-04-24T14:54:36.881Z</time></trkpt><trkpt lat="44.1461697" lon="10.9210934"><ele>915.5</ele><time>2026-04-24T14:54:37.88Z</time></trkpt><trkpt lat="44.1461707" lon="10.9212757"><ele>914.0</ele><time>2026-04-24T14:54:38.882Z</time></trkpt><trkpt lat="44.1461667" lon="10.9214526"><ele>912.5</ele><time>2026-04-24T14:54:39.88Z</time></trkpt><trkpt lat="44.1461645" lon="10.9216134"><ele>911.0</ele><time>2026-04-24T14:54:40.88Z</time></trkpt><trkpt lat="44.1461526" lon="10.9217669"><ele>910.0</ele><time>2026-04-24T14:54:41.881Z</time></trkpt><trkpt lat="44.1461429" lon="10.921911"><ele>908.9999999999999</ele><time>2026-04-24T14:54:42.881Z</time></trkpt><trkpt lat="44.146141" lon="10.9220555"><ele>907.9999999999999</ele><time>2026-04-24T14:54:43.881Z</time></trkpt><trkpt lat="44.1461526" lon="10.9222032"><ele>907.0</ele><time>2026-04-24T14:54:44.881Z</time></trkpt><trkpt lat="44.1461898" lon="10.9223418"><ele>906.0</ele><time>2026-04-24T14:54:45.881Z</time></trkpt><trkpt lat="44.1462161" lon="10.9224686"><ele>906.0</ele><time>2026-04-24T14:54:46.882Z</time></trkpt><trkpt lat="44.1462766" lon="10.9225601"><ele>905.9999999999999</ele><time>2026-04-24T14:54:47.881Z</time></trkpt><trkpt lat="44.1463591" lon="10.9226598"><ele>905.9999999999999</ele><time>2026-04-24T14:54:48.881Z</time></trkpt><trkpt lat="44.1464471" lon="10.922708"><ele>906.0</ele><time>2026-04-24T14:54:49.88Z</time></trkpt><trkpt lat="44.1465271" lon="10.9227576"><ele>906.0</ele><time>2026-04-24T14:54:50.882Z</time></trkpt><trkpt lat="44.146609" lon="10.9227642"><ele>900.5999999999999</ele><time>2026-04-24T14:54:51.882Z</time></trkpt><trkpt lat="44.1466936" lon="10.9227579"><ele>895.1999999999999</ele><time>2026-04-24T14:54:52.881Z</time></trkpt><trkpt lat="44.1467893" lon="10.9226445"><ele>889.8000000000001</ele><time>2026-04-24T14:54:53.881Z</time></trkpt><trkpt lat="44.1468728" lon="10.9226156"><ele>884.4000000000001</ele><time>2026-04-24T14:54:54.88Z</time></trkpt><trkpt lat="44.1469513" lon="10.9226094"><ele>879.0</ele><time>2026-04-24T14:54:55.882Z</time></trkpt><trkpt lat="44.1470261" lon="10.9226369"><ele>879.0</ele><time>2026-04-24T14:54:56.881Z</time></trkpt><trkpt lat="44.1470998" lon="10.9226918"><ele>879.0</ele><time>2026-04-24T14:54:57.881Z</time></trkpt><trkpt lat="44.1471694" lon="10.9227649"><ele>879.0</ele><time>2026-04-24T14:54:58.882Z</time></trkpt><trkpt lat="44.1472262" lon="10.9228582"><ele>879.0</ele><time>2026-04-24T14:54:59.881Z</time></trkpt><trkpt lat="44.1472727" lon="10.9229701"><ele>879.0</ele><time>2026-04-24T14:55:00.882Z</time></trkpt><trkpt lat="44.1473233" lon="10.9230815"><ele>879.0</ele><time>2026-04-24T14:55:01.881Z</time></trkpt><trkpt lat="44.1473627" lon="10.923186"><ele>878.8000000000001</ele><time>2026-04-24T14:55:02.882Z</time></trkpt><trkpt lat="44.1473834" lon="10.9232998"><ele>878.6000000000001</ele><time>2026-04-24T14:55:03.881Z</time></trkpt><trkpt lat="44.1473776" lon="10.9234277"><ele>878.4</ele><time>2026-04-24T14:55:04.881Z</time></trkpt><trkpt lat="44.1473542" lon="10.9235633"><ele>878.2</ele><time>2026-04-24T14:55:05.881Z</time></trkpt><trkpt lat="44.1473483" lon="10.9236987"><ele>878.0</ele><time>2026-04-24T14:55:06.881Z</time></trkpt><trkpt lat="44.1473583" lon="10.923841"><ele>878.0</ele><time>2026-04-24T14:55:07.88Z</time></trkpt><trkpt lat="44.1473764" lon="10.9239885"><ele>878.0</ele><time>2026-04-24T14:55:08.88Z</time></trkpt><trkpt lat="44.1473963" lon="10.9241373"><ele>878.0</ele><time>2026-04-24T14:55:09.881Z</time></trkpt><trkpt lat="44.1474191" lon="10.9242727"><ele>878.0</ele><time>2026-04-24T14:55:10.881Z</time></trkpt><trkpt lat="44.1474694" lon="10.9243943"><ele>878.0</ele><time>2026-04-24T14:55:11.882Z</time></trkpt><trkpt lat="44.1475433" lon="10.9244918"><ele>875.0000000000001</ele><time>2026-04-24T14:55:12.88Z</time></trkpt><trkpt lat="44.1476306" lon="10.9245653"><ele>872.0</ele><time>2026-04-24T14:55:13.882Z</time></trkpt><trkpt lat="44.1477159" lon="10.9246104"><ele>869.0</ele><time>2026-04-24T14:55:14.882Z</time></trkpt><trkpt lat="44.1477923" lon="10.9246225"><ele>866.0</ele><time>2026-04-24T14:55:15.881Z</time></trkpt><trkpt lat="44.1478559" lon="10.9245812"><ele>863.0000000000001</ele><time>2026-04-24T14:55:16.882Z</time></trkpt><trkpt lat="44.1479076" lon="10.9245171"><ele>860.0</ele><time>2026-04-24T14:55:17.881Z</time></trkpt><trkpt lat="44.1479114" lon="10.9243996"><ele>860.0000000000001</ele><time>2026-04-24T14:55:18.881Z</time></trkpt><trkpt lat="44.1478906" lon="10.9243006"><ele>860.0</ele><time>2026-04-24T14:55:19.881Z</time></trkpt><trkpt lat="44.1478664" lon="10.9242184"><ele>860.0</ele><time>2026-04-24T14:55:20.882Z</time></trkpt><trkpt lat="44.1479186" lon="10.9241118"><ele>860.0</ele><time>2026-04-24T14:55:22.882Z</time></trkpt><trkpt lat="44.1480137" lon="10.9241982"><ele>860.0000000000001</ele><time>2026-04-24T14:55:24.881Z</time></trkpt><trkpt lat="44.1480752" lon="10.9242852"><ele>860.0</ele><time>2026-04-24T14:55:25.88Z</time></trkpt><trkpt lat="44.1481714" lon="10.9243393"><ele>854.2</ele><time>2026-04-24T14:55:26.881Z</time></trkpt><trkpt lat="44.148267" lon="10.9243812"><ele>848.4</ele><time>2026-04-24T14:55:27.881Z</time></trkpt><trkpt lat="44.1483555" lon="10.9244354"><ele>842.5999999999999</ele><time>2026-04-24T14:55:28.882Z</time></trkpt><trkpt lat="44.1484324" lon="10.9244905"><ele>836.8</ele><time>2026-04-24T14:55:29.88Z</time></trkpt><trkpt lat="44.1485025" lon="10.9245613"><ele>831.0</ele><time>2026-04-24T14:55:30.88Z</time></trkpt><trkpt lat="44.1485631" lon="10.924651"><ele>831.0</ele><time>2026-04-24T14:55:31.881Z</time></trkpt><trkpt lat="44.148606" lon="10.9247542"><ele>831.0</ele><time>2026-04-24T14:55:32.882Z</time></trkpt><trkpt lat="44.1486387" lon="10.9248618"><ele>831.0</ele><time>2026-04-24T14:55:33.881Z</time></trkpt><trkpt lat="44.1486654" lon="10.9249573"><ele>831.0</ele><time>2026-04-24T14:55:34.882Z</time></trkpt><trkpt lat="44.1487075" lon="10.9251032"><ele>828.0</ele><time>2026-04-24T14:55:36.882Z</time></trkpt><trkpt lat="44.1487336" lon="10.9252077"><ele>828.0</ele><time>2026-04-24T14:55:38.882Z</time></trkpt></trkseg></trk></gpx>